<?xml version="1.0" encoding="UTF-8" standalone="no" ?>
<gpx xmlns="http://www.topografix.com/GPX/1/1" xmlns:xsi="http://www.w3.org/2001/XMLSchema-instance" xsi:schemaLocation="http://www.topografix.com/GPX/1/1 http://www.topografix.com/GPX/1/1/gpx.xsd" version="1.1" creator="VisuGPX - https://www.visugpx.com">
  <metadata>
    <name>Ski Rando - Pic des Trois Seigneurs</name>
    <desc><![CDATA[Avec Francis et Patricia
Très belle journée ]]></desc>
  </metadata>
  <trk>
    <name><![CDATA[16-DEC-13 14:29:28]]></name>
    <trkseg>
      <trkpt lat="42.80675" lon="1.42405">
        <ele>1348.39</ele>
        <time>2013-12-16T08:19:05Z</time>
      </trkpt>
      <trkpt lat="42.80675" lon="1.42407">
        <ele>1348.87</ele>
        <time>2013-12-16T08:19:24Z</time>
      </trkpt>
      <trkpt lat="42.80673" lon="1.42409">
        <ele>1345.5</ele>
        <time>2013-12-16T08:19:44Z</time>
      </trkpt>
      <trkpt lat="42.80669" lon="1.42404">
        <ele>1344.06</ele>
        <time>2013-12-16T08:20:04Z</time>
      </trkpt>
      <trkpt lat="42.80663" lon="1.42418">
        <ele>1343.58</ele>
        <time>2013-12-16T08:20:31Z</time>
      </trkpt>
      <trkpt lat="42.80666" lon="1.42418">
        <ele>1343.1</ele>
        <time>2013-12-16T08:20:49Z</time>
      </trkpt>
      <trkpt lat="42.80666" lon="1.42417">
        <ele>1343.58</ele>
        <time>2013-12-16T08:21:06Z</time>
      </trkpt>
      <trkpt lat="42.80664" lon="1.42417">
        <ele>1344.54</ele>
        <time>2013-12-16T08:21:29Z</time>
      </trkpt>
      <trkpt lat="42.80667" lon="1.42419">
        <ele>1341.66</ele>
        <time>2013-12-16T08:21:50Z</time>
      </trkpt>
      <trkpt lat="42.80668" lon="1.4241">
        <ele>1340.7</ele>
        <time>2013-12-16T08:22:13Z</time>
      </trkpt>
      <trkpt lat="42.80667" lon="1.42402">
        <ele>1343.1</ele>
        <time>2013-12-16T08:22:40Z</time>
      </trkpt>
      <trkpt lat="42.80662" lon="1.42401">
        <ele>1345.02</ele>
        <time>2013-12-16T08:23:04Z</time>
      </trkpt>
      <trkpt lat="42.80664" lon="1.42399">
        <ele>1348.87</ele>
        <time>2013-12-16T08:23:21Z</time>
      </trkpt>
      <trkpt lat="42.80668" lon="1.42409">
        <ele>1346.46</ele>
        <time>2013-12-16T08:23:38Z</time>
      </trkpt>
      <trkpt lat="42.80651" lon="1.42401">
        <ele>1344.06</ele>
        <time>2013-12-16T08:23:55Z</time>
      </trkpt>
      <trkpt lat="42.80647" lon="1.42401">
        <ele>1343.1</ele>
        <time>2013-12-16T08:23:58Z</time>
      </trkpt>
      <trkpt lat="42.80637" lon="1.42401">
        <ele>1342.14</ele>
        <time>2013-12-16T08:24:12Z</time>
      </trkpt>
      <trkpt lat="42.80636" lon="1.42389">
        <ele>1341.66</ele>
        <time>2013-12-16T08:24:25Z</time>
      </trkpt>
      <trkpt lat="42.80637" lon="1.42374">
        <ele>1343.58</ele>
        <time>2013-12-16T08:24:38Z</time>
      </trkpt>
      <trkpt lat="42.80634" lon="1.42365">
        <ele>1344.54</ele>
        <time>2013-12-16T08:24:56Z</time>
      </trkpt>
      <trkpt lat="42.80635" lon="1.42354">
        <ele>1345.5</ele>
        <time>2013-12-16T08:25:10Z</time>
      </trkpt>
      <trkpt lat="42.80636" lon="1.42341">
        <ele>1346.46</ele>
        <time>2013-12-16T08:25:25Z</time>
      </trkpt>
      <trkpt lat="42.80636" lon="1.42331">
        <ele>1346.46</ele>
        <time>2013-12-16T08:25:41Z</time>
      </trkpt>
      <trkpt lat="42.80636" lon="1.42317">
        <ele>1347.43</ele>
        <time>2013-12-16T08:25:56Z</time>
      </trkpt>
      <trkpt lat="42.80636" lon="1.42302">
        <ele>1348.39</ele>
        <time>2013-12-16T08:26:09Z</time>
      </trkpt>
      <trkpt lat="42.80633" lon="1.42293">
        <ele>1349.35</ele>
        <time>2013-12-16T08:26:21Z</time>
      </trkpt>
      <trkpt lat="42.80627" lon="1.42287">
        <ele>1352.23</ele>
        <time>2013-12-16T08:26:34Z</time>
      </trkpt>
      <trkpt lat="42.80622" lon="1.42275">
        <ele>1355.12</ele>
        <time>2013-12-16T08:26:47Z</time>
      </trkpt>
      <trkpt lat="42.8062" lon="1.42264">
        <ele>1357.52</ele>
        <time>2013-12-16T08:27:02Z</time>
      </trkpt>
      <trkpt lat="42.80616" lon="1.42253">
        <ele>1363.29</ele>
        <time>2013-12-16T08:27:14Z</time>
      </trkpt>
      <trkpt lat="42.80614" lon="1.42243">
        <ele>1367.13</ele>
        <time>2013-12-16T08:27:28Z</time>
      </trkpt>
      <trkpt lat="42.8061" lon="1.42232">
        <ele>1370.5</ele>
        <time>2013-12-16T08:27:42Z</time>
      </trkpt>
      <trkpt lat="42.80607" lon="1.42219">
        <ele>1371.46</ele>
        <time>2013-12-16T08:27:55Z</time>
      </trkpt>
      <trkpt lat="42.80601" lon="1.42209">
        <ele>1372.9</ele>
        <time>2013-12-16T08:28:10Z</time>
      </trkpt>
      <trkpt lat="42.80594" lon="1.42196">
        <ele>1375.78</ele>
        <time>2013-12-16T08:28:27Z</time>
      </trkpt>
      <trkpt lat="42.80587" lon="1.42181">
        <ele>1379.15</ele>
        <time>2013-12-16T08:28:44Z</time>
      </trkpt>
      <trkpt lat="42.8058" lon="1.42163">
        <ele>1379.15</ele>
        <time>2013-12-16T08:29:01Z</time>
      </trkpt>
      <trkpt lat="42.80575" lon="1.42154">
        <ele>1379.63</ele>
        <time>2013-12-16T08:29:14Z</time>
      </trkpt>
      <trkpt lat="42.80571" lon="1.42142">
        <ele>1382.51</ele>
        <time>2013-12-16T08:29:28Z</time>
      </trkpt>
      <trkpt lat="42.80568" lon="1.42131">
        <ele>1385.4</ele>
        <time>2013-12-16T08:29:41Z</time>
      </trkpt>
      <trkpt lat="42.80566" lon="1.42116">
        <ele>1385.88</ele>
        <time>2013-12-16T08:29:55Z</time>
      </trkpt>
      <trkpt lat="42.80566" lon="1.42099">
        <ele>1389.72</ele>
        <time>2013-12-16T08:30:08Z</time>
      </trkpt>
      <trkpt lat="42.80564" lon="1.42085">
        <ele>1392.13</ele>
        <time>2013-12-16T08:30:21Z</time>
      </trkpt>
      <trkpt lat="42.80564" lon="1.42069">
        <ele>1395.01</ele>
        <time>2013-12-16T08:30:35Z</time>
      </trkpt>
      <trkpt lat="42.80563" lon="1.42054">
        <ele>1394.53</ele>
        <time>2013-12-16T08:30:50Z</time>
      </trkpt>
      <trkpt lat="42.80565" lon="1.42037">
        <ele>1395.01</ele>
        <time>2013-12-16T08:31:04Z</time>
      </trkpt>
      <trkpt lat="42.80564" lon="1.42022">
        <ele>1396.45</ele>
        <time>2013-12-16T08:31:19Z</time>
      </trkpt>
      <trkpt lat="42.80564" lon="1.42009">
        <ele>1398.86</ele>
        <time>2013-12-16T08:31:33Z</time>
      </trkpt>
      <trkpt lat="42.80563" lon="1.41995">
        <ele>1403.18</ele>
        <time>2013-12-16T08:31:47Z</time>
      </trkpt>
      <trkpt lat="42.80564" lon="1.41983">
        <ele>1407.51</ele>
        <time>2013-12-16T08:32:01Z</time>
      </trkpt>
      <trkpt lat="42.80567" lon="1.41969">
        <ele>1411.35</ele>
        <time>2013-12-16T08:32:16Z</time>
      </trkpt>
      <trkpt lat="42.80569" lon="1.41958">
        <ele>1413.28</ele>
        <time>2013-12-16T08:32:30Z</time>
      </trkpt>
      <trkpt lat="42.80574" lon="1.41942">
        <ele>1414.24</ele>
        <time>2013-12-16T08:32:44Z</time>
      </trkpt>
      <trkpt lat="42.80578" lon="1.41933">
        <ele>1415.68</ele>
        <time>2013-12-16T08:33:00Z</time>
      </trkpt>
      <trkpt lat="42.80578" lon="1.41936">
        <ele>1420.49</ele>
        <time>2013-12-16T08:33:27Z</time>
      </trkpt>
      <trkpt lat="42.80577" lon="1.41933">
        <ele>1422.41</ele>
        <time>2013-12-16T08:33:48Z</time>
      </trkpt>
      <trkpt lat="42.80577" lon="1.41931">
        <ele>1424.81</ele>
        <time>2013-12-16T08:34:11Z</time>
      </trkpt>
      <trkpt lat="42.80581" lon="1.41924">
        <ele>1422.89</ele>
        <time>2013-12-16T08:34:20Z</time>
      </trkpt>
      <trkpt lat="42.80585" lon="1.41911">
        <ele>1422.41</ele>
        <time>2013-12-16T08:34:33Z</time>
      </trkpt>
      <trkpt lat="42.80591" lon="1.419">
        <ele>1423.85</ele>
        <time>2013-12-16T08:34:45Z</time>
      </trkpt>
      <trkpt lat="42.80595" lon="1.41889">
        <ele>1424.81</ele>
        <time>2013-12-16T08:35:00Z</time>
      </trkpt>
      <trkpt lat="42.806" lon="1.41878">
        <ele>1426.73</ele>
        <time>2013-12-16T08:35:14Z</time>
      </trkpt>
      <trkpt lat="42.80609" lon="1.41864">
        <ele>1427.7</ele>
        <time>2013-12-16T08:35:30Z</time>
      </trkpt>
      <trkpt lat="42.80614" lon="1.41853">
        <ele>1428.66</ele>
        <time>2013-12-16T08:35:45Z</time>
      </trkpt>
      <trkpt lat="42.80616" lon="1.41842">
        <ele>1431.54</ele>
        <time>2013-12-16T08:35:58Z</time>
      </trkpt>
      <trkpt lat="42.8062" lon="1.41833">
        <ele>1435.39</ele>
        <time>2013-12-16T08:36:11Z</time>
      </trkpt>
      <trkpt lat="42.80625" lon="1.41824">
        <ele>1438.75</ele>
        <time>2013-12-16T08:36:25Z</time>
      </trkpt>
      <trkpt lat="42.80629" lon="1.41815">
        <ele>1441.63</ele>
        <time>2013-12-16T08:36:38Z</time>
      </trkpt>
      <trkpt lat="42.80634" lon="1.41806">
        <ele>1442.11</ele>
        <time>2013-12-16T08:36:50Z</time>
      </trkpt>
      <trkpt lat="42.80638" lon="1.41797">
        <ele>1444.04</ele>
        <time>2013-12-16T08:37:02Z</time>
      </trkpt>
      <trkpt lat="42.80643" lon="1.4179">
        <ele>1444.52</ele>
        <time>2013-12-16T08:37:15Z</time>
      </trkpt>
      <trkpt lat="42.80649" lon="1.41792">
        <ele>1446.44</ele>
        <time>2013-12-16T08:37:26Z</time>
      </trkpt>
      <trkpt lat="42.80655" lon="1.41801">
        <ele>1445.96</ele>
        <time>2013-12-16T08:37:38Z</time>
      </trkpt>
      <trkpt lat="42.8066" lon="1.4181">
        <ele>1447.88</ele>
        <time>2013-12-16T08:37:49Z</time>
      </trkpt>
      <trkpt lat="42.80663" lon="1.41819">
        <ele>1448.36</ele>
        <time>2013-12-16T08:38:01Z</time>
      </trkpt>
      <trkpt lat="42.80667" lon="1.41826">
        <ele>1449.32</ele>
        <time>2013-12-16T08:38:11Z</time>
      </trkpt>
      <trkpt lat="42.80672" lon="1.41835">
        <ele>1452.21</ele>
        <time>2013-12-16T08:38:23Z</time>
      </trkpt>
      <trkpt lat="42.80674" lon="1.41847">
        <ele>1452.69</ele>
        <time>2013-12-16T08:38:38Z</time>
      </trkpt>
      <trkpt lat="42.80682" lon="1.41856">
        <ele>1456.53</ele>
        <time>2013-12-16T08:38:54Z</time>
      </trkpt>
      <trkpt lat="42.80688" lon="1.41851">
        <ele>1458.94</ele>
        <time>2013-12-16T08:39:07Z</time>
      </trkpt>
      <trkpt lat="42.80695" lon="1.41842">
        <ele>1461.34</ele>
        <time>2013-12-16T08:39:21Z</time>
      </trkpt>
      <trkpt lat="42.80701" lon="1.41845">
        <ele>1461.34</ele>
        <time>2013-12-16T08:39:32Z</time>
      </trkpt>
      <trkpt lat="42.80706" lon="1.41861">
        <ele>1465.19</ele>
        <time>2013-12-16T08:39:45Z</time>
      </trkpt>
      <trkpt lat="42.8071" lon="1.41876">
        <ele>1467.11</ele>
        <time>2013-12-16T08:39:58Z</time>
      </trkpt>
      <trkpt lat="42.80712" lon="1.4189">
        <ele>1467.11</ele>
        <time>2013-12-16T08:40:10Z</time>
      </trkpt>
      <trkpt lat="42.80715" lon="1.41906">
        <ele>1468.07</ele>
        <time>2013-12-16T08:40:23Z</time>
      </trkpt>
      <trkpt lat="42.80716" lon="1.4191">
        <ele>1468.55</ele>
        <time>2013-12-16T08:40:27Z</time>
      </trkpt>
      <trkpt lat="42.80716" lon="1.41924">
        <ele>1469.03</ele>
        <time>2013-12-16T08:40:38Z</time>
      </trkpt>
      <trkpt lat="42.80717" lon="1.4194">
        <ele>1469.03</ele>
        <time>2013-12-16T08:40:51Z</time>
      </trkpt>
      <trkpt lat="42.80715" lon="1.41958">
        <ele>1469.51</ele>
        <time>2013-12-16T08:41:05Z</time>
      </trkpt>
      <trkpt lat="42.80713" lon="1.41967">
        <ele>1469.99</ele>
        <time>2013-12-16T08:41:12Z</time>
      </trkpt>
      <trkpt lat="42.80715" lon="1.41981">
        <ele>1471.44</ele>
        <time>2013-12-16T08:41:24Z</time>
      </trkpt>
      <trkpt lat="42.80715" lon="1.41985">
        <ele>1471.44</ele>
        <time>2013-12-16T08:41:28Z</time>
      </trkpt>
      <trkpt lat="42.80715" lon="1.41996">
        <ele>1473.36</ele>
        <time>2013-12-16T08:41:41Z</time>
      </trkpt>
      <trkpt lat="42.80718" lon="1.42009">
        <ele>1472.88</ele>
        <time>2013-12-16T08:41:56Z</time>
      </trkpt>
      <trkpt lat="42.80719" lon="1.42021">
        <ele>1473.84</ele>
        <time>2013-12-16T08:42:08Z</time>
      </trkpt>
      <trkpt lat="42.80721" lon="1.42022">
        <ele>1472.4</ele>
        <time>2013-12-16T08:42:38Z</time>
      </trkpt>
      <trkpt lat="42.80724" lon="1.42021">
        <ele>1471.92</ele>
        <time>2013-12-16T08:42:46Z</time>
      </trkpt>
      <trkpt lat="42.80734" lon="1.42013">
        <ele>1474.8</ele>
        <time>2013-12-16T08:42:58Z</time>
      </trkpt>
      <trkpt lat="42.80742" lon="1.42014">
        <ele>1477.68</ele>
        <time>2013-12-16T08:43:13Z</time>
      </trkpt>
      <trkpt lat="42.80745" lon="1.42016">
        <ele>1475.76</ele>
        <time>2013-12-16T08:43:28Z</time>
      </trkpt>
      <trkpt lat="42.80747" lon="1.42015">
        <ele>1477.2</ele>
        <time>2013-12-16T08:43:41Z</time>
      </trkpt>
      <trkpt lat="42.80753" lon="1.42012">
        <ele>1478.65</ele>
        <time>2013-12-16T08:44:01Z</time>
      </trkpt>
      <trkpt lat="42.80754" lon="1.42004">
        <ele>1481.53</ele>
        <time>2013-12-16T08:44:13Z</time>
      </trkpt>
      <trkpt lat="42.80756" lon="1.41993">
        <ele>1482.97</ele>
        <time>2013-12-16T08:44:25Z</time>
      </trkpt>
      <trkpt lat="42.80758" lon="1.41983">
        <ele>1484.89</ele>
        <time>2013-12-16T08:44:39Z</time>
      </trkpt>
      <trkpt lat="42.80759" lon="1.41972">
        <ele>1485.85</ele>
        <time>2013-12-16T08:44:52Z</time>
      </trkpt>
      <trkpt lat="42.8076" lon="1.41963">
        <ele>1487.3</ele>
        <time>2013-12-16T08:45:04Z</time>
      </trkpt>
      <trkpt lat="42.80762" lon="1.41954">
        <ele>1488.74</ele>
        <time>2013-12-16T08:45:16Z</time>
      </trkpt>
      <trkpt lat="42.80769" lon="1.4196">
        <ele>1492.58</ele>
        <time>2013-12-16T08:45:31Z</time>
      </trkpt>
      <trkpt lat="42.80774" lon="1.41971">
        <ele>1495.47</ele>
        <time>2013-12-16T08:45:48Z</time>
      </trkpt>
      <trkpt lat="42.80777" lon="1.41978">
        <ele>1497.87</ele>
        <time>2013-12-16T08:46:00Z</time>
      </trkpt>
      <trkpt lat="42.80777" lon="1.41975">
        <ele>1498.83</ele>
        <time>2013-12-16T08:46:16Z</time>
      </trkpt>
      <trkpt lat="42.80778" lon="1.41968">
        <ele>1500.27</ele>
        <time>2013-12-16T08:46:28Z</time>
      </trkpt>
      <trkpt lat="42.8078" lon="1.4196">
        <ele>1504.6</ele>
        <time>2013-12-16T08:46:42Z</time>
      </trkpt>
      <trkpt lat="42.80786" lon="1.41955">
        <ele>1503.64</ele>
        <time>2013-12-16T08:46:54Z</time>
      </trkpt>
      <trkpt lat="42.80789" lon="1.41966">
        <ele>1506.04</ele>
        <time>2013-12-16T08:47:09Z</time>
      </trkpt>
      <trkpt lat="42.80791" lon="1.41962">
        <ele>1504.12</ele>
        <time>2013-12-16T08:47:25Z</time>
      </trkpt>
      <trkpt lat="42.80796" lon="1.41951">
        <ele>1508.93</ele>
        <time>2013-12-16T08:47:41Z</time>
      </trkpt>
      <trkpt lat="42.80802" lon="1.41942">
        <ele>1512.77</ele>
        <time>2013-12-16T08:47:57Z</time>
      </trkpt>
      <trkpt lat="42.8081" lon="1.41932">
        <ele>1516.62</ele>
        <time>2013-12-16T08:48:11Z</time>
      </trkpt>
      <trkpt lat="42.80815" lon="1.41923">
        <ele>1520.46</ele>
        <time>2013-12-16T08:48:24Z</time>
      </trkpt>
      <trkpt lat="42.80819" lon="1.41916">
        <ele>1522.87</ele>
        <time>2013-12-16T08:48:35Z</time>
      </trkpt>
      <trkpt lat="42.80824" lon="1.41906">
        <ele>1525.27</ele>
        <time>2013-12-16T08:48:48Z</time>
      </trkpt>
      <trkpt lat="42.8083" lon="1.41899">
        <ele>1527.19</ele>
        <time>2013-12-16T08:49:00Z</time>
      </trkpt>
      <trkpt lat="42.80837" lon="1.41905">
        <ele>1528.63</ele>
        <time>2013-12-16T08:49:13Z</time>
      </trkpt>
      <trkpt lat="42.80841" lon="1.41913">
        <ele>1531.04</ele>
        <time>2013-12-16T08:49:25Z</time>
      </trkpt>
      <trkpt lat="42.80846" lon="1.41921">
        <ele>1532</ele>
        <time>2013-12-16T08:49:38Z</time>
      </trkpt>
      <trkpt lat="42.80853" lon="1.41927">
        <ele>1533.92</ele>
        <time>2013-12-16T08:49:52Z</time>
      </trkpt>
      <trkpt lat="42.80856" lon="1.41929">
        <ele>1535.36</ele>
        <time>2013-12-16T08:50:05Z</time>
      </trkpt>
      <trkpt lat="42.80854" lon="1.4193">
        <ele>1535.36</ele>
        <time>2013-12-16T08:50:47Z</time>
      </trkpt>
      <trkpt lat="42.80863" lon="1.41935">
        <ele>1538.25</ele>
        <time>2013-12-16T08:51:01Z</time>
      </trkpt>
      <trkpt lat="42.80868" lon="1.41939">
        <ele>1540.17</ele>
        <time>2013-12-16T08:51:11Z</time>
      </trkpt>
      <trkpt lat="42.80876" lon="1.41944">
        <ele>1542.57</ele>
        <time>2013-12-16T08:51:24Z</time>
      </trkpt>
      <trkpt lat="42.80885" lon="1.41949">
        <ele>1546.9</ele>
        <time>2013-12-16T08:51:38Z</time>
      </trkpt>
      <trkpt lat="42.80892" lon="1.41955">
        <ele>1549.3</ele>
        <time>2013-12-16T08:51:51Z</time>
      </trkpt>
      <trkpt lat="42.80896" lon="1.41965">
        <ele>1549.3</ele>
        <time>2013-12-16T08:52:02Z</time>
      </trkpt>
      <trkpt lat="42.80903" lon="1.41971">
        <ele>1552.67</ele>
        <time>2013-12-16T08:52:14Z</time>
      </trkpt>
      <trkpt lat="42.8091" lon="1.41966">
        <ele>1555.07</ele>
        <time>2013-12-16T08:52:25Z</time>
      </trkpt>
      <trkpt lat="42.80915" lon="1.41967">
        <ele>1558.43</ele>
        <time>2013-12-16T08:52:37Z</time>
      </trkpt>
      <trkpt lat="42.80922" lon="1.4196">
        <ele>1560.84</ele>
        <time>2013-12-16T08:52:51Z</time>
      </trkpt>
      <trkpt lat="42.80928" lon="1.41953">
        <ele>1562.28</ele>
        <time>2013-12-16T08:53:04Z</time>
      </trkpt>
      <trkpt lat="42.80931" lon="1.41947">
        <ele>1564.2</ele>
        <time>2013-12-16T08:53:17Z</time>
      </trkpt>
      <trkpt lat="42.80937" lon="1.41936">
        <ele>1566.12</ele>
        <time>2013-12-16T08:53:32Z</time>
      </trkpt>
      <trkpt lat="42.8094" lon="1.41928">
        <ele>1569.49</ele>
        <time>2013-12-16T08:53:46Z</time>
      </trkpt>
      <trkpt lat="42.80944" lon="1.41919">
        <ele>1570.93</ele>
        <time>2013-12-16T08:53:57Z</time>
      </trkpt>
      <trkpt lat="42.80949" lon="1.41909">
        <ele>1572.85</ele>
        <time>2013-12-16T08:54:11Z</time>
      </trkpt>
      <trkpt lat="42.80951" lon="1.41905">
        <ele>1574.3</ele>
        <time>2013-12-16T08:54:22Z</time>
      </trkpt>
      <trkpt lat="42.80956" lon="1.41911">
        <ele>1576.22</ele>
        <time>2013-12-16T08:54:35Z</time>
      </trkpt>
      <trkpt lat="42.8096" lon="1.41917">
        <ele>1578.62</ele>
        <time>2013-12-16T08:54:47Z</time>
      </trkpt>
      <trkpt lat="42.80965" lon="1.41927">
        <ele>1581.51</ele>
        <time>2013-12-16T08:55:02Z</time>
      </trkpt>
      <trkpt lat="42.8097" lon="1.41934">
        <ele>1582.47</ele>
        <time>2013-12-16T08:55:14Z</time>
      </trkpt>
      <trkpt lat="42.80974" lon="1.41942">
        <ele>1582.95</ele>
        <time>2013-12-16T08:55:28Z</time>
      </trkpt>
      <trkpt lat="42.8098" lon="1.41949">
        <ele>1585.83</ele>
        <time>2013-12-16T08:55:41Z</time>
      </trkpt>
      <trkpt lat="42.80985" lon="1.41954">
        <ele>1588.24</ele>
        <time>2013-12-16T08:55:53Z</time>
      </trkpt>
      <trkpt lat="42.80991" lon="1.41961">
        <ele>1590.64</ele>
        <time>2013-12-16T08:56:06Z</time>
      </trkpt>
      <trkpt lat="42.80997" lon="1.41961">
        <ele>1594</ele>
        <time>2013-12-16T08:56:20Z</time>
      </trkpt>
      <trkpt lat="42.81003" lon="1.41954">
        <ele>1595.93</ele>
        <time>2013-12-16T08:56:32Z</time>
      </trkpt>
      <trkpt lat="42.81007" lon="1.41948">
        <ele>1598.33</ele>
        <time>2013-12-16T08:56:45Z</time>
      </trkpt>
      <trkpt lat="42.81012" lon="1.41941">
        <ele>1601.21</ele>
        <time>2013-12-16T08:56:57Z</time>
      </trkpt>
      <trkpt lat="42.81017" lon="1.41932">
        <ele>1602.17</ele>
        <time>2013-12-16T08:57:09Z</time>
      </trkpt>
      <trkpt lat="42.81022" lon="1.41928">
        <ele>1603.62</ele>
        <time>2013-12-16T08:57:20Z</time>
      </trkpt>
      <trkpt lat="42.81026" lon="1.41933">
        <ele>1606.98</ele>
        <time>2013-12-16T08:57:33Z</time>
      </trkpt>
      <trkpt lat="42.8103" lon="1.41941">
        <ele>1609.86</ele>
        <time>2013-12-16T08:57:46Z</time>
      </trkpt>
      <trkpt lat="42.81034" lon="1.4195">
        <ele>1612.27</ele>
        <time>2013-12-16T08:57:59Z</time>
      </trkpt>
      <trkpt lat="42.81037" lon="1.41959">
        <ele>1614.19</ele>
        <time>2013-12-16T08:58:11Z</time>
      </trkpt>
      <trkpt lat="42.81041" lon="1.41968">
        <ele>1616.11</ele>
        <time>2013-12-16T08:58:24Z</time>
      </trkpt>
      <trkpt lat="42.81044" lon="1.41975">
        <ele>1618.52</ele>
        <time>2013-12-16T08:58:35Z</time>
      </trkpt>
      <trkpt lat="42.81046" lon="1.41985">
        <ele>1619</ele>
        <time>2013-12-16T08:58:47Z</time>
      </trkpt>
      <trkpt lat="42.81049" lon="1.41993">
        <ele>1619.96</ele>
        <time>2013-12-16T08:58:59Z</time>
      </trkpt>
      <trkpt lat="42.81052" lon="1.41989">
        <ele>1623.8</ele>
        <time>2013-12-16T08:59:10Z</time>
      </trkpt>
      <trkpt lat="42.81056" lon="1.4198">
        <ele>1625.25</ele>
        <time>2013-12-16T08:59:26Z</time>
      </trkpt>
      <trkpt lat="42.8106" lon="1.41971">
        <ele>1626.69</ele>
        <time>2013-12-16T08:59:38Z</time>
      </trkpt>
      <trkpt lat="42.81066" lon="1.41963">
        <ele>1628.61</ele>
        <time>2013-12-16T08:59:51Z</time>
      </trkpt>
      <trkpt lat="42.81074" lon="1.41959">
        <ele>1630.53</ele>
        <time>2013-12-16T09:00:04Z</time>
      </trkpt>
      <trkpt lat="42.81075" lon="1.41957">
        <ele>1632.46</ele>
        <time>2013-12-16T09:00:21Z</time>
      </trkpt>
      <trkpt lat="42.81074" lon="1.41956">
        <ele>1631.01</ele>
        <time>2013-12-16T09:01:03Z</time>
      </trkpt>
      <trkpt lat="42.81078" lon="1.41957">
        <ele>1632.46</ele>
        <time>2013-12-16T09:01:11Z</time>
      </trkpt>
      <trkpt lat="42.81086" lon="1.41958">
        <ele>1635.34</ele>
        <time>2013-12-16T09:01:23Z</time>
      </trkpt>
      <trkpt lat="42.81095" lon="1.41959">
        <ele>1639.67</ele>
        <time>2013-12-16T09:01:36Z</time>
      </trkpt>
      <trkpt lat="42.81103" lon="1.41962">
        <ele>1642.07</ele>
        <time>2013-12-16T09:01:49Z</time>
      </trkpt>
      <trkpt lat="42.81109" lon="1.41968">
        <ele>1644.47</ele>
        <time>2013-12-16T09:02:03Z</time>
      </trkpt>
      <trkpt lat="42.81113" lon="1.41972">
        <ele>1644.47</ele>
        <time>2013-12-16T09:02:17Z</time>
      </trkpt>
      <trkpt lat="42.81114" lon="1.41979">
        <ele>1645.43</ele>
        <time>2013-12-16T09:02:33Z</time>
      </trkpt>
      <trkpt lat="42.81113" lon="1.41981">
        <ele>1646.88</ele>
        <time>2013-12-16T09:02:54Z</time>
      </trkpt>
      <trkpt lat="42.81113" lon="1.41984">
        <ele>1645.91</ele>
        <time>2013-12-16T09:03:09Z</time>
      </trkpt>
      <trkpt lat="42.81112" lon="1.41984">
        <ele>1646.88</ele>
        <time>2013-12-16T09:03:30Z</time>
      </trkpt>
      <trkpt lat="42.8111" lon="1.4199">
        <ele>1646.88</ele>
        <time>2013-12-16T09:03:42Z</time>
      </trkpt>
      <trkpt lat="42.81111" lon="1.41992">
        <ele>1647.84</ele>
        <time>2013-12-16T09:04:01Z</time>
      </trkpt>
      <trkpt lat="42.81112" lon="1.41998">
        <ele>1648.32</ele>
        <time>2013-12-16T09:04:13Z</time>
      </trkpt>
      <trkpt lat="42.81111" lon="1.41999">
        <ele>1650.24</ele>
        <time>2013-12-16T09:04:54Z</time>
      </trkpt>
      <trkpt lat="42.81111" lon="1.42005">
        <ele>1646.4</ele>
        <time>2013-12-16T09:05:08Z</time>
      </trkpt>
      <trkpt lat="42.81111" lon="1.42006">
        <ele>1645.43</ele>
        <time>2013-12-16T09:05:22Z</time>
      </trkpt>
      <trkpt lat="42.81111" lon="1.42009">
        <ele>1645.43</ele>
        <time>2013-12-16T09:05:35Z</time>
      </trkpt>
      <trkpt lat="42.81114" lon="1.42012">
        <ele>1646.4</ele>
        <time>2013-12-16T09:05:51Z</time>
      </trkpt>
      <trkpt lat="42.81116" lon="1.42018">
        <ele>1644.95</ele>
        <time>2013-12-16T09:06:20Z</time>
      </trkpt>
      <trkpt lat="42.81118" lon="1.4203">
        <ele>1645.43</ele>
        <time>2013-12-16T09:06:36Z</time>
      </trkpt>
      <trkpt lat="42.8112" lon="1.42033">
        <ele>1644.95</ele>
        <time>2013-12-16T09:06:40Z</time>
      </trkpt>
      <trkpt lat="42.81126" lon="1.42047">
        <ele>1646.88</ele>
        <time>2013-12-16T09:06:54Z</time>
      </trkpt>
      <trkpt lat="42.81127" lon="1.42052">
        <ele>1650.24</ele>
        <time>2013-12-16T09:07:09Z</time>
      </trkpt>
      <trkpt lat="42.81131" lon="1.42061">
        <ele>1650.24</ele>
        <time>2013-12-16T09:07:22Z</time>
      </trkpt>
      <trkpt lat="42.81137" lon="1.42065">
        <ele>1651.68</ele>
        <time>2013-12-16T09:07:47Z</time>
      </trkpt>
      <trkpt lat="42.81141" lon="1.42071">
        <ele>1650.72</ele>
        <time>2013-12-16T09:08:00Z</time>
      </trkpt>
      <trkpt lat="42.81141" lon="1.42072">
        <ele>1652.16</ele>
        <time>2013-12-16T09:08:40Z</time>
      </trkpt>
      <trkpt lat="42.81142" lon="1.42067">
        <ele>1652.64</ele>
        <time>2013-12-16T09:08:57Z</time>
      </trkpt>
      <trkpt lat="42.81142" lon="1.42056">
        <ele>1655.53</ele>
        <time>2013-12-16T09:09:09Z</time>
      </trkpt>
      <trkpt lat="42.81144" lon="1.42047">
        <ele>1657.93</ele>
        <time>2013-12-16T09:09:20Z</time>
      </trkpt>
      <trkpt lat="42.81149" lon="1.42042">
        <ele>1660.81</ele>
        <time>2013-12-16T09:09:31Z</time>
      </trkpt>
      <trkpt lat="42.8115" lon="1.42038">
        <ele>1662.74</ele>
        <time>2013-12-16T09:09:45Z</time>
      </trkpt>
      <trkpt lat="42.81149" lon="1.42035">
        <ele>1662.74</ele>
        <time>2013-12-16T09:10:03Z</time>
      </trkpt>
      <trkpt lat="42.81148" lon="1.42032">
        <ele>1661.78</ele>
        <time>2013-12-16T09:10:18Z</time>
      </trkpt>
      <trkpt lat="42.81148" lon="1.42029">
        <ele>1660.81</ele>
        <time>2013-12-16T09:10:32Z</time>
      </trkpt>
      <trkpt lat="42.81144" lon="1.42027">
        <ele>1659.85</ele>
        <time>2013-12-16T09:10:54Z</time>
      </trkpt>
      <trkpt lat="42.81144" lon="1.42027">
        <ele>1660.81</ele>
        <time>2013-12-16T09:11:10Z</time>
      </trkpt>
      <trkpt lat="42.81145" lon="1.42024">
        <ele>1660.81</ele>
        <time>2013-12-16T09:11:25Z</time>
      </trkpt>
      <trkpt lat="42.81142" lon="1.42015">
        <ele>1659.85</ele>
        <time>2013-12-16T09:11:37Z</time>
      </trkpt>
      <trkpt lat="42.81142" lon="1.42014">
        <ele>1659.85</ele>
        <time>2013-12-16T09:11:38Z</time>
      </trkpt>
      <trkpt lat="42.81142" lon="1.4201">
        <ele>1659.37</ele>
        <time>2013-12-16T09:11:41Z</time>
      </trkpt>
      <trkpt lat="42.8114" lon="1.41995">
        <ele>1656.01</ele>
        <time>2013-12-16T09:11:52Z</time>
      </trkpt>
      <trkpt lat="42.81139" lon="1.41993">
        <ele>1655.53</ele>
        <time>2013-12-16T09:11:54Z</time>
      </trkpt>
      <trkpt lat="42.81133" lon="1.41979">
        <ele>1655.05</ele>
        <time>2013-12-16T09:12:05Z</time>
      </trkpt>
      <trkpt lat="42.81129" lon="1.41968">
        <ele>1655.53</ele>
        <time>2013-12-16T09:12:17Z</time>
      </trkpt>
      <trkpt lat="42.81127" lon="1.41964">
        <ele>1654.57</ele>
        <time>2013-12-16T09:12:33Z</time>
      </trkpt>
      <trkpt lat="42.81126" lon="1.41961">
        <ele>1654.09</ele>
        <time>2013-12-16T09:12:45Z</time>
      </trkpt>
      <trkpt lat="42.81129" lon="1.41962">
        <ele>1652.16</ele>
        <time>2013-12-16T09:13:03Z</time>
      </trkpt>
      <trkpt lat="42.81125" lon="1.41961">
        <ele>1653.12</ele>
        <time>2013-12-16T09:13:28Z</time>
      </trkpt>
      <trkpt lat="42.81125" lon="1.41962">
        <ele>1653.6</ele>
        <time>2013-12-16T09:13:48Z</time>
      </trkpt>
      <trkpt lat="42.81126" lon="1.41961">
        <ele>1654.09</ele>
        <time>2013-12-16T09:14:07Z</time>
      </trkpt>
      <trkpt lat="42.81126" lon="1.41957">
        <ele>1655.05</ele>
        <time>2013-12-16T09:14:30Z</time>
      </trkpt>
      <trkpt lat="42.81127" lon="1.41948">
        <ele>1657.45</ele>
        <time>2013-12-16T09:14:44Z</time>
      </trkpt>
      <trkpt lat="42.81128" lon="1.41942">
        <ele>1658.41</ele>
        <time>2013-12-16T09:14:52Z</time>
      </trkpt>
      <trkpt lat="42.81131" lon="1.41933">
        <ele>1660.33</ele>
        <time>2013-12-16T09:15:06Z</time>
      </trkpt>
      <trkpt lat="42.8113" lon="1.41922">
        <ele>1662.26</ele>
        <time>2013-12-16T09:15:20Z</time>
      </trkpt>
      <trkpt lat="42.81134" lon="1.41913">
        <ele>1662.26</ele>
        <time>2013-12-16T09:15:33Z</time>
      </trkpt>
      <trkpt lat="42.81135" lon="1.41905">
        <ele>1664.18</ele>
        <time>2013-12-16T09:15:44Z</time>
      </trkpt>
      <trkpt lat="42.81139" lon="1.41893">
        <ele>1667.06</ele>
        <time>2013-12-16T09:15:59Z</time>
      </trkpt>
      <trkpt lat="42.81139" lon="1.41885">
        <ele>1669.95</ele>
        <time>2013-12-16T09:16:13Z</time>
      </trkpt>
      <trkpt lat="42.81142" lon="1.41878">
        <ele>1672.83</ele>
        <time>2013-12-16T09:16:25Z</time>
      </trkpt>
      <trkpt lat="42.81142" lon="1.41877">
        <ele>1674.27</ele>
        <time>2013-12-16T09:16:40Z</time>
      </trkpt>
      <trkpt lat="42.81147" lon="1.41881">
        <ele>1675.72</ele>
        <time>2013-12-16T09:16:55Z</time>
      </trkpt>
      <trkpt lat="42.81152" lon="1.41886">
        <ele>1679.08</ele>
        <time>2013-12-16T09:17:07Z</time>
      </trkpt>
      <trkpt lat="42.81158" lon="1.41892">
        <ele>1681.96</ele>
        <time>2013-12-16T09:17:21Z</time>
      </trkpt>
      <trkpt lat="42.81167" lon="1.41898">
        <ele>1686.29</ele>
        <time>2013-12-16T09:17:36Z</time>
      </trkpt>
      <trkpt lat="42.81171" lon="1.41892">
        <ele>1688.69</ele>
        <time>2013-12-16T09:17:47Z</time>
      </trkpt>
      <trkpt lat="42.81175" lon="1.41884">
        <ele>1691.1</ele>
        <time>2013-12-16T09:17:59Z</time>
      </trkpt>
      <trkpt lat="42.81179" lon="1.4188">
        <ele>1688.69</ele>
        <time>2013-12-16T09:18:14Z</time>
      </trkpt>
      <trkpt lat="42.81184" lon="1.41876">
        <ele>1686.77</ele>
        <time>2013-12-16T09:18:28Z</time>
      </trkpt>
      <trkpt lat="42.81188" lon="1.41874">
        <ele>1686.29</ele>
        <time>2013-12-16T09:18:42Z</time>
      </trkpt>
      <trkpt lat="42.81193" lon="1.41871">
        <ele>1688.21</ele>
        <time>2013-12-16T09:18:53Z</time>
      </trkpt>
      <trkpt lat="42.81202" lon="1.41871">
        <ele>1693.02</ele>
        <time>2013-12-16T09:19:07Z</time>
      </trkpt>
      <trkpt lat="42.81209" lon="1.41875">
        <ele>1696.38</ele>
        <time>2013-12-16T09:19:20Z</time>
      </trkpt>
      <trkpt lat="42.81216" lon="1.41876">
        <ele>1701.19</ele>
        <time>2013-12-16T09:19:35Z</time>
      </trkpt>
      <trkpt lat="42.81222" lon="1.41879">
        <ele>1703.11</ele>
        <time>2013-12-16T09:19:48Z</time>
      </trkpt>
      <trkpt lat="42.81231" lon="1.41882">
        <ele>1706.96</ele>
        <time>2013-12-16T09:20:02Z</time>
      </trkpt>
      <trkpt lat="42.81238" lon="1.41885">
        <ele>1711.28</ele>
        <time>2013-12-16T09:20:14Z</time>
      </trkpt>
      <trkpt lat="42.81242" lon="1.41891">
        <ele>1715.13</ele>
        <time>2013-12-16T09:20:27Z</time>
      </trkpt>
      <trkpt lat="42.81245" lon="1.41897">
        <ele>1715.13</ele>
        <time>2013-12-16T09:20:39Z</time>
      </trkpt>
      <trkpt lat="42.81246" lon="1.41906">
        <ele>1717.05</ele>
        <time>2013-12-16T09:20:52Z</time>
      </trkpt>
      <trkpt lat="42.81246" lon="1.41913">
        <ele>1719.46</ele>
        <time>2013-12-16T09:21:02Z</time>
      </trkpt>
      <trkpt lat="42.81247" lon="1.41923">
        <ele>1720.42</ele>
        <time>2013-12-16T09:21:14Z</time>
      </trkpt>
      <trkpt lat="42.81252" lon="1.41922">
        <ele>1722.82</ele>
        <time>2013-12-16T09:21:29Z</time>
      </trkpt>
      <trkpt lat="42.8126" lon="1.4192">
        <ele>1728.11</ele>
        <time>2013-12-16T09:21:42Z</time>
      </trkpt>
      <trkpt lat="42.81261" lon="1.41918">
        <ele>1730.51</ele>
        <time>2013-12-16T09:21:54Z</time>
      </trkpt>
      <trkpt lat="42.81262" lon="1.41928">
        <ele>1731.47</ele>
        <time>2013-12-16T09:22:07Z</time>
      </trkpt>
      <trkpt lat="42.81263" lon="1.41935">
        <ele>1732.43</ele>
        <time>2013-12-16T09:22:17Z</time>
      </trkpt>
      <trkpt lat="42.81265" lon="1.41943">
        <ele>1734.36</ele>
        <time>2013-12-16T09:22:28Z</time>
      </trkpt>
      <trkpt lat="42.81266" lon="1.41951">
        <ele>1736.76</ele>
        <time>2013-12-16T09:22:39Z</time>
      </trkpt>
      <trkpt lat="42.81267" lon="1.41959">
        <ele>1739.64</ele>
        <time>2013-12-16T09:22:51Z</time>
      </trkpt>
      <trkpt lat="42.8127" lon="1.41967">
        <ele>1742.05</ele>
        <time>2013-12-16T09:23:02Z</time>
      </trkpt>
      <trkpt lat="42.81272" lon="1.41975">
        <ele>1743.97</ele>
        <time>2013-12-16T09:23:14Z</time>
      </trkpt>
      <trkpt lat="42.81276" lon="1.41972">
        <ele>1744.93</ele>
        <time>2013-12-16T09:23:31Z</time>
      </trkpt>
      <trkpt lat="42.81278" lon="1.41972">
        <ele>1743.01</ele>
        <time>2013-12-16T09:24:01Z</time>
      </trkpt>
      <trkpt lat="42.81277" lon="1.41972">
        <ele>1740.12</ele>
        <time>2013-12-16T09:24:24Z</time>
      </trkpt>
      <trkpt lat="42.81283" lon="1.4197">
        <ele>1742.53</ele>
        <time>2013-12-16T09:24:36Z</time>
      </trkpt>
      <trkpt lat="42.81289" lon="1.41964">
        <ele>1744.93</ele>
        <time>2013-12-16T09:24:47Z</time>
      </trkpt>
      <trkpt lat="42.81294" lon="1.41959">
        <ele>1749.74</ele>
        <time>2013-12-16T09:25:00Z</time>
      </trkpt>
      <trkpt lat="42.81299" lon="1.41954">
        <ele>1753.58</ele>
        <time>2013-12-16T09:25:11Z</time>
      </trkpt>
      <trkpt lat="42.81302" lon="1.41948">
        <ele>1755.99</ele>
        <time>2013-12-16T09:25:23Z</time>
      </trkpt>
      <trkpt lat="42.81305" lon="1.41946">
        <ele>1758.87</ele>
        <time>2013-12-16T09:25:36Z</time>
      </trkpt>
      <trkpt lat="42.81308" lon="1.41955">
        <ele>1758.39</ele>
        <time>2013-12-16T09:25:48Z</time>
      </trkpt>
      <trkpt lat="42.81309" lon="1.41963">
        <ele>1758.87</ele>
        <time>2013-12-16T09:26:01Z</time>
      </trkpt>
      <trkpt lat="42.8131" lon="1.4197">
        <ele>1759.83</ele>
        <time>2013-12-16T09:26:14Z</time>
      </trkpt>
      <trkpt lat="42.81311" lon="1.4198">
        <ele>1760.79</ele>
        <time>2013-12-16T09:26:27Z</time>
      </trkpt>
      <trkpt lat="42.81312" lon="1.41987">
        <ele>1762.23</ele>
        <time>2013-12-16T09:26:39Z</time>
      </trkpt>
      <trkpt lat="42.81312" lon="1.41991">
        <ele>1763.2</ele>
        <time>2013-12-16T09:26:49Z</time>
      </trkpt>
      <trkpt lat="42.81315" lon="1.41993">
        <ele>1767.04</ele>
        <time>2013-12-16T09:27:08Z</time>
      </trkpt>
      <trkpt lat="42.81319" lon="1.41988">
        <ele>1767.52</ele>
        <time>2013-12-16T09:27:21Z</time>
      </trkpt>
      <trkpt lat="42.81323" lon="1.41984">
        <ele>1770.89</ele>
        <time>2013-12-16T09:27:31Z</time>
      </trkpt>
      <trkpt lat="42.81322" lon="1.41984">
        <ele>1771.85</ele>
        <time>2013-12-16T09:27:44Z</time>
      </trkpt>
      <trkpt lat="42.81322" lon="1.41989">
        <ele>1773.77</ele>
        <time>2013-12-16T09:28:00Z</time>
      </trkpt>
      <trkpt lat="42.81323" lon="1.42">
        <ele>1773.77</ele>
        <time>2013-12-16T09:28:14Z</time>
      </trkpt>
      <trkpt lat="42.81324" lon="1.4201">
        <ele>1775.69</ele>
        <time>2013-12-16T09:28:26Z</time>
      </trkpt>
      <trkpt lat="42.81327" lon="1.42016">
        <ele>1778.58</ele>
        <time>2013-12-16T09:28:38Z</time>
      </trkpt>
      <trkpt lat="42.81331" lon="1.42013">
        <ele>1780.02</ele>
        <time>2013-12-16T09:28:50Z</time>
      </trkpt>
      <trkpt lat="42.81331" lon="1.42012">
        <ele>1780.5</ele>
        <time>2013-12-16T09:29:16Z</time>
      </trkpt>
      <trkpt lat="42.81331" lon="1.42015">
        <ele>1781.46</ele>
        <time>2013-12-16T09:29:43Z</time>
      </trkpt>
      <trkpt lat="42.8133" lon="1.42014">
        <ele>1785.31</ele>
        <time>2013-12-16T09:30:16Z</time>
      </trkpt>
      <trkpt lat="42.81334" lon="1.42012">
        <ele>1783.38</ele>
        <time>2013-12-16T09:30:24Z</time>
      </trkpt>
      <trkpt lat="42.8134" lon="1.42007">
        <ele>1787.23</ele>
        <time>2013-12-16T09:30:36Z</time>
      </trkpt>
      <trkpt lat="42.81347" lon="1.42008">
        <ele>1789.63</ele>
        <time>2013-12-16T09:30:49Z</time>
      </trkpt>
      <trkpt lat="42.81352" lon="1.42017">
        <ele>1790.11</ele>
        <time>2013-12-16T09:31:02Z</time>
      </trkpt>
      <trkpt lat="42.81358" lon="1.42024">
        <ele>1791.07</ele>
        <time>2013-12-16T09:31:16Z</time>
      </trkpt>
      <trkpt lat="42.81364" lon="1.42028">
        <ele>1793</ele>
        <time>2013-12-16T09:31:28Z</time>
      </trkpt>
      <trkpt lat="42.81372" lon="1.42035">
        <ele>1797.8</ele>
        <time>2013-12-16T09:31:44Z</time>
      </trkpt>
      <trkpt lat="42.81378" lon="1.42041">
        <ele>1800.69</ele>
        <time>2013-12-16T09:31:58Z</time>
      </trkpt>
      <trkpt lat="42.81385" lon="1.4205">
        <ele>1803.09</ele>
        <time>2013-12-16T09:32:12Z</time>
      </trkpt>
      <trkpt lat="42.81391" lon="1.42058">
        <ele>1804.53</ele>
        <time>2013-12-16T09:32:27Z</time>
      </trkpt>
      <trkpt lat="42.81398" lon="1.42063">
        <ele>1804.05</ele>
        <time>2013-12-16T09:32:40Z</time>
      </trkpt>
      <trkpt lat="42.81407" lon="1.42064">
        <ele>1806.45</ele>
        <time>2013-12-16T09:32:55Z</time>
      </trkpt>
      <trkpt lat="42.81415" lon="1.42061">
        <ele>1810.3</ele>
        <time>2013-12-16T09:33:09Z</time>
      </trkpt>
      <trkpt lat="42.81421" lon="1.42056">
        <ele>1812.7</ele>
        <time>2013-12-16T09:33:22Z</time>
      </trkpt>
      <trkpt lat="42.81425" lon="1.42048">
        <ele>1815.11</ele>
        <time>2013-12-16T09:33:34Z</time>
      </trkpt>
      <trkpt lat="42.81432" lon="1.4204">
        <ele>1816.55</ele>
        <time>2013-12-16T09:33:48Z</time>
      </trkpt>
      <trkpt lat="42.81438" lon="1.42032">
        <ele>1817.51</ele>
        <time>2013-12-16T09:34:01Z</time>
      </trkpt>
      <trkpt lat="42.81445" lon="1.42024">
        <ele>1818.47</ele>
        <time>2013-12-16T09:34:14Z</time>
      </trkpt>
      <trkpt lat="42.81453" lon="1.42018">
        <ele>1821.84</ele>
        <time>2013-12-16T09:34:27Z</time>
      </trkpt>
      <trkpt lat="42.81459" lon="1.42011">
        <ele>1824.24</ele>
        <time>2013-12-16T09:34:40Z</time>
      </trkpt>
      <trkpt lat="42.81467" lon="1.42004">
        <ele>1824.24</ele>
        <time>2013-12-16T09:34:54Z</time>
      </trkpt>
      <trkpt lat="42.81478" lon="1.41998">
        <ele>1826.16</ele>
        <time>2013-12-16T09:35:10Z</time>
      </trkpt>
      <trkpt lat="42.81488" lon="1.41996">
        <ele>1828.08</ele>
        <time>2013-12-16T09:35:23Z</time>
      </trkpt>
      <trkpt lat="42.81496" lon="1.41993">
        <ele>1828.56</ele>
        <time>2013-12-16T09:35:37Z</time>
      </trkpt>
      <trkpt lat="42.81496" lon="1.41992">
        <ele>1828.56</ele>
        <time>2013-12-16T09:35:38Z</time>
      </trkpt>
      <trkpt lat="42.81505" lon="1.41983">
        <ele>1829.53</ele>
        <time>2013-12-16T09:35:51Z</time>
      </trkpt>
      <trkpt lat="42.81512" lon="1.41975">
        <ele>1829.53</ele>
        <time>2013-12-16T09:36:03Z</time>
      </trkpt>
      <trkpt lat="42.81518" lon="1.41968">
        <ele>1831.93</ele>
        <time>2013-12-16T09:36:14Z</time>
      </trkpt>
      <trkpt lat="42.81526" lon="1.41965">
        <ele>1834.81</ele>
        <time>2013-12-16T09:36:28Z</time>
      </trkpt>
      <trkpt lat="42.81531" lon="1.41964">
        <ele>1836.74</ele>
        <time>2013-12-16T09:36:40Z</time>
      </trkpt>
      <trkpt lat="42.8153" lon="1.41958">
        <ele>1837.22</ele>
        <time>2013-12-16T09:36:52Z</time>
      </trkpt>
      <trkpt lat="42.8153" lon="1.4196">
        <ele>1836.74</ele>
        <time>2013-12-16T09:37:10Z</time>
      </trkpt>
      <trkpt lat="42.81528" lon="1.41963">
        <ele>1836.74</ele>
        <time>2013-12-16T09:37:24Z</time>
      </trkpt>
      <trkpt lat="42.8153" lon="1.41965">
        <ele>1836.74</ele>
        <time>2013-12-16T09:37:54Z</time>
      </trkpt>
      <trkpt lat="42.81529" lon="1.41965">
        <ele>1837.22</ele>
        <time>2013-12-16T09:38:19Z</time>
      </trkpt>
      <trkpt lat="42.81529" lon="1.41963">
        <ele>1838.18</ele>
        <time>2013-12-16T09:38:46Z</time>
      </trkpt>
      <trkpt lat="42.81528" lon="1.41964">
        <ele>1842.02</ele>
        <time>2013-12-16T09:39:12Z</time>
      </trkpt>
      <trkpt lat="42.81528" lon="1.41966">
        <ele>1840.58</ele>
        <time>2013-12-16T09:39:40Z</time>
      </trkpt>
      <trkpt lat="42.81528" lon="1.41965">
        <ele>1839.14</ele>
        <time>2013-12-16T09:40:06Z</time>
      </trkpt>
      <trkpt lat="42.81529" lon="1.41964">
        <ele>1838.18</ele>
        <time>2013-12-16T09:40:32Z</time>
      </trkpt>
      <trkpt lat="42.8153" lon="1.41961">
        <ele>1835.77</ele>
        <time>2013-12-16T09:40:50Z</time>
      </trkpt>
      <trkpt lat="42.81531" lon="1.41963">
        <ele>1836.74</ele>
        <time>2013-12-16T09:41:12Z</time>
      </trkpt>
      <trkpt lat="42.8153" lon="1.41961">
        <ele>1836.74</ele>
        <time>2013-12-16T09:41:44Z</time>
      </trkpt>
      <trkpt lat="42.8153" lon="1.41963">
        <ele>1835.77</ele>
        <time>2013-12-16T09:42:11Z</time>
      </trkpt>
      <trkpt lat="42.8153" lon="1.41962">
        <ele>1834.33</ele>
        <time>2013-12-16T09:42:38Z</time>
      </trkpt>
      <trkpt lat="42.8153" lon="1.41961">
        <ele>1834.81</ele>
        <time>2013-12-16T09:43:07Z</time>
      </trkpt>
      <trkpt lat="42.8153" lon="1.41961">
        <ele>1836.26</ele>
        <time>2013-12-16T09:43:18Z</time>
      </trkpt>
      <trkpt lat="42.81529" lon="1.41962">
        <ele>1835.29</ele>
        <time>2013-12-16T09:43:41Z</time>
      </trkpt>
      <trkpt lat="42.81527" lon="1.41963">
        <ele>1837.22</ele>
        <time>2013-12-16T09:44:06Z</time>
      </trkpt>
      <trkpt lat="42.81529" lon="1.41963">
        <ele>1838.66</ele>
        <time>2013-12-16T09:44:34Z</time>
      </trkpt>
      <trkpt lat="42.81529" lon="1.41965">
        <ele>1837.7</ele>
        <time>2013-12-16T09:45:04Z</time>
      </trkpt>
      <trkpt lat="42.8153" lon="1.41962">
        <ele>1837.22</ele>
        <time>2013-12-16T09:45:27Z</time>
      </trkpt>
      <trkpt lat="42.81532" lon="1.41961">
        <ele>1837.7</ele>
        <time>2013-12-16T09:45:53Z</time>
      </trkpt>
      <trkpt lat="42.81528" lon="1.41962">
        <ele>1839.14</ele>
        <time>2013-12-16T09:46:16Z</time>
      </trkpt>
      <trkpt lat="42.81527" lon="1.41961">
        <ele>1838.18</ele>
        <time>2013-12-16T09:46:42Z</time>
      </trkpt>
      <trkpt lat="42.81528" lon="1.41963">
        <ele>1838.66</ele>
        <time>2013-12-16T09:47:04Z</time>
      </trkpt>
      <trkpt lat="42.81528" lon="1.41964">
        <ele>1840.58</ele>
        <time>2013-12-16T09:47:27Z</time>
      </trkpt>
      <trkpt lat="42.81529" lon="1.41961">
        <ele>1837.7</ele>
        <time>2013-12-16T09:47:48Z</time>
      </trkpt>
      <trkpt lat="42.81528" lon="1.4196">
        <ele>1838.66</ele>
        <time>2013-12-16T09:48:05Z</time>
      </trkpt>
      <trkpt lat="42.81528" lon="1.41962">
        <ele>1839.62</ele>
        <time>2013-12-16T09:48:26Z</time>
      </trkpt>
      <trkpt lat="42.81528" lon="1.41961">
        <ele>1837.7</ele>
        <time>2013-12-16T09:48:55Z</time>
      </trkpt>
      <trkpt lat="42.81528" lon="1.41961">
        <ele>1837.22</ele>
        <time>2013-12-16T09:49:22Z</time>
      </trkpt>
      <trkpt lat="42.81528" lon="1.41959">
        <ele>1839.14</ele>
        <time>2013-12-16T09:49:45Z</time>
      </trkpt>
      <trkpt lat="42.81527" lon="1.4196">
        <ele>1839.62</ele>
        <time>2013-12-16T09:49:52Z</time>
      </trkpt>
      <trkpt lat="42.81521" lon="1.41963">
        <ele>1838.66</ele>
        <time>2013-12-16T09:49:55Z</time>
      </trkpt>
      <trkpt lat="42.81505" lon="1.41966">
        <ele>1835.77</ele>
        <time>2013-12-16T09:50:00Z</time>
      </trkpt>
      <trkpt lat="42.81506" lon="1.41973">
        <ele>1834.33</ele>
        <time>2013-12-16T09:50:04Z</time>
      </trkpt>
      <trkpt lat="42.81509" lon="1.41977">
        <ele>1833.37</ele>
        <time>2013-12-16T09:50:06Z</time>
      </trkpt>
      <trkpt lat="42.81504" lon="1.41991">
        <ele>1831.93</ele>
        <time>2013-12-16T09:50:11Z</time>
      </trkpt>
      <trkpt lat="42.81506" lon="1.42007">
        <ele>1829.53</ele>
        <time>2013-12-16T09:50:20Z</time>
      </trkpt>
      <trkpt lat="42.81498" lon="1.42026">
        <ele>1824.24</ele>
        <time>2013-12-16T09:50:29Z</time>
      </trkpt>
      <trkpt lat="42.81501" lon="1.42035">
        <ele>1822.32</ele>
        <time>2013-12-16T09:50:32Z</time>
      </trkpt>
      <trkpt lat="42.81505" lon="1.42036">
        <ele>1821.84</ele>
        <time>2013-12-16T09:50:33Z</time>
      </trkpt>
      <trkpt lat="42.81507" lon="1.42035">
        <ele>1821.35</ele>
        <time>2013-12-16T09:50:34Z</time>
      </trkpt>
      <trkpt lat="42.8151" lon="1.42036">
        <ele>1820.87</ele>
        <time>2013-12-16T09:50:35Z</time>
      </trkpt>
      <trkpt lat="42.81512" lon="1.42035">
        <ele>1820.39</ele>
        <time>2013-12-16T09:50:36Z</time>
      </trkpt>
      <trkpt lat="42.81514" lon="1.42034">
        <ele>1819.91</ele>
        <time>2013-12-16T09:50:37Z</time>
      </trkpt>
      <trkpt lat="42.81516" lon="1.42034">
        <ele>1819.91</ele>
        <time>2013-12-16T09:50:38Z</time>
      </trkpt>
      <trkpt lat="42.81517" lon="1.42034">
        <ele>1819.43</ele>
        <time>2013-12-16T09:50:39Z</time>
      </trkpt>
      <trkpt lat="42.8154" lon="1.42028">
        <ele>1813.66</ele>
        <time>2013-12-16T09:50:51Z</time>
      </trkpt>
      <trkpt lat="42.81554" lon="1.42023">
        <ele>1811.74</ele>
        <time>2013-12-16T09:50:56Z</time>
      </trkpt>
      <trkpt lat="42.81574" lon="1.42016">
        <ele>1809.34</ele>
        <time>2013-12-16T09:51:01Z</time>
      </trkpt>
      <trkpt lat="42.81588" lon="1.42032">
        <ele>1807.42</ele>
        <time>2013-12-16T09:51:07Z</time>
      </trkpt>
      <trkpt lat="42.81615" lon="1.42056">
        <ele>1805.01</ele>
        <time>2013-12-16T09:51:11Z</time>
      </trkpt>
      <trkpt lat="42.8162" lon="1.42059">
        <ele>1804.53</ele>
        <time>2013-12-16T09:51:12Z</time>
      </trkpt>
      <trkpt lat="42.81627" lon="1.4206">
        <ele>1803.09</ele>
        <time>2013-12-16T09:51:14Z</time>
      </trkpt>
      <trkpt lat="42.81632" lon="1.42063">
        <ele>1802.13</ele>
        <time>2013-12-16T09:51:15Z</time>
      </trkpt>
      <trkpt lat="42.81653" lon="1.42081">
        <ele>1794.92</ele>
        <time>2013-12-16T09:51:22Z</time>
      </trkpt>
      <trkpt lat="42.81689" lon="1.42074">
        <ele>1792.52</ele>
        <time>2013-12-16T09:51:28Z</time>
      </trkpt>
      <trkpt lat="42.81704" lon="1.42069">
        <ele>1793</ele>
        <time>2013-12-16T09:51:34Z</time>
      </trkpt>
      <trkpt lat="42.81705" lon="1.42067">
        <ele>1793</ele>
        <time>2013-12-16T09:51:36Z</time>
      </trkpt>
      <trkpt lat="42.81724" lon="1.42057">
        <ele>1793.48</ele>
        <time>2013-12-16T09:51:48Z</time>
      </trkpt>
      <trkpt lat="42.81774" lon="1.42059">
        <ele>1791.55</ele>
        <time>2013-12-16T09:52:00Z</time>
      </trkpt>
      <trkpt lat="42.81809" lon="1.42088">
        <ele>1788.67</ele>
        <time>2013-12-16T09:52:09Z</time>
      </trkpt>
      <trkpt lat="42.8184" lon="1.42117">
        <ele>1784.82</ele>
        <time>2013-12-16T09:52:20Z</time>
      </trkpt>
      <trkpt lat="42.81856" lon="1.42134">
        <ele>1782.9</ele>
        <time>2013-12-16T09:52:24Z</time>
      </trkpt>
      <trkpt lat="42.81881" lon="1.42173">
        <ele>1778.58</ele>
        <time>2013-12-16T09:52:34Z</time>
      </trkpt>
      <trkpt lat="42.81895" lon="1.42193">
        <ele>1777.13</ele>
        <time>2013-12-16T09:52:39Z</time>
      </trkpt>
      <trkpt lat="42.81913" lon="1.42216">
        <ele>1774.73</ele>
        <time>2013-12-16T09:52:46Z</time>
      </trkpt>
      <trkpt lat="42.81915" lon="1.42215">
        <ele>1773.77</ele>
        <time>2013-12-16T09:52:59Z</time>
      </trkpt>
      <trkpt lat="42.81916" lon="1.42214">
        <ele>1774.25</ele>
        <time>2013-12-16T09:53:21Z</time>
      </trkpt>
      <trkpt lat="42.81912" lon="1.42213">
        <ele>1769.44</ele>
        <time>2013-12-16T09:53:41Z</time>
      </trkpt>
      <trkpt lat="42.81912" lon="1.42217">
        <ele>1768.96</ele>
        <time>2013-12-16T09:54:08Z</time>
      </trkpt>
      <trkpt lat="42.81914" lon="1.42218">
        <ele>1765.12</ele>
        <time>2013-12-16T09:54:25Z</time>
      </trkpt>
      <trkpt lat="42.81917" lon="1.42215">
        <ele>1763.68</ele>
        <time>2013-12-16T09:54:50Z</time>
      </trkpt>
      <trkpt lat="42.81916" lon="1.42215">
        <ele>1765.12</ele>
        <time>2013-12-16T09:55:09Z</time>
      </trkpt>
      <trkpt lat="42.81915" lon="1.42216">
        <ele>1766.08</ele>
        <time>2013-12-16T09:55:30Z</time>
      </trkpt>
      <trkpt lat="42.81916" lon="1.42215">
        <ele>1766.08</ele>
        <time>2013-12-16T09:55:53Z</time>
      </trkpt>
      <trkpt lat="42.81915" lon="1.42215">
        <ele>1767.52</ele>
        <time>2013-12-16T09:56:11Z</time>
      </trkpt>
      <trkpt lat="42.81914" lon="1.42214">
        <ele>1765.12</ele>
        <time>2013-12-16T09:56:40Z</time>
      </trkpt>
      <trkpt lat="42.81917" lon="1.42211">
        <ele>1764.16</ele>
        <time>2013-12-16T09:57:07Z</time>
      </trkpt>
      <trkpt lat="42.81918" lon="1.42212">
        <ele>1762.71</ele>
        <time>2013-12-16T09:57:27Z</time>
      </trkpt>
      <trkpt lat="42.81917" lon="1.42211">
        <ele>1762.23</ele>
        <time>2013-12-16T09:57:54Z</time>
      </trkpt>
      <trkpt lat="42.81917" lon="1.42212">
        <ele>1761.75</ele>
        <time>2013-12-16T09:58:18Z</time>
      </trkpt>
      <trkpt lat="42.81919" lon="1.42212">
        <ele>1762.71</ele>
        <time>2013-12-16T09:58:38Z</time>
      </trkpt>
      <trkpt lat="42.81917" lon="1.42212">
        <ele>1765.12</ele>
        <time>2013-12-16T09:59:05Z</time>
      </trkpt>
      <trkpt lat="42.81917" lon="1.42215">
        <ele>1766.56</ele>
        <time>2013-12-16T09:59:38Z</time>
      </trkpt>
      <trkpt lat="42.81918" lon="1.42216">
        <ele>1766.56</ele>
        <time>2013-12-16T10:00:02Z</time>
      </trkpt>
      <trkpt lat="42.81918" lon="1.42215">
        <ele>1767.04</ele>
        <time>2013-12-16T10:00:25Z</time>
      </trkpt>
      <trkpt lat="42.81918" lon="1.42214">
        <ele>1767.04</ele>
        <time>2013-12-16T10:00:46Z</time>
      </trkpt>
      <trkpt lat="42.81918" lon="1.42212">
        <ele>1768</ele>
        <time>2013-12-16T10:01:14Z</time>
      </trkpt>
      <trkpt lat="42.81918" lon="1.42216">
        <ele>1767.04</ele>
        <time>2013-12-16T10:01:38Z</time>
      </trkpt>
      <trkpt lat="42.81919" lon="1.42217">
        <ele>1768.96</ele>
        <time>2013-12-16T10:02:03Z</time>
      </trkpt>
      <trkpt lat="42.81918" lon="1.42219">
        <ele>1770.89</ele>
        <time>2013-12-16T10:02:37Z</time>
      </trkpt>
      <trkpt lat="42.81917" lon="1.42218">
        <ele>1770.89</ele>
        <time>2013-12-16T10:02:58Z</time>
      </trkpt>
      <trkpt lat="42.81917" lon="1.42216">
        <ele>1770.41</ele>
        <time>2013-12-16T10:03:22Z</time>
      </trkpt>
      <trkpt lat="42.81919" lon="1.42216">
        <ele>1769.44</ele>
        <time>2013-12-16T10:03:44Z</time>
      </trkpt>
      <trkpt lat="42.81919" lon="1.42216">
        <ele>1767.04</ele>
        <time>2013-12-16T10:03:59Z</time>
      </trkpt>
      <trkpt lat="42.8192" lon="1.42215">
        <ele>1768.48</ele>
        <time>2013-12-16T10:04:20Z</time>
      </trkpt>
      <trkpt lat="42.8192" lon="1.42212">
        <ele>1770.41</ele>
        <time>2013-12-16T10:04:44Z</time>
      </trkpt>
      <trkpt lat="42.81922" lon="1.42211">
        <ele>1769.92</ele>
        <time>2013-12-16T10:05:02Z</time>
      </trkpt>
      <trkpt lat="42.81928" lon="1.42211">
        <ele>1774.25</ele>
        <time>2013-12-16T10:05:30Z</time>
      </trkpt>
      <trkpt lat="42.81935" lon="1.42219">
        <ele>1773.77</ele>
        <time>2013-12-16T10:05:43Z</time>
      </trkpt>
      <trkpt lat="42.81947" lon="1.42225">
        <ele>1774.25</ele>
        <time>2013-12-16T10:06:00Z</time>
      </trkpt>
      <trkpt lat="42.81954" lon="1.42228">
        <ele>1772.81</ele>
        <time>2013-12-16T10:06:13Z</time>
      </trkpt>
      <trkpt lat="42.81964" lon="1.4223">
        <ele>1775.69</ele>
        <time>2013-12-16T10:06:29Z</time>
      </trkpt>
      <trkpt lat="42.81971" lon="1.42233">
        <ele>1777.61</ele>
        <time>2013-12-16T10:06:40Z</time>
      </trkpt>
      <trkpt lat="42.81981" lon="1.42241">
        <ele>1779.54</ele>
        <time>2013-12-16T10:06:55Z</time>
      </trkpt>
      <trkpt lat="42.81993" lon="1.42246">
        <ele>1782.42</ele>
        <time>2013-12-16T10:07:12Z</time>
      </trkpt>
      <trkpt lat="42.82004" lon="1.42251">
        <ele>1786.27</ele>
        <time>2013-12-16T10:07:29Z</time>
      </trkpt>
      <trkpt lat="42.82011" lon="1.42255">
        <ele>1790.11</ele>
        <time>2013-12-16T10:07:44Z</time>
      </trkpt>
      <trkpt lat="42.82021" lon="1.42261">
        <ele>1794.44</ele>
        <time>2013-12-16T10:08:02Z</time>
      </trkpt>
      <trkpt lat="42.8203" lon="1.42268">
        <ele>1795.4</ele>
        <time>2013-12-16T10:08:17Z</time>
      </trkpt>
      <trkpt lat="42.82041" lon="1.42272">
        <ele>1796.36</ele>
        <time>2013-12-16T10:08:33Z</time>
      </trkpt>
      <trkpt lat="42.82052" lon="1.4228">
        <ele>1796.36</ele>
        <time>2013-12-16T10:08:49Z</time>
      </trkpt>
      <trkpt lat="42.82062" lon="1.42285">
        <ele>1796.36</ele>
        <time>2013-12-16T10:09:04Z</time>
      </trkpt>
      <trkpt lat="42.82072" lon="1.42295">
        <ele>1796.84</ele>
        <time>2013-12-16T10:09:20Z</time>
      </trkpt>
      <trkpt lat="42.82082" lon="1.42303">
        <ele>1799.24</ele>
        <time>2013-12-16T10:09:34Z</time>
      </trkpt>
      <trkpt lat="42.8209" lon="1.42309">
        <ele>1800.69</ele>
        <time>2013-12-16T10:09:47Z</time>
      </trkpt>
      <trkpt lat="42.821" lon="1.42313">
        <ele>1803.09</ele>
        <time>2013-12-16T10:10:00Z</time>
      </trkpt>
      <trkpt lat="42.8211" lon="1.42322">
        <ele>1803.09</ele>
        <time>2013-12-16T10:10:14Z</time>
      </trkpt>
      <trkpt lat="42.8212" lon="1.42331">
        <ele>1802.13</ele>
        <time>2013-12-16T10:10:26Z</time>
      </trkpt>
      <trkpt lat="42.82129" lon="1.42342">
        <ele>1794.44</ele>
        <time>2013-12-16T10:10:38Z</time>
      </trkpt>
      <trkpt lat="42.82139" lon="1.42348">
        <ele>1792.52</ele>
        <time>2013-12-16T10:10:50Z</time>
      </trkpt>
      <trkpt lat="42.8215" lon="1.42359">
        <ele>1794.44</ele>
        <time>2013-12-16T10:11:02Z</time>
      </trkpt>
      <trkpt lat="42.82157" lon="1.42369">
        <ele>1794.92</ele>
        <time>2013-12-16T10:11:14Z</time>
      </trkpt>
      <trkpt lat="42.82165" lon="1.42378">
        <ele>1796.84</ele>
        <time>2013-12-16T10:11:27Z</time>
      </trkpt>
      <trkpt lat="42.82173" lon="1.42386">
        <ele>1798.28</ele>
        <time>2013-12-16T10:11:42Z</time>
      </trkpt>
      <trkpt lat="42.82181" lon="1.42391">
        <ele>1802.13</ele>
        <time>2013-12-16T10:11:55Z</time>
      </trkpt>
      <trkpt lat="42.82189" lon="1.42397">
        <ele>1805.49</ele>
        <time>2013-12-16T10:12:08Z</time>
      </trkpt>
      <trkpt lat="42.82193" lon="1.42403">
        <ele>1808.86</ele>
        <time>2013-12-16T10:12:25Z</time>
      </trkpt>
      <trkpt lat="42.82199" lon="1.42411">
        <ele>1810.78</ele>
        <time>2013-12-16T10:12:38Z</time>
      </trkpt>
      <trkpt lat="42.82207" lon="1.42416">
        <ele>1812.22</ele>
        <time>2013-12-16T10:12:53Z</time>
      </trkpt>
      <trkpt lat="42.82215" lon="1.42419">
        <ele>1815.59</ele>
        <time>2013-12-16T10:13:07Z</time>
      </trkpt>
      <trkpt lat="42.82223" lon="1.42425">
        <ele>1820.39</ele>
        <time>2013-12-16T10:13:22Z</time>
      </trkpt>
      <trkpt lat="42.8223" lon="1.4243">
        <ele>1823.76</ele>
        <time>2013-12-16T10:13:36Z</time>
      </trkpt>
      <trkpt lat="42.82235" lon="1.42436">
        <ele>1825.2</ele>
        <time>2013-12-16T10:13:48Z</time>
      </trkpt>
      <trkpt lat="42.82241" lon="1.42441">
        <ele>1827.6</ele>
        <time>2013-12-16T10:14:00Z</time>
      </trkpt>
      <trkpt lat="42.8225" lon="1.42445">
        <ele>1833.37</ele>
        <time>2013-12-16T10:14:14Z</time>
      </trkpt>
      <trkpt lat="42.82258" lon="1.42449">
        <ele>1836.26</ele>
        <time>2013-12-16T10:14:29Z</time>
      </trkpt>
      <trkpt lat="42.82264" lon="1.42453">
        <ele>1838.18</ele>
        <time>2013-12-16T10:14:42Z</time>
      </trkpt>
      <trkpt lat="42.82267" lon="1.42457">
        <ele>1834.33</ele>
        <time>2013-12-16T10:14:54Z</time>
      </trkpt>
      <trkpt lat="42.82261" lon="1.42463">
        <ele>1831.45</ele>
        <time>2013-12-16T10:15:22Z</time>
      </trkpt>
      <trkpt lat="42.82272" lon="1.42455">
        <ele>1834.81</ele>
        <time>2013-12-16T10:15:48Z</time>
      </trkpt>
      <trkpt lat="42.82278" lon="1.42461">
        <ele>1839.62</ele>
        <time>2013-12-16T10:16:02Z</time>
      </trkpt>
      <trkpt lat="42.82283" lon="1.42465">
        <ele>1842.02</ele>
        <time>2013-12-16T10:16:13Z</time>
      </trkpt>
      <trkpt lat="42.82291" lon="1.42464">
        <ele>1843.95</ele>
        <time>2013-12-16T10:16:25Z</time>
      </trkpt>
      <trkpt lat="42.82299" lon="1.42462">
        <ele>1849.23</ele>
        <time>2013-12-16T10:16:38Z</time>
      </trkpt>
      <trkpt lat="42.82305" lon="1.42468">
        <ele>1855.96</ele>
        <time>2013-12-16T10:16:51Z</time>
      </trkpt>
      <trkpt lat="42.82307" lon="1.42471">
        <ele>1862.69</ele>
        <time>2013-12-16T10:17:07Z</time>
      </trkpt>
      <trkpt lat="42.82309" lon="1.42473">
        <ele>1866.54</ele>
        <time>2013-12-16T10:17:31Z</time>
      </trkpt>
      <trkpt lat="42.82313" lon="1.42486">
        <ele>1868.94</ele>
        <time>2013-12-16T10:17:44Z</time>
      </trkpt>
      <trkpt lat="42.82316" lon="1.42496">
        <ele>1870.86</ele>
        <time>2013-12-16T10:17:55Z</time>
      </trkpt>
      <trkpt lat="42.82318" lon="1.42507">
        <ele>1872.79</ele>
        <time>2013-12-16T10:18:07Z</time>
      </trkpt>
      <trkpt lat="42.8232" lon="1.42517">
        <ele>1876.15</ele>
        <time>2013-12-16T10:18:19Z</time>
      </trkpt>
      <trkpt lat="42.82322" lon="1.42525">
        <ele>1877.11</ele>
        <time>2013-12-16T10:18:30Z</time>
      </trkpt>
      <trkpt lat="42.82323" lon="1.42534">
        <ele>1879.03</ele>
        <time>2013-12-16T10:18:41Z</time>
      </trkpt>
      <trkpt lat="42.82323" lon="1.42544">
        <ele>1880.48</ele>
        <time>2013-12-16T10:18:52Z</time>
      </trkpt>
      <trkpt lat="42.82324" lon="1.42556">
        <ele>1882.88</ele>
        <time>2013-12-16T10:19:05Z</time>
      </trkpt>
      <trkpt lat="42.82328" lon="1.42566">
        <ele>1883.36</ele>
        <time>2013-12-16T10:19:18Z</time>
      </trkpt>
      <trkpt lat="42.82331" lon="1.42574">
        <ele>1885.28</ele>
        <time>2013-12-16T10:19:29Z</time>
      </trkpt>
      <trkpt lat="42.82336" lon="1.42584">
        <ele>1890.09</ele>
        <time>2013-12-16T10:19:42Z</time>
      </trkpt>
      <trkpt lat="42.8234" lon="1.42593">
        <ele>1892.49</ele>
        <time>2013-12-16T10:19:54Z</time>
      </trkpt>
      <trkpt lat="42.82344" lon="1.42601">
        <ele>1893.45</ele>
        <time>2013-12-16T10:20:06Z</time>
      </trkpt>
      <trkpt lat="42.82349" lon="1.42608">
        <ele>1894.9</ele>
        <time>2013-12-16T10:20:22Z</time>
      </trkpt>
      <trkpt lat="42.82356" lon="1.42616">
        <ele>1900.18</ele>
        <time>2013-12-16T10:20:35Z</time>
      </trkpt>
      <trkpt lat="42.82362" lon="1.42625">
        <ele>1903.07</ele>
        <time>2013-12-16T10:20:47Z</time>
      </trkpt>
      <trkpt lat="42.82366" lon="1.42635">
        <ele>1907.39</ele>
        <time>2013-12-16T10:21:00Z</time>
      </trkpt>
      <trkpt lat="42.82371" lon="1.42644">
        <ele>1909.32</ele>
        <time>2013-12-16T10:21:12Z</time>
      </trkpt>
      <trkpt lat="42.82371" lon="1.42644">
        <ele>1909.8</ele>
        <time>2013-12-16T10:21:38Z</time>
      </trkpt>
      <trkpt lat="42.82374" lon="1.42644">
        <ele>1909.32</ele>
        <time>2013-12-16T10:21:58Z</time>
      </trkpt>
      <trkpt lat="42.82379" lon="1.42661">
        <ele>1911.72</ele>
        <time>2013-12-16T10:22:12Z</time>
      </trkpt>
      <trkpt lat="42.82385" lon="1.42672">
        <ele>1912.68</ele>
        <time>2013-12-16T10:22:24Z</time>
      </trkpt>
      <trkpt lat="42.8239" lon="1.42684">
        <ele>1913.64</ele>
        <time>2013-12-16T10:22:37Z</time>
      </trkpt>
      <trkpt lat="42.82397" lon="1.42695">
        <ele>1916.53</ele>
        <time>2013-12-16T10:22:49Z</time>
      </trkpt>
      <trkpt lat="42.82409" lon="1.42707">
        <ele>1914.6</ele>
        <time>2013-12-16T10:23:04Z</time>
      </trkpt>
      <trkpt lat="42.82413" lon="1.4271">
        <ele>1914.12</ele>
        <time>2013-12-16T10:23:10Z</time>
      </trkpt>
      <trkpt lat="42.82414" lon="1.42714">
        <ele>1914.6</ele>
        <time>2013-12-16T10:23:14Z</time>
      </trkpt>
      <trkpt lat="42.82415" lon="1.42725">
        <ele>1920.85</ele>
        <time>2013-12-16T10:23:27Z</time>
      </trkpt>
      <trkpt lat="42.82419" lon="1.42734">
        <ele>1922.29</ele>
        <time>2013-12-16T10:23:39Z</time>
      </trkpt>
      <trkpt lat="42.82425" lon="1.42743">
        <ele>1926.14</ele>
        <time>2013-12-16T10:23:53Z</time>
      </trkpt>
      <trkpt lat="42.8243" lon="1.42753">
        <ele>1929.5</ele>
        <time>2013-12-16T10:24:07Z</time>
      </trkpt>
      <trkpt lat="42.82434" lon="1.42764">
        <ele>1931.91</ele>
        <time>2013-12-16T10:24:20Z</time>
      </trkpt>
      <trkpt lat="42.82436" lon="1.42767">
        <ele>1932.39</ele>
        <time>2013-12-16T10:24:33Z</time>
      </trkpt>
      <trkpt lat="42.82441" lon="1.42773">
        <ele>1933.83</ele>
        <time>2013-12-16T10:24:49Z</time>
      </trkpt>
      <trkpt lat="42.82447" lon="1.42782">
        <ele>1936.71</ele>
        <time>2013-12-16T10:25:00Z</time>
      </trkpt>
      <trkpt lat="42.82451" lon="1.42787">
        <ele>1938.64</ele>
        <time>2013-12-16T10:25:05Z</time>
      </trkpt>
      <trkpt lat="42.82458" lon="1.42799">
        <ele>1944.88</ele>
        <time>2013-12-16T10:25:20Z</time>
      </trkpt>
      <trkpt lat="42.82464" lon="1.42809">
        <ele>1946.81</ele>
        <time>2013-12-16T10:25:33Z</time>
      </trkpt>
      <trkpt lat="42.82468" lon="1.42822">
        <ele>1946.33</ele>
        <time>2013-12-16T10:25:44Z</time>
      </trkpt>
      <trkpt lat="42.82474" lon="1.42836">
        <ele>1948.73</ele>
        <time>2013-12-16T10:25:58Z</time>
      </trkpt>
      <trkpt lat="42.82482" lon="1.42849">
        <ele>1951.13</ele>
        <time>2013-12-16T10:26:11Z</time>
      </trkpt>
      <trkpt lat="42.82482" lon="1.42849">
        <ele>1948.73</ele>
        <time>2013-12-16T10:26:28Z</time>
      </trkpt>
      <trkpt lat="42.82481" lon="1.42848">
        <ele>1948.25</ele>
        <time>2013-12-16T10:26:57Z</time>
      </trkpt>
      <trkpt lat="42.82483" lon="1.42851">
        <ele>1945.36</ele>
        <time>2013-12-16T10:27:21Z</time>
      </trkpt>
      <trkpt lat="42.82486" lon="1.42855">
        <ele>1945.36</ele>
        <time>2013-12-16T10:27:47Z</time>
      </trkpt>
      <trkpt lat="42.82492" lon="1.42859">
        <ele>1945.36</ele>
        <time>2013-12-16T10:27:54Z</time>
      </trkpt>
      <trkpt lat="42.82506" lon="1.4287">
        <ele>1943.44</ele>
        <time>2013-12-16T10:28:06Z</time>
      </trkpt>
      <trkpt lat="42.82509" lon="1.42874">
        <ele>1941.04</ele>
        <time>2013-12-16T10:28:24Z</time>
      </trkpt>
      <trkpt lat="42.82508" lon="1.42876">
        <ele>1941.52</ele>
        <time>2013-12-16T10:28:49Z</time>
      </trkpt>
      <trkpt lat="42.82506" lon="1.42874">
        <ele>1940.56</ele>
        <time>2013-12-16T10:29:22Z</time>
      </trkpt>
      <trkpt lat="42.82505" lon="1.42874">
        <ele>1940.56</ele>
        <time>2013-12-16T10:29:32Z</time>
      </trkpt>
      <trkpt lat="42.82501" lon="1.42874">
        <ele>1940.56</ele>
        <time>2013-12-16T10:29:36Z</time>
      </trkpt>
      <trkpt lat="42.82493" lon="1.42878">
        <ele>1938.16</ele>
        <time>2013-12-16T10:29:50Z</time>
      </trkpt>
      <trkpt lat="42.82488" lon="1.42879">
        <ele>1934.31</ele>
        <time>2013-12-16T10:30:12Z</time>
      </trkpt>
      <trkpt lat="42.82486" lon="1.42882">
        <ele>1933.83</ele>
        <time>2013-12-16T10:30:40Z</time>
      </trkpt>
      <trkpt lat="42.82486" lon="1.42883">
        <ele>1932.87</ele>
        <time>2013-12-16T10:30:53Z</time>
      </trkpt>
      <trkpt lat="42.82487" lon="1.42885">
        <ele>1934.31</ele>
        <time>2013-12-16T10:31:11Z</time>
      </trkpt>
      <trkpt lat="42.8249" lon="1.42888">
        <ele>1934.31</ele>
        <time>2013-12-16T10:31:32Z</time>
      </trkpt>
      <trkpt lat="42.82489" lon="1.42889">
        <ele>1934.31</ele>
        <time>2013-12-16T10:31:51Z</time>
      </trkpt>
      <trkpt lat="42.8249" lon="1.42887">
        <ele>1935.75</ele>
        <time>2013-12-16T10:32:14Z</time>
      </trkpt>
      <trkpt lat="42.8249" lon="1.42886">
        <ele>1933.35</ele>
        <time>2013-12-16T10:32:31Z</time>
      </trkpt>
      <trkpt lat="42.82489" lon="1.42887">
        <ele>1935.75</ele>
        <time>2013-12-16T10:32:58Z</time>
      </trkpt>
      <trkpt lat="42.82488" lon="1.42885">
        <ele>1934.31</ele>
        <time>2013-12-16T10:33:23Z</time>
      </trkpt>
      <trkpt lat="42.82489" lon="1.42886">
        <ele>1936.23</ele>
        <time>2013-12-16T10:33:49Z</time>
      </trkpt>
      <trkpt lat="42.82488" lon="1.42884">
        <ele>1936.71</ele>
        <time>2013-12-16T10:34:11Z</time>
      </trkpt>
      <trkpt lat="42.82487" lon="1.42884">
        <ele>1935.27</ele>
        <time>2013-12-16T10:34:32Z</time>
      </trkpt>
      <trkpt lat="42.82487" lon="1.42886">
        <ele>1937.67</ele>
        <time>2013-12-16T10:34:56Z</time>
      </trkpt>
      <trkpt lat="42.82468" lon="1.42883">
        <ele>1935.27</ele>
        <time>2013-12-16T10:35:08Z</time>
      </trkpt>
      <trkpt lat="42.82465" lon="1.42886">
        <ele>1934.31</ele>
        <time>2013-12-16T10:35:11Z</time>
      </trkpt>
      <trkpt lat="42.82465" lon="1.42892">
        <ele>1932.87</ele>
        <time>2013-12-16T10:35:15Z</time>
      </trkpt>
      <trkpt lat="42.82466" lon="1.42902">
        <ele>1929.02</ele>
        <time>2013-12-16T10:35:26Z</time>
      </trkpt>
      <trkpt lat="42.82466" lon="1.42905">
        <ele>1927.58</ele>
        <time>2013-12-16T10:35:30Z</time>
      </trkpt>
      <trkpt lat="42.82468" lon="1.42913">
        <ele>1925.18</ele>
        <time>2013-12-16T10:35:39Z</time>
      </trkpt>
      <trkpt lat="42.82471" lon="1.42913">
        <ele>1924.22</ele>
        <time>2013-12-16T10:35:44Z</time>
      </trkpt>
      <trkpt lat="42.82473" lon="1.42922">
        <ele>1920.37</ele>
        <time>2013-12-16T10:35:55Z</time>
      </trkpt>
      <trkpt lat="42.82475" lon="1.42926">
        <ele>1914.6</ele>
        <time>2013-12-16T10:36:04Z</time>
      </trkpt>
      <trkpt lat="42.82474" lon="1.4293">
        <ele>1913.16</ele>
        <time>2013-12-16T10:36:06Z</time>
      </trkpt>
      <trkpt lat="42.82475" lon="1.42939">
        <ele>1910.28</ele>
        <time>2013-12-16T10:36:15Z</time>
      </trkpt>
      <trkpt lat="42.8248" lon="1.42949">
        <ele>1904.99</ele>
        <time>2013-12-16T10:36:28Z</time>
      </trkpt>
      <trkpt lat="42.82486" lon="1.42955">
        <ele>1898.74</ele>
        <time>2013-12-16T10:36:41Z</time>
      </trkpt>
      <trkpt lat="42.82502" lon="1.42964">
        <ele>1895.86</ele>
        <time>2013-12-16T10:36:47Z</time>
      </trkpt>
      <trkpt lat="42.82551" lon="1.43007">
        <ele>1890.57</ele>
        <time>2013-12-16T10:36:56Z</time>
      </trkpt>
      <trkpt lat="42.82581" lon="1.43057">
        <ele>1884.8</ele>
        <time>2013-12-16T10:37:09Z</time>
      </trkpt>
      <trkpt lat="42.82598" lon="1.43096">
        <ele>1882.88</ele>
        <time>2013-12-16T10:37:19Z</time>
      </trkpt>
      <trkpt lat="42.82597" lon="1.431">
        <ele>1876.15</ele>
        <time>2013-12-16T10:37:40Z</time>
      </trkpt>
      <trkpt lat="42.82599" lon="1.43094">
        <ele>1870.86</ele>
        <time>2013-12-16T10:37:56Z</time>
      </trkpt>
      <trkpt lat="42.82601" lon="1.43094">
        <ele>1866.06</ele>
        <time>2013-12-16T10:38:24Z</time>
      </trkpt>
      <trkpt lat="42.82598" lon="1.43096">
        <ele>1874.71</ele>
        <time>2013-12-16T10:38:45Z</time>
      </trkpt>
      <trkpt lat="42.82597" lon="1.43095">
        <ele>1870.38</ele>
        <time>2013-12-16T10:39:11Z</time>
      </trkpt>
      <trkpt lat="42.82598" lon="1.43096">
        <ele>1868.46</ele>
        <time>2013-12-16T10:39:30Z</time>
      </trkpt>
      <trkpt lat="42.826" lon="1.43094">
        <ele>1867.02</ele>
        <time>2013-12-16T10:39:59Z</time>
      </trkpt>
      <trkpt lat="42.82599" lon="1.43094">
        <ele>1866.54</ele>
        <time>2013-12-16T10:40:22Z</time>
      </trkpt>
      <trkpt lat="42.82599" lon="1.43092">
        <ele>1863.65</ele>
        <time>2013-12-16T10:40:51Z</time>
      </trkpt>
      <trkpt lat="42.82603" lon="1.43092">
        <ele>1863.17</ele>
        <time>2013-12-16T10:41:18Z</time>
      </trkpt>
      <trkpt lat="42.82601" lon="1.43093">
        <ele>1862.21</ele>
        <time>2013-12-16T10:41:43Z</time>
      </trkpt>
      <trkpt lat="42.82601" lon="1.43093">
        <ele>1862.21</ele>
        <time>2013-12-16T10:42:06Z</time>
      </trkpt>
      <trkpt lat="42.82599" lon="1.43095">
        <ele>1865.09</ele>
        <time>2013-12-16T10:42:26Z</time>
      </trkpt>
      <trkpt lat="42.82602" lon="1.43093">
        <ele>1863.65</ele>
        <time>2013-12-16T10:42:50Z</time>
      </trkpt>
      <trkpt lat="42.82601" lon="1.43094">
        <ele>1863.65</ele>
        <time>2013-12-16T10:43:12Z</time>
      </trkpt>
      <trkpt lat="42.82603" lon="1.43098">
        <ele>1861.25</ele>
        <time>2013-12-16T10:43:26Z</time>
      </trkpt>
      <trkpt lat="42.82604" lon="1.43098">
        <ele>1861.73</ele>
        <time>2013-12-16T10:43:39Z</time>
      </trkpt>
      <trkpt lat="42.82604" lon="1.431">
        <ele>1862.21</ele>
        <time>2013-12-16T10:43:40Z</time>
      </trkpt>
      <trkpt lat="42.82608" lon="1.43106">
        <ele>1863.17</ele>
        <time>2013-12-16T10:43:45Z</time>
      </trkpt>
      <trkpt lat="42.8261" lon="1.43112">
        <ele>1866.06</ele>
        <time>2013-12-16T10:43:50Z</time>
      </trkpt>
      <trkpt lat="42.82613" lon="1.43132">
        <ele>1874.23</ele>
        <time>2013-12-16T10:44:05Z</time>
      </trkpt>
      <trkpt lat="42.82613" lon="1.43134">
        <ele>1874.23</ele>
        <time>2013-12-16T10:44:06Z</time>
      </trkpt>
      <trkpt lat="42.82612" lon="1.43153">
        <ele>1869.9</ele>
        <time>2013-12-16T10:44:20Z</time>
      </trkpt>
      <trkpt lat="42.8261" lon="1.43167">
        <ele>1869.42</ele>
        <time>2013-12-16T10:44:32Z</time>
      </trkpt>
      <trkpt lat="42.82606" lon="1.43182">
        <ele>1871.34</ele>
        <time>2013-12-16T10:44:44Z</time>
      </trkpt>
      <trkpt lat="42.82606" lon="1.43191">
        <ele>1869.9</ele>
        <time>2013-12-16T10:44:52Z</time>
      </trkpt>
      <trkpt lat="42.82607" lon="1.43193">
        <ele>1869.9</ele>
        <time>2013-12-16T10:44:54Z</time>
      </trkpt>
      <trkpt lat="42.8261" lon="1.43204">
        <ele>1870.86</ele>
        <time>2013-12-16T10:45:06Z</time>
      </trkpt>
      <trkpt lat="42.82612" lon="1.43215">
        <ele>1872.3</ele>
        <time>2013-12-16T10:45:32Z</time>
      </trkpt>
      <trkpt lat="42.82615" lon="1.43223">
        <ele>1871.82</ele>
        <time>2013-12-16T10:45:41Z</time>
      </trkpt>
      <trkpt lat="42.82615" lon="1.43227">
        <ele>1872.3</ele>
        <time>2013-12-16T10:45:44Z</time>
      </trkpt>
      <trkpt lat="42.82612" lon="1.43239">
        <ele>1874.71</ele>
        <time>2013-12-16T10:45:57Z</time>
      </trkpt>
      <trkpt lat="42.82612" lon="1.43242">
        <ele>1876.63</ele>
        <time>2013-12-16T10:46:03Z</time>
      </trkpt>
      <trkpt lat="42.82608" lon="1.43247">
        <ele>1879.51</ele>
        <time>2013-12-16T10:46:09Z</time>
      </trkpt>
      <trkpt lat="42.82608" lon="1.43258">
        <ele>1880.48</ele>
        <time>2013-12-16T10:46:20Z</time>
      </trkpt>
      <trkpt lat="42.8261" lon="1.43273">
        <ele>1882.4</ele>
        <time>2013-12-16T10:46:34Z</time>
      </trkpt>
      <trkpt lat="42.82611" lon="1.43284">
        <ele>1883.84</ele>
        <time>2013-12-16T10:46:45Z</time>
      </trkpt>
      <trkpt lat="42.82612" lon="1.43301">
        <ele>1885.76</ele>
        <time>2013-12-16T10:46:59Z</time>
      </trkpt>
      <trkpt lat="42.82612" lon="1.43316">
        <ele>1888.65</ele>
        <time>2013-12-16T10:47:12Z</time>
      </trkpt>
      <trkpt lat="42.82611" lon="1.4333">
        <ele>1891.05</ele>
        <time>2013-12-16T10:47:24Z</time>
      </trkpt>
      <trkpt lat="42.82611" lon="1.43341">
        <ele>1893.93</ele>
        <time>2013-12-16T10:47:36Z</time>
      </trkpt>
      <trkpt lat="42.82611" lon="1.43352">
        <ele>1896.82</ele>
        <time>2013-12-16T10:47:48Z</time>
      </trkpt>
      <trkpt lat="42.82611" lon="1.43361">
        <ele>1899.22</ele>
        <time>2013-12-16T10:47:59Z</time>
      </trkpt>
      <trkpt lat="42.8261" lon="1.43371">
        <ele>1904.03</ele>
        <time>2013-12-16T10:48:12Z</time>
      </trkpt>
      <trkpt lat="42.82612" lon="1.43382">
        <ele>1907.87</ele>
        <time>2013-12-16T10:48:42Z</time>
      </trkpt>
      <trkpt lat="42.82611" lon="1.43396">
        <ele>1911.24</ele>
        <time>2013-12-16T10:48:56Z</time>
      </trkpt>
      <trkpt lat="42.8261" lon="1.43398">
        <ele>1913.16</ele>
        <time>2013-12-16T10:49:12Z</time>
      </trkpt>
      <trkpt lat="42.8261" lon="1.43399">
        <ele>1914.6</ele>
        <time>2013-12-16T10:49:31Z</time>
      </trkpt>
      <trkpt lat="42.82608" lon="1.43397">
        <ele>1915.08</ele>
        <time>2013-12-16T10:49:50Z</time>
      </trkpt>
      <trkpt lat="42.82608" lon="1.43396">
        <ele>1914.6</ele>
        <time>2013-12-16T10:50:04Z</time>
      </trkpt>
      <trkpt lat="42.82605" lon="1.434">
        <ele>1917.01</ele>
        <time>2013-12-16T10:50:22Z</time>
      </trkpt>
      <trkpt lat="42.82602" lon="1.43408">
        <ele>1917.97</ele>
        <time>2013-12-16T10:50:34Z</time>
      </trkpt>
      <trkpt lat="42.82601" lon="1.43414">
        <ele>1918.45</ele>
        <time>2013-12-16T10:50:43Z</time>
      </trkpt>
      <trkpt lat="42.82593" lon="1.43428">
        <ele>1921.33</ele>
        <time>2013-12-16T10:50:57Z</time>
      </trkpt>
      <trkpt lat="42.82588" lon="1.43437">
        <ele>1922.77</ele>
        <time>2013-12-16T10:51:09Z</time>
      </trkpt>
      <trkpt lat="42.82583" lon="1.43447">
        <ele>1923.74</ele>
        <time>2013-12-16T10:51:22Z</time>
      </trkpt>
      <trkpt lat="42.82579" lon="1.43457">
        <ele>1925.66</ele>
        <time>2013-12-16T10:51:34Z</time>
      </trkpt>
      <trkpt lat="42.82576" lon="1.43467">
        <ele>1927.58</ele>
        <time>2013-12-16T10:51:46Z</time>
      </trkpt>
      <trkpt lat="42.82575" lon="1.43479">
        <ele>1929.5</ele>
        <time>2013-12-16T10:51:58Z</time>
      </trkpt>
      <trkpt lat="42.82573" lon="1.43489">
        <ele>1930.46</ele>
        <time>2013-12-16T10:52:10Z</time>
      </trkpt>
      <trkpt lat="42.82574" lon="1.43498">
        <ele>1931.91</ele>
        <time>2013-12-16T10:52:21Z</time>
      </trkpt>
      <trkpt lat="42.82577" lon="1.43506">
        <ele>1933.35</ele>
        <time>2013-12-16T10:52:33Z</time>
      </trkpt>
      <trkpt lat="42.82581" lon="1.43515">
        <ele>1937.19</ele>
        <time>2013-12-16T10:52:48Z</time>
      </trkpt>
      <trkpt lat="42.82585" lon="1.43521">
        <ele>1939.6</ele>
        <time>2013-12-16T10:52:59Z</time>
      </trkpt>
      <trkpt lat="42.82588" lon="1.4353">
        <ele>1940.56</ele>
        <time>2013-12-16T10:53:11Z</time>
      </trkpt>
      <trkpt lat="42.82595" lon="1.43532">
        <ele>1942.96</ele>
        <time>2013-12-16T10:53:25Z</time>
      </trkpt>
      <trkpt lat="42.82599" lon="1.43529">
        <ele>1944.88</ele>
        <time>2013-12-16T10:53:41Z</time>
      </trkpt>
      <trkpt lat="42.826" lon="1.43527">
        <ele>1945.36</ele>
        <time>2013-12-16T10:53:43Z</time>
      </trkpt>
      <trkpt lat="42.82609" lon="1.4352">
        <ele>1945.85</ele>
        <time>2013-12-16T10:53:55Z</time>
      </trkpt>
      <trkpt lat="42.82618" lon="1.43515">
        <ele>1947.77</ele>
        <time>2013-12-16T10:54:08Z</time>
      </trkpt>
      <trkpt lat="42.82624" lon="1.43509">
        <ele>1951.13</ele>
        <time>2013-12-16T10:54:20Z</time>
      </trkpt>
      <trkpt lat="42.82628" lon="1.43502">
        <ele>1954.98</ele>
        <time>2013-12-16T10:54:33Z</time>
      </trkpt>
      <trkpt lat="42.82634" lon="1.43497">
        <ele>1957.86</ele>
        <time>2013-12-16T10:54:43Z</time>
      </trkpt>
      <trkpt lat="42.82642" lon="1.43496">
        <ele>1959.3</ele>
        <time>2013-12-16T10:54:55Z</time>
      </trkpt>
      <trkpt lat="42.8265" lon="1.43496">
        <ele>1959.3</ele>
        <time>2013-12-16T10:55:04Z</time>
      </trkpt>
      <trkpt lat="42.82657" lon="1.43494">
        <ele>1960.27</ele>
        <time>2013-12-16T10:55:16Z</time>
      </trkpt>
      <trkpt lat="42.82668" lon="1.43493">
        <ele>1961.71</ele>
        <time>2013-12-16T10:55:29Z</time>
      </trkpt>
      <trkpt lat="42.82674" lon="1.43491">
        <ele>1963.15</ele>
        <time>2013-12-16T10:55:36Z</time>
      </trkpt>
      <trkpt lat="42.82685" lon="1.43483">
        <ele>1963.15</ele>
        <time>2013-12-16T10:55:49Z</time>
      </trkpt>
      <trkpt lat="42.82696" lon="1.43477">
        <ele>1963.15</ele>
        <time>2013-12-16T10:56:02Z</time>
      </trkpt>
      <trkpt lat="42.82706" lon="1.43476">
        <ele>1963.63</ele>
        <time>2013-12-16T10:56:15Z</time>
      </trkpt>
      <trkpt lat="42.8271" lon="1.43479">
        <ele>1962.67</ele>
        <time>2013-12-16T10:56:22Z</time>
      </trkpt>
      <trkpt lat="42.82719" lon="1.43484">
        <ele>1963.63</ele>
        <time>2013-12-16T10:56:34Z</time>
      </trkpt>
      <trkpt lat="42.82726" lon="1.43488">
        <ele>1966.51</ele>
        <time>2013-12-16T10:56:49Z</time>
      </trkpt>
      <trkpt lat="42.82734" lon="1.43491">
        <ele>1970.36</ele>
        <time>2013-12-16T10:57:03Z</time>
      </trkpt>
      <trkpt lat="42.82741" lon="1.43494">
        <ele>1971.8</ele>
        <time>2013-12-16T10:57:15Z</time>
      </trkpt>
      <trkpt lat="42.82748" lon="1.43496">
        <ele>1973.72</ele>
        <time>2013-12-16T10:57:27Z</time>
      </trkpt>
      <trkpt lat="42.82756" lon="1.43497">
        <ele>1974.69</ele>
        <time>2013-12-16T10:57:40Z</time>
      </trkpt>
      <trkpt lat="42.82764" lon="1.435">
        <ele>1979.01</ele>
        <time>2013-12-16T10:57:54Z</time>
      </trkpt>
      <trkpt lat="42.82766" lon="1.43507">
        <ele>1983.34</ele>
        <time>2013-12-16T10:58:08Z</time>
      </trkpt>
      <trkpt lat="42.82763" lon="1.43517">
        <ele>1985.26</ele>
        <time>2013-12-16T10:58:21Z</time>
      </trkpt>
      <trkpt lat="42.82761" lon="1.43525">
        <ele>1987.66</ele>
        <time>2013-12-16T10:58:33Z</time>
      </trkpt>
      <trkpt lat="42.8276" lon="1.43527">
        <ele>1989.1</ele>
        <time>2013-12-16T10:58:48Z</time>
      </trkpt>
      <trkpt lat="42.82754" lon="1.43533">
        <ele>1991.03</ele>
        <time>2013-12-16T10:59:01Z</time>
      </trkpt>
      <trkpt lat="42.82748" lon="1.43541">
        <ele>1991.99</ele>
        <time>2013-12-16T10:59:14Z</time>
      </trkpt>
      <trkpt lat="42.8275" lon="1.43547">
        <ele>1993.91</ele>
        <time>2013-12-16T10:59:27Z</time>
      </trkpt>
      <trkpt lat="42.82754" lon="1.4355">
        <ele>1994.39</ele>
        <time>2013-12-16T10:59:41Z</time>
      </trkpt>
      <trkpt lat="42.82753" lon="1.4355">
        <ele>1992.95</ele>
        <time>2013-12-16T11:00:02Z</time>
      </trkpt>
      <trkpt lat="42.82756" lon="1.43546">
        <ele>1991.51</ele>
        <time>2013-12-16T11:00:16Z</time>
      </trkpt>
      <trkpt lat="42.82753" lon="1.43544">
        <ele>1992.47</ele>
        <time>2013-12-16T11:00:32Z</time>
      </trkpt>
      <trkpt lat="42.82767" lon="1.43558">
        <ele>1990.55</ele>
        <time>2013-12-16T11:00:44Z</time>
      </trkpt>
      <trkpt lat="42.82771" lon="1.43555">
        <ele>1992.95</ele>
        <time>2013-12-16T11:00:59Z</time>
      </trkpt>
      <trkpt lat="42.82771" lon="1.43552">
        <ele>1991.99</ele>
        <time>2013-12-16T11:01:14Z</time>
      </trkpt>
      <trkpt lat="42.8277" lon="1.4355">
        <ele>1992.47</ele>
        <time>2013-12-16T11:01:32Z</time>
      </trkpt>
      <trkpt lat="42.82766" lon="1.43549">
        <ele>1992.95</ele>
        <time>2013-12-16T11:01:54Z</time>
      </trkpt>
      <trkpt lat="42.82764" lon="1.4355">
        <ele>1998.24</ele>
        <time>2013-12-16T11:02:16Z</time>
      </trkpt>
      <trkpt lat="42.82764" lon="1.43549">
        <ele>2001.12</ele>
        <time>2013-12-16T11:02:44Z</time>
      </trkpt>
      <trkpt lat="42.82763" lon="1.43548">
        <ele>2003.04</ele>
        <time>2013-12-16T11:03:04Z</time>
      </trkpt>
      <trkpt lat="42.82762" lon="1.43547">
        <ele>2004.97</ele>
        <time>2013-12-16T11:03:34Z</time>
      </trkpt>
      <trkpt lat="42.82764" lon="1.4355">
        <ele>2002.56</ele>
        <time>2013-12-16T11:03:57Z</time>
      </trkpt>
      <trkpt lat="42.82766" lon="1.43551">
        <ele>2003.52</ele>
        <time>2013-12-16T11:04:26Z</time>
      </trkpt>
      <trkpt lat="42.82766" lon="1.43549">
        <ele>2003.52</ele>
        <time>2013-12-16T11:04:54Z</time>
      </trkpt>
      <trkpt lat="42.82765" lon="1.43547">
        <ele>2002.56</ele>
        <time>2013-12-16T11:05:16Z</time>
      </trkpt>
      <trkpt lat="42.82762" lon="1.43548">
        <ele>2003.52</ele>
        <time>2013-12-16T11:05:43Z</time>
      </trkpt>
      <trkpt lat="42.82761" lon="1.43547">
        <ele>2003.04</ele>
        <time>2013-12-16T11:06:08Z</time>
      </trkpt>
      <trkpt lat="42.82763" lon="1.4355">
        <ele>2008.33</ele>
        <time>2013-12-16T11:06:31Z</time>
      </trkpt>
      <trkpt lat="42.82764" lon="1.43552">
        <ele>2009.29</ele>
        <time>2013-12-16T11:07:05Z</time>
      </trkpt>
      <trkpt lat="42.82763" lon="1.43548">
        <ele>2006.89</ele>
        <time>2013-12-16T11:07:28Z</time>
      </trkpt>
      <trkpt lat="42.82763" lon="1.43551">
        <ele>2007.37</ele>
        <time>2013-12-16T11:07:57Z</time>
      </trkpt>
      <trkpt lat="42.82765" lon="1.43552">
        <ele>2004.49</ele>
        <time>2013-12-16T11:08:26Z</time>
      </trkpt>
      <trkpt lat="42.82764" lon="1.43551">
        <ele>2004.97</ele>
        <time>2013-12-16T11:08:48Z</time>
      </trkpt>
      <trkpt lat="42.82763" lon="1.43549">
        <ele>2006.41</ele>
        <time>2013-12-16T11:09:09Z</time>
      </trkpt>
      <trkpt lat="42.82768" lon="1.43557">
        <ele>2005.45</ele>
        <time>2013-12-16T11:09:27Z</time>
      </trkpt>
      <trkpt lat="42.8277" lon="1.43557">
        <ele>2008.33</ele>
        <time>2013-12-16T11:09:42Z</time>
      </trkpt>
      <trkpt lat="42.8277" lon="1.43557">
        <ele>2009.29</ele>
        <time>2013-12-16T11:09:55Z</time>
      </trkpt>
      <trkpt lat="42.82774" lon="1.43566">
        <ele>2011.22</ele>
        <time>2013-12-16T11:10:09Z</time>
      </trkpt>
      <trkpt lat="42.82777" lon="1.4357">
        <ele>2016.02</ele>
        <time>2013-12-16T11:10:23Z</time>
      </trkpt>
      <trkpt lat="42.82781" lon="1.43574">
        <ele>2019.39</ele>
        <time>2013-12-16T11:10:37Z</time>
      </trkpt>
      <trkpt lat="42.82782" lon="1.43576">
        <ele>2022.75</ele>
        <time>2013-12-16T11:10:50Z</time>
      </trkpt>
      <trkpt lat="42.82785" lon="1.4358">
        <ele>2026.12</ele>
        <time>2013-12-16T11:11:04Z</time>
      </trkpt>
      <trkpt lat="42.82788" lon="1.43587">
        <ele>2027.56</ele>
        <time>2013-12-16T11:11:15Z</time>
      </trkpt>
      <trkpt lat="42.82791" lon="1.43594">
        <ele>2027.56</ele>
        <time>2013-12-16T11:11:26Z</time>
      </trkpt>
      <trkpt lat="42.82792" lon="1.43603">
        <ele>2029</ele>
        <time>2013-12-16T11:11:38Z</time>
      </trkpt>
      <trkpt lat="42.82793" lon="1.43604">
        <ele>2029.48</ele>
        <time>2013-12-16T11:11:39Z</time>
      </trkpt>
      <trkpt lat="42.82795" lon="1.43612">
        <ele>2029.96</ele>
        <time>2013-12-16T11:11:50Z</time>
      </trkpt>
      <trkpt lat="42.82797" lon="1.43618">
        <ele>2032.84</ele>
        <time>2013-12-16T11:12:00Z</time>
      </trkpt>
      <trkpt lat="42.82799" lon="1.43622">
        <ele>2032.36</ele>
        <time>2013-12-16T11:12:06Z</time>
      </trkpt>
      <trkpt lat="42.828" lon="1.43625">
        <ele>2031.88</ele>
        <time>2013-12-16T11:12:09Z</time>
      </trkpt>
      <trkpt lat="42.82801" lon="1.43633">
        <ele>2032.36</ele>
        <time>2013-12-16T11:12:21Z</time>
      </trkpt>
      <trkpt lat="42.82801" lon="1.43632">
        <ele>2033.33</ele>
        <time>2013-12-16T11:12:43Z</time>
      </trkpt>
      <trkpt lat="42.82801" lon="1.43632">
        <ele>2033.33</ele>
        <time>2013-12-16T11:13:01Z</time>
      </trkpt>
      <trkpt lat="42.82799" lon="1.43634">
        <ele>2033.81</ele>
        <time>2013-12-16T11:13:22Z</time>
      </trkpt>
      <trkpt lat="42.828" lon="1.43634">
        <ele>2032.84</ele>
        <time>2013-12-16T11:13:48Z</time>
      </trkpt>
      <trkpt lat="42.82801" lon="1.43633">
        <ele>2032.84</ele>
        <time>2013-12-16T11:14:13Z</time>
      </trkpt>
      <trkpt lat="42.82803" lon="1.43633">
        <ele>2033.81</ele>
        <time>2013-12-16T11:14:33Z</time>
      </trkpt>
      <trkpt lat="42.82804" lon="1.43634">
        <ele>2034.29</ele>
        <time>2013-12-16T11:14:58Z</time>
      </trkpt>
      <trkpt lat="42.828" lon="1.43636">
        <ele>2034.29</ele>
        <time>2013-12-16T11:15:25Z</time>
      </trkpt>
      <trkpt lat="42.82802" lon="1.43634">
        <ele>2035.73</ele>
        <time>2013-12-16T11:15:47Z</time>
      </trkpt>
      <trkpt lat="42.82801" lon="1.43635">
        <ele>2032.84</ele>
        <time>2013-12-16T11:16:06Z</time>
      </trkpt>
      <trkpt lat="42.82801" lon="1.43634">
        <ele>2029.96</ele>
        <time>2013-12-16T11:16:24Z</time>
      </trkpt>
      <trkpt lat="42.82802" lon="1.43633">
        <ele>2029.96</ele>
        <time>2013-12-16T11:16:40Z</time>
      </trkpt>
      <trkpt lat="42.82802" lon="1.43633">
        <ele>2030.44</ele>
        <time>2013-12-16T11:16:55Z</time>
      </trkpt>
      <trkpt lat="42.82805" lon="1.43638">
        <ele>2029</ele>
        <time>2013-12-16T11:17:09Z</time>
      </trkpt>
      <trkpt lat="42.82808" lon="1.43645">
        <ele>2032.36</ele>
        <time>2013-12-16T11:17:20Z</time>
      </trkpt>
      <trkpt lat="42.82811" lon="1.4365">
        <ele>2034.77</ele>
        <time>2013-12-16T11:17:31Z</time>
      </trkpt>
      <trkpt lat="42.82813" lon="1.43654">
        <ele>2036.21</ele>
        <time>2013-12-16T11:17:35Z</time>
      </trkpt>
      <trkpt lat="42.82819" lon="1.43664">
        <ele>2039.09</ele>
        <time>2013-12-16T11:17:46Z</time>
      </trkpt>
      <trkpt lat="42.82822" lon="1.43671">
        <ele>2040.05</ele>
        <time>2013-12-16T11:17:56Z</time>
      </trkpt>
      <trkpt lat="42.82825" lon="1.43681">
        <ele>2043.42</ele>
        <time>2013-12-16T11:18:07Z</time>
      </trkpt>
      <trkpt lat="42.82829" lon="1.43687">
        <ele>2046.78</ele>
        <time>2013-12-16T11:18:17Z</time>
      </trkpt>
      <trkpt lat="42.82833" lon="1.43693">
        <ele>2048.23</ele>
        <time>2013-12-16T11:18:27Z</time>
      </trkpt>
      <trkpt lat="42.82839" lon="1.43698">
        <ele>2049.67</ele>
        <time>2013-12-16T11:18:37Z</time>
      </trkpt>
      <trkpt lat="42.82843" lon="1.43703">
        <ele>2051.59</ele>
        <time>2013-12-16T11:18:47Z</time>
      </trkpt>
      <trkpt lat="42.82848" lon="1.43708">
        <ele>2053.51</ele>
        <time>2013-12-16T11:18:58Z</time>
      </trkpt>
      <trkpt lat="42.82852" lon="1.43715">
        <ele>2056.4</ele>
        <time>2013-12-16T11:19:09Z</time>
      </trkpt>
      <trkpt lat="42.82855" lon="1.43723">
        <ele>2060.24</ele>
        <time>2013-12-16T11:19:21Z</time>
      </trkpt>
      <trkpt lat="42.82858" lon="1.43732">
        <ele>2064.57</ele>
        <time>2013-12-16T11:19:35Z</time>
      </trkpt>
      <trkpt lat="42.82859" lon="1.43742">
        <ele>2068.41</ele>
        <time>2013-12-16T11:19:51Z</time>
      </trkpt>
      <trkpt lat="42.8286" lon="1.43752">
        <ele>2071.3</ele>
        <time>2013-12-16T11:20:06Z</time>
      </trkpt>
      <trkpt lat="42.82864" lon="1.43763">
        <ele>2074.66</ele>
        <time>2013-12-16T11:20:21Z</time>
      </trkpt>
      <trkpt lat="42.82866" lon="1.43772">
        <ele>2077.07</ele>
        <time>2013-12-16T11:20:35Z</time>
      </trkpt>
      <trkpt lat="42.82866" lon="1.43783">
        <ele>2079.95</ele>
        <time>2013-12-16T11:20:51Z</time>
      </trkpt>
      <trkpt lat="42.82865" lon="1.43791">
        <ele>2083.31</ele>
        <time>2013-12-16T11:21:03Z</time>
      </trkpt>
      <trkpt lat="42.82865" lon="1.43798">
        <ele>2083.31</ele>
        <time>2013-12-16T11:21:14Z</time>
      </trkpt>
      <trkpt lat="42.82867" lon="1.43805">
        <ele>2083.31</ele>
        <time>2013-12-16T11:21:27Z</time>
      </trkpt>
      <trkpt lat="42.82869" lon="1.43811">
        <ele>2084.28</ele>
        <time>2013-12-16T11:21:53Z</time>
      </trkpt>
      <trkpt lat="42.82866" lon="1.4382">
        <ele>2088.12</ele>
        <time>2013-12-16T11:22:06Z</time>
      </trkpt>
      <trkpt lat="42.82867" lon="1.43832">
        <ele>2091.49</ele>
        <time>2013-12-16T11:22:21Z</time>
      </trkpt>
      <trkpt lat="42.82867" lon="1.43843">
        <ele>2094.37</ele>
        <time>2013-12-16T11:22:36Z</time>
      </trkpt>
      <trkpt lat="42.82867" lon="1.43854">
        <ele>2098.21</ele>
        <time>2013-12-16T11:22:50Z</time>
      </trkpt>
      <trkpt lat="42.82869" lon="1.43864">
        <ele>2100.62</ele>
        <time>2013-12-16T11:23:06Z</time>
      </trkpt>
      <trkpt lat="42.82871" lon="1.43873">
        <ele>2103.5</ele>
        <time>2013-12-16T11:23:18Z</time>
      </trkpt>
      <trkpt lat="42.82872" lon="1.43881">
        <ele>2105.91</ele>
        <time>2013-12-16T11:23:30Z</time>
      </trkpt>
      <trkpt lat="42.82873" lon="1.43888">
        <ele>2107.83</ele>
        <time>2013-12-16T11:23:40Z</time>
      </trkpt>
      <trkpt lat="42.82875" lon="1.43896">
        <ele>2108.79</ele>
        <time>2013-12-16T11:23:53Z</time>
      </trkpt>
      <trkpt lat="42.82876" lon="1.439">
        <ele>2108.79</ele>
        <time>2013-12-16T11:23:59Z</time>
      </trkpt>
      <trkpt lat="42.82878" lon="1.43907">
        <ele>2110.23</ele>
        <time>2013-12-16T11:24:10Z</time>
      </trkpt>
      <trkpt lat="42.8288" lon="1.43913">
        <ele>2112.15</ele>
        <time>2013-12-16T11:24:20Z</time>
      </trkpt>
      <trkpt lat="42.82884" lon="1.43918">
        <ele>2113.6</ele>
        <time>2013-12-16T11:24:29Z</time>
      </trkpt>
      <trkpt lat="42.82889" lon="1.43921">
        <ele>2115.52</ele>
        <time>2013-12-16T11:24:41Z</time>
      </trkpt>
      <trkpt lat="42.82889" lon="1.43925">
        <ele>2116</ele>
        <time>2013-12-16T11:25:07Z</time>
      </trkpt>
      <trkpt lat="42.82891" lon="1.43924">
        <ele>2116.96</ele>
        <time>2013-12-16T11:25:33Z</time>
      </trkpt>
      <trkpt lat="42.82896" lon="1.43931">
        <ele>2119.84</ele>
        <time>2013-12-16T11:25:44Z</time>
      </trkpt>
      <trkpt lat="42.82897" lon="1.43931">
        <ele>2120.32</ele>
        <time>2013-12-16T11:25:46Z</time>
      </trkpt>
      <trkpt lat="42.82904" lon="1.43934">
        <ele>2121.77</ele>
        <time>2013-12-16T11:25:57Z</time>
      </trkpt>
      <trkpt lat="42.82912" lon="1.43936">
        <ele>2124.17</ele>
        <time>2013-12-16T11:26:08Z</time>
      </trkpt>
      <trkpt lat="42.82916" lon="1.43938">
        <ele>2125.13</ele>
        <time>2013-12-16T11:26:18Z</time>
      </trkpt>
      <trkpt lat="42.82921" lon="1.4394">
        <ele>2128.5</ele>
        <time>2013-12-16T11:26:30Z</time>
      </trkpt>
      <trkpt lat="42.82925" lon="1.43942">
        <ele>2129.94</ele>
        <time>2013-12-16T11:26:37Z</time>
      </trkpt>
      <trkpt lat="42.82931" lon="1.43944">
        <ele>2132.34</ele>
        <time>2013-12-16T11:26:49Z</time>
      </trkpt>
      <trkpt lat="42.82935" lon="1.43946">
        <ele>2134.26</ele>
        <time>2013-12-16T11:27:00Z</time>
      </trkpt>
      <trkpt lat="42.8294" lon="1.4395">
        <ele>2135.71</ele>
        <time>2013-12-16T11:27:10Z</time>
      </trkpt>
      <trkpt lat="42.82944" lon="1.43952">
        <ele>2137.63</ele>
        <time>2013-12-16T11:27:21Z</time>
      </trkpt>
      <trkpt lat="42.82949" lon="1.43955">
        <ele>2138.59</ele>
        <time>2013-12-16T11:27:33Z</time>
      </trkpt>
      <trkpt lat="42.82953" lon="1.43957">
        <ele>2140.51</ele>
        <time>2013-12-16T11:27:43Z</time>
      </trkpt>
      <trkpt lat="42.82958" lon="1.43959">
        <ele>2142.92</ele>
        <time>2013-12-16T11:27:54Z</time>
      </trkpt>
      <trkpt lat="42.82965" lon="1.43962">
        <ele>2145.8</ele>
        <time>2013-12-16T11:28:09Z</time>
      </trkpt>
      <trkpt lat="42.82967" lon="1.43964">
        <ele>2146.28</ele>
        <time>2013-12-16T11:28:22Z</time>
      </trkpt>
      <trkpt lat="42.82972" lon="1.43967">
        <ele>2147.72</ele>
        <time>2013-12-16T11:28:32Z</time>
      </trkpt>
      <trkpt lat="42.82977" lon="1.43967">
        <ele>2150.61</ele>
        <time>2013-12-16T11:28:43Z</time>
      </trkpt>
      <trkpt lat="42.82978" lon="1.43962">
        <ele>2154.45</ele>
        <time>2013-12-16T11:28:53Z</time>
      </trkpt>
      <trkpt lat="42.82979" lon="1.4396">
        <ele>2155.41</ele>
        <time>2013-12-16T11:28:56Z</time>
      </trkpt>
      <trkpt lat="42.82981" lon="1.43954">
        <ele>2158.3</ele>
        <time>2013-12-16T11:29:06Z</time>
      </trkpt>
      <trkpt lat="42.82982" lon="1.43953">
        <ele>2157.82</ele>
        <time>2013-12-16T11:29:19Z</time>
      </trkpt>
      <trkpt lat="42.82986" lon="1.43959">
        <ele>2158.78</ele>
        <time>2013-12-16T11:29:30Z</time>
      </trkpt>
      <trkpt lat="42.82989" lon="1.43966">
        <ele>2162.14</ele>
        <time>2013-12-16T11:29:41Z</time>
      </trkpt>
      <trkpt lat="42.82994" lon="1.43971">
        <ele>2163.58</ele>
        <time>2013-12-16T11:29:53Z</time>
      </trkpt>
      <trkpt lat="42.82993" lon="1.43964">
        <ele>2164.55</ele>
        <time>2013-12-16T11:30:06Z</time>
      </trkpt>
      <trkpt lat="42.82996" lon="1.43953">
        <ele>2166.95</ele>
        <time>2013-12-16T11:30:21Z</time>
      </trkpt>
      <trkpt lat="42.82997" lon="1.43947">
        <ele>2170.31</ele>
        <time>2013-12-16T11:30:31Z</time>
      </trkpt>
      <trkpt lat="42.82996" lon="1.43941">
        <ele>2170.79</ele>
        <time>2013-12-16T11:30:43Z</time>
      </trkpt>
      <trkpt lat="42.82996" lon="1.43931">
        <ele>2170.31</ele>
        <time>2013-12-16T11:30:54Z</time>
      </trkpt>
      <trkpt lat="42.82995" lon="1.43924">
        <ele>2171.76</ele>
        <time>2013-12-16T11:31:06Z</time>
      </trkpt>
      <trkpt lat="42.82995" lon="1.43923">
        <ele>2171.76</ele>
        <time>2013-12-16T11:31:16Z</time>
      </trkpt>
      <trkpt lat="42.82996" lon="1.43916">
        <ele>2174.16</ele>
        <time>2013-12-16T11:31:27Z</time>
      </trkpt>
      <trkpt lat="42.82998" lon="1.4391">
        <ele>2176.08</ele>
        <time>2013-12-16T11:31:39Z</time>
      </trkpt>
      <trkpt lat="42.82998" lon="1.43905">
        <ele>2178.97</ele>
        <time>2013-12-16T11:31:53Z</time>
      </trkpt>
      <trkpt lat="42.83" lon="1.43899">
        <ele>2178.97</ele>
        <time>2013-12-16T11:32:05Z</time>
      </trkpt>
      <trkpt lat="42.83002" lon="1.43891">
        <ele>2182.33</ele>
        <time>2013-12-16T11:32:17Z</time>
      </trkpt>
      <trkpt lat="42.83006" lon="1.43888">
        <ele>2182.81</ele>
        <time>2013-12-16T11:32:26Z</time>
      </trkpt>
      <trkpt lat="42.83005" lon="1.43891">
        <ele>2183.29</ele>
        <time>2013-12-16T11:32:35Z</time>
      </trkpt>
      <trkpt lat="42.83005" lon="1.43894">
        <ele>2184.25</ele>
        <time>2013-12-16T11:33:01Z</time>
      </trkpt>
      <trkpt lat="42.83007" lon="1.43899">
        <ele>2185.21</ele>
        <time>2013-12-16T11:33:11Z</time>
      </trkpt>
      <trkpt lat="42.83007" lon="1.43904">
        <ele>2186.18</ele>
        <time>2013-12-16T11:33:22Z</time>
      </trkpt>
      <trkpt lat="42.83011" lon="1.43913">
        <ele>2186.18</ele>
        <time>2013-12-16T11:33:33Z</time>
      </trkpt>
      <trkpt lat="42.83015" lon="1.43922">
        <ele>2185.69</ele>
        <time>2013-12-16T11:33:43Z</time>
      </trkpt>
      <trkpt lat="42.83017" lon="1.43928">
        <ele>2185.69</ele>
        <time>2013-12-16T11:33:53Z</time>
      </trkpt>
      <trkpt lat="42.8302" lon="1.43938">
        <ele>2183.77</ele>
        <time>2013-12-16T11:34:10Z</time>
      </trkpt>
      <trkpt lat="42.83025" lon="1.43944">
        <ele>2184.73</ele>
        <time>2013-12-16T11:34:20Z</time>
      </trkpt>
      <trkpt lat="42.83028" lon="1.43953">
        <ele>2186.66</ele>
        <time>2013-12-16T11:34:32Z</time>
      </trkpt>
      <trkpt lat="42.83032" lon="1.43959">
        <ele>2186.66</ele>
        <time>2013-12-16T11:34:43Z</time>
      </trkpt>
      <trkpt lat="42.83034" lon="1.43965">
        <ele>2187.14</ele>
        <time>2013-12-16T11:35:04Z</time>
      </trkpt>
      <trkpt lat="42.83037" lon="1.43971">
        <ele>2186.18</ele>
        <time>2013-12-16T11:35:15Z</time>
      </trkpt>
      <trkpt lat="42.83041" lon="1.43978">
        <ele>2188.1</ele>
        <time>2013-12-16T11:35:26Z</time>
      </trkpt>
      <trkpt lat="42.83045" lon="1.43983">
        <ele>2188.58</ele>
        <time>2013-12-16T11:35:34Z</time>
      </trkpt>
      <trkpt lat="42.83048" lon="1.4399">
        <ele>2190.98</ele>
        <time>2013-12-16T11:35:44Z</time>
      </trkpt>
      <trkpt lat="42.8305" lon="1.43996">
        <ele>2192.42</ele>
        <time>2013-12-16T11:35:53Z</time>
      </trkpt>
      <trkpt lat="42.8305" lon="1.44">
        <ele>2194.35</ele>
        <time>2013-12-16T11:36:08Z</time>
      </trkpt>
      <trkpt lat="42.83051" lon="1.44004">
        <ele>2194.83</ele>
        <time>2013-12-16T11:36:20Z</time>
      </trkpt>
      <trkpt lat="42.83049" lon="1.44004">
        <ele>2195.31</ele>
        <time>2013-12-16T11:36:43Z</time>
      </trkpt>
      <trkpt lat="42.83051" lon="1.44009">
        <ele>2197.23</ele>
        <time>2013-12-16T11:37:02Z</time>
      </trkpt>
      <trkpt lat="42.83053" lon="1.44013">
        <ele>2196.75</ele>
        <time>2013-12-16T11:37:18Z</time>
      </trkpt>
      <trkpt lat="42.83053" lon="1.44014">
        <ele>2196.27</ele>
        <time>2013-12-16T11:37:40Z</time>
      </trkpt>
      <trkpt lat="42.83052" lon="1.44012">
        <ele>2196.27</ele>
        <time>2013-12-16T11:37:57Z</time>
      </trkpt>
      <trkpt lat="42.83049" lon="1.44002">
        <ele>2195.79</ele>
        <time>2013-12-16T11:38:10Z</time>
      </trkpt>
      <trkpt lat="42.83049" lon="1.43999">
        <ele>2195.31</ele>
        <time>2013-12-16T11:38:22Z</time>
      </trkpt>
      <trkpt lat="42.83047" lon="1.43994">
        <ele>2195.31</ele>
        <time>2013-12-16T11:38:39Z</time>
      </trkpt>
      <trkpt lat="42.83046" lon="1.43992">
        <ele>2195.79</ele>
        <time>2013-12-16T11:39:02Z</time>
      </trkpt>
      <trkpt lat="42.83044" lon="1.43987">
        <ele>2195.79</ele>
        <time>2013-12-16T11:39:23Z</time>
      </trkpt>
      <trkpt lat="42.83047" lon="1.43993">
        <ele>2195.31</ele>
        <time>2013-12-16T11:39:43Z</time>
      </trkpt>
      <trkpt lat="42.83049" lon="1.43999">
        <ele>2195.79</ele>
        <time>2013-12-16T11:39:55Z</time>
      </trkpt>
      <trkpt lat="42.83053" lon="1.43999">
        <ele>2196.75</ele>
        <time>2013-12-16T11:40:23Z</time>
      </trkpt>
      <trkpt lat="42.83057" lon="1.43998">
        <ele>2202.52</ele>
        <time>2013-12-16T11:40:53Z</time>
      </trkpt>
      <trkpt lat="42.83052" lon="1.44001">
        <ele>2201.56</ele>
        <time>2013-12-16T11:41:21Z</time>
      </trkpt>
      <trkpt lat="42.83051" lon="1.44004">
        <ele>2199.63</ele>
        <time>2013-12-16T11:41:46Z</time>
      </trkpt>
      <trkpt lat="42.83053" lon="1.44006">
        <ele>2199.63</ele>
        <time>2013-12-16T11:42:07Z</time>
      </trkpt>
      <trkpt lat="42.83053" lon="1.44006">
        <ele>2199.15</ele>
        <time>2013-12-16T11:42:25Z</time>
      </trkpt>
      <trkpt lat="42.83051" lon="1.44007">
        <ele>2200.11</ele>
        <time>2013-12-16T11:42:59Z</time>
      </trkpt>
      <trkpt lat="42.83051" lon="1.44005">
        <ele>2199.15</ele>
        <time>2013-12-16T11:43:17Z</time>
      </trkpt>
      <trkpt lat="42.83054" lon="1.44007">
        <ele>2203</ele>
        <time>2013-12-16T11:43:52Z</time>
      </trkpt>
      <trkpt lat="42.83052" lon="1.44003">
        <ele>2207.32</ele>
        <time>2013-12-16T11:44:16Z</time>
      </trkpt>
      <trkpt lat="42.83049" lon="1.44002">
        <ele>2208.77</ele>
        <time>2013-12-16T11:44:52Z</time>
      </trkpt>
      <trkpt lat="42.83048" lon="1.44002">
        <ele>2209.25</ele>
        <time>2013-12-16T11:45:21Z</time>
      </trkpt>
      <trkpt lat="42.83049" lon="1.44004">
        <ele>2205.88</ele>
        <time>2013-12-16T11:45:51Z</time>
      </trkpt>
      <trkpt lat="42.8305" lon="1.44004">
        <ele>2203</ele>
        <time>2013-12-16T11:46:27Z</time>
      </trkpt>
      <trkpt lat="42.8305" lon="1.44003">
        <ele>2204.44</ele>
        <time>2013-12-16T11:46:48Z</time>
      </trkpt>
      <trkpt lat="42.83051" lon="1.44005">
        <ele>2203.48</ele>
        <time>2013-12-16T11:47:15Z</time>
      </trkpt>
      <trkpt lat="42.83052" lon="1.44006">
        <ele>2202.52</ele>
        <time>2013-12-16T11:47:44Z</time>
      </trkpt>
      <trkpt lat="42.83053" lon="1.44006">
        <ele>2201.08</ele>
        <time>2013-12-16T11:48:08Z</time>
      </trkpt>
      <trkpt lat="42.8305" lon="1.44007">
        <ele>2203.48</ele>
        <time>2013-12-16T11:48:33Z</time>
      </trkpt>
      <trkpt lat="42.83052" lon="1.44007">
        <ele>2203.48</ele>
        <time>2013-12-16T11:49:03Z</time>
      </trkpt>
      <trkpt lat="42.83052" lon="1.44005">
        <ele>2205.4</ele>
        <time>2013-12-16T11:49:34Z</time>
      </trkpt>
      <trkpt lat="42.83051" lon="1.44004">
        <ele>2204.44</ele>
        <time>2013-12-16T11:49:55Z</time>
      </trkpt>
      <trkpt lat="42.83051" lon="1.44006">
        <ele>2203.96</ele>
        <time>2013-12-16T11:50:24Z</time>
      </trkpt>
      <trkpt lat="42.83049" lon="1.44004">
        <ele>2203.48</ele>
        <time>2013-12-16T11:50:55Z</time>
      </trkpt>
      <trkpt lat="42.8305" lon="1.44004">
        <ele>2203.48</ele>
        <time>2013-12-16T11:51:30Z</time>
      </trkpt>
      <trkpt lat="42.83049" lon="1.44002">
        <ele>2203.48</ele>
        <time>2013-12-16T11:51:56Z</time>
      </trkpt>
      <trkpt lat="42.8305" lon="1.44004">
        <ele>2203.96</ele>
        <time>2013-12-16T11:52:24Z</time>
      </trkpt>
      <trkpt lat="42.83049" lon="1.44003">
        <ele>2203.48</ele>
        <time>2013-12-16T11:52:51Z</time>
      </trkpt>
      <trkpt lat="42.83049" lon="1.44001">
        <ele>2203</ele>
        <time>2013-12-16T11:53:08Z</time>
      </trkpt>
      <trkpt lat="42.83048" lon="1.44002">
        <ele>2200.59</ele>
        <time>2013-12-16T11:53:20Z</time>
      </trkpt>
      <trkpt lat="42.83048" lon="1.44004">
        <ele>2198.67</ele>
        <time>2013-12-16T11:53:50Z</time>
      </trkpt>
      <trkpt lat="42.83049" lon="1.44006">
        <ele>2197.23</ele>
        <time>2013-12-16T11:54:19Z</time>
      </trkpt>
      <trkpt lat="42.83049" lon="1.44006">
        <ele>2197.71</ele>
        <time>2013-12-16T11:54:46Z</time>
      </trkpt>
      <trkpt lat="42.83049" lon="1.44004">
        <ele>2196.75</ele>
        <time>2013-12-16T11:55:18Z</time>
      </trkpt>
      <trkpt lat="42.83048" lon="1.44005">
        <ele>2197.71</ele>
        <time>2013-12-16T11:55:54Z</time>
      </trkpt>
      <trkpt lat="42.83049" lon="1.44003">
        <ele>2197.71</ele>
        <time>2013-12-16T11:56:24Z</time>
      </trkpt>
      <trkpt lat="42.83049" lon="1.44005">
        <ele>2197.23</ele>
        <time>2013-12-16T11:56:53Z</time>
      </trkpt>
      <trkpt lat="42.83048" lon="1.44004">
        <ele>2198.19</ele>
        <time>2013-12-16T11:57:27Z</time>
      </trkpt>
      <trkpt lat="42.83049" lon="1.44005">
        <ele>2195.31</ele>
        <time>2013-12-16T11:57:57Z</time>
      </trkpt>
      <trkpt lat="42.8305" lon="1.44006">
        <ele>2193.87</ele>
        <time>2013-12-16T11:58:13Z</time>
      </trkpt>
      <trkpt lat="42.8305" lon="1.44006">
        <ele>2193.39</ele>
        <time>2013-12-16T11:58:25Z</time>
      </trkpt>
      <trkpt lat="42.8305" lon="1.44007">
        <ele>2193.39</ele>
        <time>2013-12-16T11:58:56Z</time>
      </trkpt>
      <trkpt lat="42.8305" lon="1.44008">
        <ele>2192.9</ele>
        <time>2013-12-16T11:59:31Z</time>
      </trkpt>
      <trkpt lat="42.83051" lon="1.44007">
        <ele>2190.5</ele>
        <time>2013-12-16T12:00:04Z</time>
      </trkpt>
      <trkpt lat="42.83051" lon="1.44008">
        <ele>2190.02</ele>
        <time>2013-12-16T12:00:33Z</time>
      </trkpt>
      <trkpt lat="42.83051" lon="1.44007">
        <ele>2190.5</ele>
        <time>2013-12-16T12:00:52Z</time>
      </trkpt>
      <trkpt lat="42.83051" lon="1.44007">
        <ele>2191.94</ele>
        <time>2013-12-16T12:01:21Z</time>
      </trkpt>
      <trkpt lat="42.8305" lon="1.44008">
        <ele>2191.94</ele>
        <time>2013-12-16T12:01:52Z</time>
      </trkpt>
      <trkpt lat="42.83051" lon="1.44006">
        <ele>2191.46</ele>
        <time>2013-12-16T12:02:13Z</time>
      </trkpt>
      <trkpt lat="42.83051" lon="1.44005">
        <ele>2190.98</ele>
        <time>2013-12-16T12:02:34Z</time>
      </trkpt>
      <trkpt lat="42.83048" lon="1.44005">
        <ele>2194.83</ele>
        <time>2013-12-16T12:03:00Z</time>
      </trkpt>
      <trkpt lat="42.83048" lon="1.44">
        <ele>2195.31</ele>
        <time>2013-12-16T12:03:19Z</time>
      </trkpt>
      <trkpt lat="42.83048" lon="1.44002">
        <ele>2191.94</ele>
        <time>2013-12-16T12:03:34Z</time>
      </trkpt>
      <trkpt lat="42.83049" lon="1.44002">
        <ele>2192.9</ele>
        <time>2013-12-16T12:03:52Z</time>
      </trkpt>
      <trkpt lat="42.83055" lon="1.44003">
        <ele>2191.94</ele>
        <time>2013-12-16T12:04:13Z</time>
      </trkpt>
      <trkpt lat="42.83053" lon="1.44005">
        <ele>2193.39</ele>
        <time>2013-12-16T12:04:30Z</time>
      </trkpt>
      <trkpt lat="42.83053" lon="1.44008">
        <ele>2192.9</ele>
        <time>2013-12-16T12:04:45Z</time>
      </trkpt>
      <trkpt lat="42.8305" lon="1.44006">
        <ele>2194.35</ele>
        <time>2013-12-16T12:05:11Z</time>
      </trkpt>
      <trkpt lat="42.8305" lon="1.44006">
        <ele>2193.39</ele>
        <time>2013-12-16T12:05:33Z</time>
      </trkpt>
      <trkpt lat="42.83051" lon="1.44006">
        <ele>2195.31</ele>
        <time>2013-12-16T12:06:09Z</time>
      </trkpt>
      <trkpt lat="42.83051" lon="1.44006">
        <ele>2195.79</ele>
        <time>2013-12-16T12:06:51Z</time>
      </trkpt>
      <trkpt lat="42.83051" lon="1.44006">
        <ele>2196.27</ele>
        <time>2013-12-16T12:07:28Z</time>
      </trkpt>
      <trkpt lat="42.83051" lon="1.44007">
        <ele>2196.75</ele>
        <time>2013-12-16T12:08:03Z</time>
      </trkpt>
      <trkpt lat="42.83051" lon="1.44007">
        <ele>2196.75</ele>
        <time>2013-12-16T12:08:41Z</time>
      </trkpt>
      <trkpt lat="42.83051" lon="1.44007">
        <ele>2196.75</ele>
        <time>2013-12-16T12:09:12Z</time>
      </trkpt>
      <trkpt lat="42.83049" lon="1.44006">
        <ele>2196.27</ele>
        <time>2013-12-16T12:09:38Z</time>
      </trkpt>
      <trkpt lat="42.83048" lon="1.44007">
        <ele>2196.27</ele>
        <time>2013-12-16T12:10:11Z</time>
      </trkpt>
      <trkpt lat="42.83049" lon="1.44007">
        <ele>2195.31</ele>
        <time>2013-12-16T12:10:27Z</time>
      </trkpt>
      <trkpt lat="42.8305" lon="1.44008">
        <ele>2195.79</ele>
        <time>2013-12-16T12:10:48Z</time>
      </trkpt>
      <trkpt lat="42.83049" lon="1.44008">
        <ele>2195.79</ele>
        <time>2013-12-16T12:11:15Z</time>
      </trkpt>
      <trkpt lat="42.8305" lon="1.44009">
        <ele>2196.27</ele>
        <time>2013-12-16T12:11:47Z</time>
      </trkpt>
      <trkpt lat="42.8305" lon="1.44008">
        <ele>2193.39</ele>
        <time>2013-12-16T12:12:03Z</time>
      </trkpt>
      <trkpt lat="42.83049" lon="1.44007">
        <ele>2189.54</ele>
        <time>2013-12-16T12:12:32Z</time>
      </trkpt>
      <trkpt lat="42.83048" lon="1.44008">
        <ele>2190.5</ele>
        <time>2013-12-16T12:12:48Z</time>
      </trkpt>
      <trkpt lat="42.8305" lon="1.44007">
        <ele>2189.54</ele>
        <time>2013-12-16T12:13:04Z</time>
      </trkpt>
      <trkpt lat="42.83051" lon="1.44007">
        <ele>2192.42</ele>
        <time>2013-12-16T12:13:21Z</time>
      </trkpt>
      <trkpt lat="42.83053" lon="1.44007">
        <ele>2191.94</ele>
        <time>2013-12-16T12:13:37Z</time>
      </trkpt>
      <trkpt lat="42.83053" lon="1.44007">
        <ele>2190.98</ele>
        <time>2013-12-16T12:14:02Z</time>
      </trkpt>
      <trkpt lat="42.83052" lon="1.44006">
        <ele>2190.98</ele>
        <time>2013-12-16T12:14:27Z</time>
      </trkpt>
      <trkpt lat="42.83052" lon="1.44005">
        <ele>2190.98</ele>
        <time>2013-12-16T12:14:51Z</time>
      </trkpt>
      <trkpt lat="42.83051" lon="1.44005">
        <ele>2190.98</ele>
        <time>2013-12-16T12:15:18Z</time>
      </trkpt>
      <trkpt lat="42.83052" lon="1.44005">
        <ele>2191.46</ele>
        <time>2013-12-16T12:15:36Z</time>
      </trkpt>
      <trkpt lat="42.8305" lon="1.44007">
        <ele>2190.5</ele>
        <time>2013-12-16T12:15:50Z</time>
      </trkpt>
      <trkpt lat="42.8305" lon="1.44007">
        <ele>2189.54</ele>
        <time>2013-12-16T12:16:16Z</time>
      </trkpt>
      <trkpt lat="42.83049" lon="1.44006">
        <ele>2188.58</ele>
        <time>2013-12-16T12:16:40Z</time>
      </trkpt>
      <trkpt lat="42.83049" lon="1.44007">
        <ele>2189.06</ele>
        <time>2013-12-16T12:17:09Z</time>
      </trkpt>
      <trkpt lat="42.83049" lon="1.44005">
        <ele>2189.06</ele>
        <time>2013-12-16T12:17:33Z</time>
      </trkpt>
      <trkpt lat="42.83049" lon="1.44005">
        <ele>2189.54</ele>
        <time>2013-12-16T12:18:03Z</time>
      </trkpt>
      <trkpt lat="42.83049" lon="1.44006">
        <ele>2189.54</ele>
        <time>2013-12-16T12:18:33Z</time>
      </trkpt>
      <trkpt lat="42.83051" lon="1.44006">
        <ele>2191.46</ele>
        <time>2013-12-16T12:18:50Z</time>
      </trkpt>
      <trkpt lat="42.83052" lon="1.44011">
        <ele>2191.46</ele>
        <time>2013-12-16T12:19:02Z</time>
      </trkpt>
      <trkpt lat="42.83055" lon="1.44015">
        <ele>2191.94</ele>
        <time>2013-12-16T12:19:21Z</time>
      </trkpt>
      <trkpt lat="42.83055" lon="1.44014">
        <ele>2188.58</ele>
        <time>2013-12-16T12:19:47Z</time>
      </trkpt>
      <trkpt lat="42.83055" lon="1.44013">
        <ele>2188.1</ele>
        <time>2013-12-16T12:20:05Z</time>
      </trkpt>
      <trkpt lat="42.83054" lon="1.44014">
        <ele>2189.06</ele>
        <time>2013-12-16T12:20:41Z</time>
      </trkpt>
      <trkpt lat="42.83052" lon="1.44011">
        <ele>2189.06</ele>
        <time>2013-12-16T12:20:55Z</time>
      </trkpt>
      <trkpt lat="42.83052" lon="1.44012">
        <ele>2190.98</ele>
        <time>2013-12-16T12:21:23Z</time>
      </trkpt>
      <trkpt lat="42.83052" lon="1.44008">
        <ele>2191.46</ele>
        <time>2013-12-16T12:21:46Z</time>
      </trkpt>
      <trkpt lat="42.83052" lon="1.44007">
        <ele>2191.94</ele>
        <time>2013-12-16T12:22:05Z</time>
      </trkpt>
      <trkpt lat="42.83053" lon="1.44006">
        <ele>2192.42</ele>
        <time>2013-12-16T12:22:23Z</time>
      </trkpt>
      <trkpt lat="42.83052" lon="1.44005">
        <ele>2191.46</ele>
        <time>2013-12-16T12:22:52Z</time>
      </trkpt>
      <trkpt lat="42.83053" lon="1.44005">
        <ele>2191.94</ele>
        <time>2013-12-16T12:23:15Z</time>
      </trkpt>
      <trkpt lat="42.83051" lon="1.44006">
        <ele>2191.94</ele>
        <time>2013-12-16T12:23:39Z</time>
      </trkpt>
      <trkpt lat="42.83051" lon="1.44004">
        <ele>2190.98</ele>
        <time>2013-12-16T12:23:59Z</time>
      </trkpt>
      <trkpt lat="42.83046" lon="1.43998">
        <ele>2189.06</ele>
        <time>2013-12-16T12:24:13Z</time>
      </trkpt>
      <trkpt lat="42.83042" lon="1.43987">
        <ele>2186.18</ele>
        <time>2013-12-16T12:24:26Z</time>
      </trkpt>
      <trkpt lat="42.83034" lon="1.43975">
        <ele>2184.73</ele>
        <time>2013-12-16T12:24:36Z</time>
      </trkpt>
      <trkpt lat="42.8303" lon="1.43968">
        <ele>2181.85</ele>
        <time>2013-12-16T12:24:41Z</time>
      </trkpt>
      <trkpt lat="42.83026" lon="1.43964">
        <ele>2180.41</ele>
        <time>2013-12-16T12:24:45Z</time>
      </trkpt>
      <trkpt lat="42.83009" lon="1.43979">
        <ele>2171.27</ele>
        <time>2013-12-16T12:24:54Z</time>
      </trkpt>
      <trkpt lat="42.82979" lon="1.43987">
        <ele>2162.14</ele>
        <time>2013-12-16T12:25:00Z</time>
      </trkpt>
      <trkpt lat="42.8297" lon="1.43954">
        <ele>2153.49</ele>
        <time>2013-12-16T12:25:07Z</time>
      </trkpt>
      <trkpt lat="42.82967" lon="1.43947">
        <ele>2147.72</ele>
        <time>2013-12-16T12:25:15Z</time>
      </trkpt>
      <trkpt lat="42.8297" lon="1.43949">
        <ele>2143.88</ele>
        <time>2013-12-16T12:25:38Z</time>
      </trkpt>
      <trkpt lat="42.82965" lon="1.43949">
        <ele>2140.51</ele>
        <time>2013-12-16T12:25:46Z</time>
      </trkpt>
      <trkpt lat="42.82963" lon="1.43948">
        <ele>2140.51</ele>
        <time>2013-12-16T12:25:59Z</time>
      </trkpt>
      <trkpt lat="42.82949" lon="1.43942">
        <ele>2137.15</ele>
        <time>2013-12-16T12:26:03Z</time>
      </trkpt>
      <trkpt lat="42.8293" lon="1.43929">
        <ele>2128.5</ele>
        <time>2013-12-16T12:26:08Z</time>
      </trkpt>
      <trkpt lat="42.8292" lon="1.43928">
        <ele>2122.73</ele>
        <time>2013-12-16T12:26:13Z</time>
      </trkpt>
      <trkpt lat="42.8292" lon="1.43927">
        <ele>2119.84</ele>
        <time>2013-12-16T12:26:24Z</time>
      </trkpt>
      <trkpt lat="42.8292" lon="1.43928">
        <ele>2120.81</ele>
        <time>2013-12-16T12:26:30Z</time>
      </trkpt>
      <trkpt lat="42.82913" lon="1.43917">
        <ele>2118.88</ele>
        <time>2013-12-16T12:26:34Z</time>
      </trkpt>
      <trkpt lat="42.8291" lon="1.43891">
        <ele>2117.92</ele>
        <time>2013-12-16T12:26:43Z</time>
      </trkpt>
      <trkpt lat="42.82907" lon="1.43855">
        <ele>2115.04</ele>
        <time>2013-12-16T12:26:55Z</time>
      </trkpt>
      <trkpt lat="42.82902" lon="1.43851">
        <ele>2114.08</ele>
        <time>2013-12-16T12:27:00Z</time>
      </trkpt>
      <trkpt lat="42.82895" lon="1.43827">
        <ele>2108.79</ele>
        <time>2013-12-16T12:27:09Z</time>
      </trkpt>
      <trkpt lat="42.82892" lon="1.43828">
        <ele>2107.83</ele>
        <time>2013-12-16T12:27:10Z</time>
      </trkpt>
      <trkpt lat="42.82885" lon="1.43828">
        <ele>2104.46</ele>
        <time>2013-12-16T12:27:13Z</time>
      </trkpt>
      <trkpt lat="42.82882" lon="1.43824">
        <ele>2098.7</ele>
        <time>2013-12-16T12:27:17Z</time>
      </trkpt>
      <trkpt lat="42.82884" lon="1.43821">
        <ele>2087.64</ele>
        <time>2013-12-16T12:27:28Z</time>
      </trkpt>
      <trkpt lat="42.82885" lon="1.4382">
        <ele>2085.72</ele>
        <time>2013-12-16T12:27:39Z</time>
      </trkpt>
      <trkpt lat="42.82884" lon="1.4381">
        <ele>2084.28</ele>
        <time>2013-12-16T12:27:43Z</time>
      </trkpt>
      <trkpt lat="42.82882" lon="1.43802">
        <ele>2083.31</ele>
        <time>2013-12-16T12:27:46Z</time>
      </trkpt>
      <trkpt lat="42.82883" lon="1.43771">
        <ele>2077.07</ele>
        <time>2013-12-16T12:27:53Z</time>
      </trkpt>
      <trkpt lat="42.82884" lon="1.43759">
        <ele>2075.62</ele>
        <time>2013-12-16T12:27:56Z</time>
      </trkpt>
      <trkpt lat="42.82863" lon="1.43746">
        <ele>2069.38</ele>
        <time>2013-12-16T12:28:04Z</time>
      </trkpt>
      <trkpt lat="42.82874" lon="1.43717">
        <ele>2064.09</ele>
        <time>2013-12-16T12:28:11Z</time>
      </trkpt>
      <trkpt lat="42.82865" lon="1.43708">
        <ele>2061.68</ele>
        <time>2013-12-16T12:28:15Z</time>
      </trkpt>
      <trkpt lat="42.82844" lon="1.43706">
        <ele>2056.4</ele>
        <time>2013-12-16T12:28:19Z</time>
      </trkpt>
      <trkpt lat="42.82837" lon="1.43689">
        <ele>2049.67</ele>
        <time>2013-12-16T12:28:25Z</time>
      </trkpt>
      <trkpt lat="42.82844" lon="1.43675">
        <ele>2048.23</ele>
        <time>2013-12-16T12:28:28Z</time>
      </trkpt>
      <trkpt lat="42.82836" lon="1.43644">
        <ele>2044.38</ele>
        <time>2013-12-16T12:28:35Z</time>
      </trkpt>
      <trkpt lat="42.82842" lon="1.43626">
        <ele>2040.54</ele>
        <time>2013-12-16T12:28:40Z</time>
      </trkpt>
      <trkpt lat="42.82853" lon="1.43587">
        <ele>2036.69</ele>
        <time>2013-12-16T12:28:50Z</time>
      </trkpt>
      <trkpt lat="42.82876" lon="1.43536">
        <ele>2031.88</ele>
        <time>2013-12-16T12:29:00Z</time>
      </trkpt>
      <trkpt lat="42.82877" lon="1.43522">
        <ele>2028.52</ele>
        <time>2013-12-16T12:29:09Z</time>
      </trkpt>
      <trkpt lat="42.82876" lon="1.43522">
        <ele>2029</ele>
        <time>2013-12-16T12:29:15Z</time>
      </trkpt>
      <trkpt lat="42.82862" lon="1.43508">
        <ele>2027.56</ele>
        <time>2013-12-16T12:29:21Z</time>
      </trkpt>
      <trkpt lat="42.82851" lon="1.43492">
        <ele>2023.71</ele>
        <time>2013-12-16T12:29:26Z</time>
      </trkpt>
      <trkpt lat="42.82852" lon="1.43491">
        <ele>2022.27</ele>
        <time>2013-12-16T12:29:28Z</time>
      </trkpt>
      <trkpt lat="42.82856" lon="1.43487">
        <ele>2018.43</ele>
        <time>2013-12-16T12:29:42Z</time>
      </trkpt>
      <trkpt lat="42.8286" lon="1.4348">
        <ele>2016.5</ele>
        <time>2013-12-16T12:29:50Z</time>
      </trkpt>
      <trkpt lat="42.82876" lon="1.43468">
        <ele>2014.58</ele>
        <time>2013-12-16T12:29:55Z</time>
      </trkpt>
      <trkpt lat="42.82869" lon="1.43454">
        <ele>2011.7</ele>
        <time>2013-12-16T12:30:00Z</time>
      </trkpt>
      <trkpt lat="42.8286" lon="1.43443">
        <ele>2008.81</ele>
        <time>2013-12-16T12:30:05Z</time>
      </trkpt>
      <trkpt lat="42.8287" lon="1.43438">
        <ele>2003.52</ele>
        <time>2013-12-16T12:30:19Z</time>
      </trkpt>
      <trkpt lat="42.82874" lon="1.43436">
        <ele>1996.8</ele>
        <time>2013-12-16T12:30:57Z</time>
      </trkpt>
      <trkpt lat="42.82873" lon="1.43435">
        <ele>2002.08</ele>
        <time>2013-12-16T12:31:15Z</time>
      </trkpt>
      <trkpt lat="42.82866" lon="1.43426">
        <ele>1998.72</ele>
        <time>2013-12-16T12:31:19Z</time>
      </trkpt>
      <trkpt lat="42.82859" lon="1.43411">
        <ele>1994.39</ele>
        <time>2013-12-16T12:31:22Z</time>
      </trkpt>
      <trkpt lat="42.82866" lon="1.4337">
        <ele>1985.74</ele>
        <time>2013-12-16T12:31:30Z</time>
      </trkpt>
      <trkpt lat="42.8286" lon="1.43355">
        <ele>1982.86</ele>
        <time>2013-12-16T12:31:33Z</time>
      </trkpt>
      <trkpt lat="42.82848" lon="1.4334">
        <ele>1979.01</ele>
        <time>2013-12-16T12:31:38Z</time>
      </trkpt>
      <trkpt lat="42.82818" lon="1.43336">
        <ele>1973.24</ele>
        <time>2013-12-16T12:31:44Z</time>
      </trkpt>
      <trkpt lat="42.82814" lon="1.43335">
        <ele>1971.8</ele>
        <time>2013-12-16T12:31:45Z</time>
      </trkpt>
      <trkpt lat="42.82801" lon="1.43354">
        <ele>1967.96</ele>
        <time>2013-12-16T12:31:51Z</time>
      </trkpt>
      <trkpt lat="42.82795" lon="1.4336">
        <ele>1970.84</ele>
        <time>2013-12-16T12:32:12Z</time>
      </trkpt>
      <trkpt lat="42.82792" lon="1.4336">
        <ele>1973.24</ele>
        <time>2013-12-16T12:32:41Z</time>
      </trkpt>
      <trkpt lat="42.82792" lon="1.4336">
        <ele>1973.24</ele>
        <time>2013-12-16T12:32:43Z</time>
      </trkpt>
      <trkpt lat="42.82774" lon="1.43348">
        <ele>1969.88</ele>
        <time>2013-12-16T12:32:50Z</time>
      </trkpt>
      <trkpt lat="42.82759" lon="1.43341">
        <ele>1965.07</ele>
        <time>2013-12-16T12:32:54Z</time>
      </trkpt>
      <trkpt lat="42.82759" lon="1.43334">
        <ele>1963.15</ele>
        <time>2013-12-16T12:32:56Z</time>
      </trkpt>
      <trkpt lat="42.82759" lon="1.43314">
        <ele>1951.61</ele>
        <time>2013-12-16T12:33:04Z</time>
      </trkpt>
      <trkpt lat="42.82739" lon="1.43292">
        <ele>1942.96</ele>
        <time>2013-12-16T12:33:09Z</time>
      </trkpt>
      <trkpt lat="42.82718" lon="1.43283">
        <ele>1933.83</ele>
        <time>2013-12-16T12:33:14Z</time>
      </trkpt>
      <trkpt lat="42.82714" lon="1.43283">
        <ele>1932.39</ele>
        <time>2013-12-16T12:33:15Z</time>
      </trkpt>
      <trkpt lat="42.82703" lon="1.43285">
        <ele>1927.58</ele>
        <time>2013-12-16T12:33:18Z</time>
      </trkpt>
      <trkpt lat="42.82696" lon="1.43293">
        <ele>1926.62</ele>
        <time>2013-12-16T12:33:33Z</time>
      </trkpt>
      <trkpt lat="42.82695" lon="1.43294">
        <ele>1925.66</ele>
        <time>2013-12-16T12:33:39Z</time>
      </trkpt>
      <trkpt lat="42.82688" lon="1.43292">
        <ele>1927.1</ele>
        <time>2013-12-16T12:33:46Z</time>
      </trkpt>
      <trkpt lat="42.8267" lon="1.433">
        <ele>1924.7</ele>
        <time>2013-12-16T12:33:56Z</time>
      </trkpt>
      <trkpt lat="42.82664" lon="1.4328">
        <ele>1920.85</ele>
        <time>2013-12-16T12:34:02Z</time>
      </trkpt>
      <trkpt lat="42.82663" lon="1.43277">
        <ele>1919.89</ele>
        <time>2013-12-16T12:34:03Z</time>
      </trkpt>
      <trkpt lat="42.8266" lon="1.43273">
        <ele>1918.45</ele>
        <time>2013-12-16T12:34:05Z</time>
      </trkpt>
      <trkpt lat="42.82654" lon="1.43263">
        <ele>1913.64</ele>
        <time>2013-12-16T12:34:12Z</time>
      </trkpt>
      <trkpt lat="42.8265" lon="1.43261">
        <ele>1912.2</ele>
        <time>2013-12-16T12:34:14Z</time>
      </trkpt>
      <trkpt lat="42.82651" lon="1.43259">
        <ele>1901.14</ele>
        <time>2013-12-16T12:34:26Z</time>
      </trkpt>
      <trkpt lat="42.82651" lon="1.43258">
        <ele>1900.66</ele>
        <time>2013-12-16T12:34:27Z</time>
      </trkpt>
      <trkpt lat="42.82627" lon="1.43252">
        <ele>1895.86</ele>
        <time>2013-12-16T12:34:33Z</time>
      </trkpt>
      <trkpt lat="42.8262" lon="1.43252">
        <ele>1895.38</ele>
        <time>2013-12-16T12:34:34Z</time>
      </trkpt>
      <trkpt lat="42.82591" lon="1.43243">
        <ele>1891.53</ele>
        <time>2013-12-16T12:34:41Z</time>
      </trkpt>
      <trkpt lat="42.82588" lon="1.43238">
        <ele>1891.05</ele>
        <time>2013-12-16T12:34:44Z</time>
      </trkpt>
      <trkpt lat="42.82584" lon="1.43227">
        <ele>1889.13</ele>
        <time>2013-12-16T12:34:54Z</time>
      </trkpt>
      <trkpt lat="42.82584" lon="1.43224">
        <ele>1888.17</ele>
        <time>2013-12-16T12:34:57Z</time>
      </trkpt>
      <trkpt lat="42.82603" lon="1.43206">
        <ele>1883.84</ele>
        <time>2013-12-16T12:35:04Z</time>
      </trkpt>
      <trkpt lat="42.82612" lon="1.43198">
        <ele>1881.92</ele>
        <time>2013-12-16T12:35:07Z</time>
      </trkpt>
      <trkpt lat="42.82609" lon="1.43186">
        <ele>1879.03</ele>
        <time>2013-12-16T12:35:11Z</time>
      </trkpt>
      <trkpt lat="42.82611" lon="1.43177">
        <ele>1877.59</ele>
        <time>2013-12-16T12:35:13Z</time>
      </trkpt>
      <trkpt lat="42.82614" lon="1.43138">
        <ele>1876.15</ele>
        <time>2013-12-16T12:35:17Z</time>
      </trkpt>
      <trkpt lat="42.82601" lon="1.43102">
        <ele>1873.27</ele>
        <time>2013-12-16T12:35:22Z</time>
      </trkpt>
      <trkpt lat="42.82562" lon="1.43062">
        <ele>1868.94</ele>
        <time>2013-12-16T12:35:33Z</time>
      </trkpt>
      <trkpt lat="42.82527" lon="1.43031">
        <ele>1866.06</ele>
        <time>2013-12-16T12:35:42Z</time>
      </trkpt>
      <trkpt lat="42.82505" lon="1.43022">
        <ele>1863.17</ele>
        <time>2013-12-16T12:35:46Z</time>
      </trkpt>
      <trkpt lat="42.82484" lon="1.43014">
        <ele>1860.29</ele>
        <time>2013-12-16T12:35:50Z</time>
      </trkpt>
      <trkpt lat="42.82473" lon="1.43012">
        <ele>1859.33</ele>
        <time>2013-12-16T12:35:52Z</time>
      </trkpt>
      <trkpt lat="42.82424" lon="1.43022">
        <ele>1855.96</ele>
        <time>2013-12-16T12:36:04Z</time>
      </trkpt>
      <trkpt lat="42.82394" lon="1.43034">
        <ele>1854.04</ele>
        <time>2013-12-16T12:36:14Z</time>
      </trkpt>
      <trkpt lat="42.82372" lon="1.43056">
        <ele>1850.68</ele>
        <time>2013-12-16T12:36:21Z</time>
      </trkpt>
      <trkpt lat="42.82363" lon="1.43062">
        <ele>1849.71</ele>
        <time>2013-12-16T12:36:23Z</time>
      </trkpt>
      <trkpt lat="42.82342" lon="1.43075">
        <ele>1848.27</ele>
        <time>2013-12-16T12:36:31Z</time>
      </trkpt>
      <trkpt lat="42.82342" lon="1.43074">
        <ele>1844.91</ele>
        <time>2013-12-16T12:36:47Z</time>
      </trkpt>
      <trkpt lat="42.82343" lon="1.43073">
        <ele>1844.43</ele>
        <time>2013-12-16T12:37:12Z</time>
      </trkpt>
      <trkpt lat="42.82343" lon="1.43075">
        <ele>1844.91</ele>
        <time>2013-12-16T12:37:31Z</time>
      </trkpt>
      <trkpt lat="42.82343" lon="1.43074">
        <ele>1843.95</ele>
        <time>2013-12-16T12:37:55Z</time>
      </trkpt>
      <trkpt lat="42.82342" lon="1.43073">
        <ele>1845.39</ele>
        <time>2013-12-16T12:38:16Z</time>
      </trkpt>
      <trkpt lat="42.82341" lon="1.43072">
        <ele>1845.39</ele>
        <time>2013-12-16T12:38:42Z</time>
      </trkpt>
      <trkpt lat="42.8234" lon="1.43074">
        <ele>1846.83</ele>
        <time>2013-12-16T12:39:05Z</time>
      </trkpt>
      <trkpt lat="42.82341" lon="1.43075">
        <ele>1847.79</ele>
        <time>2013-12-16T12:39:38Z</time>
      </trkpt>
      <trkpt lat="42.82342" lon="1.43076">
        <ele>1846.35</ele>
        <time>2013-12-16T12:40:02Z</time>
      </trkpt>
      <trkpt lat="42.82342" lon="1.43074">
        <ele>1844.43</ele>
        <time>2013-12-16T12:40:26Z</time>
      </trkpt>
      <trkpt lat="42.82342" lon="1.43075">
        <ele>1844.43</ele>
        <time>2013-12-16T12:40:52Z</time>
      </trkpt>
      <trkpt lat="42.82341" lon="1.43076">
        <ele>1846.83</ele>
        <time>2013-12-16T12:41:18Z</time>
      </trkpt>
      <trkpt lat="42.82342" lon="1.43073">
        <ele>1846.83</ele>
        <time>2013-12-16T12:41:43Z</time>
      </trkpt>
      <trkpt lat="42.82342" lon="1.43074">
        <ele>1848.27</ele>
        <time>2013-12-16T12:42:05Z</time>
      </trkpt>
      <trkpt lat="42.82341" lon="1.43077">
        <ele>1847.31</ele>
        <time>2013-12-16T12:42:32Z</time>
      </trkpt>
      <trkpt lat="42.82342" lon="1.43076">
        <ele>1845.87</ele>
        <time>2013-12-16T12:42:56Z</time>
      </trkpt>
      <trkpt lat="42.82341" lon="1.43073">
        <ele>1846.35</ele>
        <time>2013-12-16T12:43:19Z</time>
      </trkpt>
      <trkpt lat="42.82341" lon="1.43073">
        <ele>1845.39</ele>
        <time>2013-12-16T12:43:25Z</time>
      </trkpt>
      <trkpt lat="42.82329" lon="1.4307">
        <ele>1848.27</ele>
        <time>2013-12-16T12:43:37Z</time>
      </trkpt>
      <trkpt lat="42.82324" lon="1.43068">
        <ele>1849.71</ele>
        <time>2013-12-16T12:43:42Z</time>
      </trkpt>
      <trkpt lat="42.82321" lon="1.43067">
        <ele>1850.19</ele>
        <time>2013-12-16T12:43:45Z</time>
      </trkpt>
      <trkpt lat="42.82309" lon="1.4306">
        <ele>1853.08</ele>
        <time>2013-12-16T12:44:00Z</time>
      </trkpt>
      <trkpt lat="42.823" lon="1.43054">
        <ele>1855.48</ele>
        <time>2013-12-16T12:44:12Z</time>
      </trkpt>
      <trkpt lat="42.82288" lon="1.43049">
        <ele>1858.37</ele>
        <time>2013-12-16T12:44:26Z</time>
      </trkpt>
      <trkpt lat="42.82282" lon="1.43044">
        <ele>1861.25</ele>
        <time>2013-12-16T12:44:40Z</time>
      </trkpt>
      <trkpt lat="42.82272" lon="1.43037">
        <ele>1860.77</ele>
        <time>2013-12-16T12:44:52Z</time>
      </trkpt>
      <trkpt lat="42.82264" lon="1.43029">
        <ele>1858.85</ele>
        <time>2013-12-16T12:45:04Z</time>
      </trkpt>
      <trkpt lat="42.82259" lon="1.43019">
        <ele>1859.81</ele>
        <time>2013-12-16T12:45:18Z</time>
      </trkpt>
      <trkpt lat="42.82257" lon="1.43013">
        <ele>1862.21</ele>
        <time>2013-12-16T12:45:25Z</time>
      </trkpt>
      <trkpt lat="42.8225" lon="1.43001">
        <ele>1865.58</ele>
        <time>2013-12-16T12:45:38Z</time>
      </trkpt>
      <trkpt lat="42.8225" lon="1.42989">
        <ele>1867.02</ele>
        <time>2013-12-16T12:45:51Z</time>
      </trkpt>
      <trkpt lat="42.82248" lon="1.42979">
        <ele>1870.86</ele>
        <time>2013-12-16T12:46:04Z</time>
      </trkpt>
      <trkpt lat="42.82244" lon="1.4297">
        <ele>1872.79</ele>
        <time>2013-12-16T12:46:16Z</time>
      </trkpt>
      <trkpt lat="42.82239" lon="1.42961">
        <ele>1873.27</ele>
        <time>2013-12-16T12:46:30Z</time>
      </trkpt>
      <trkpt lat="42.82235" lon="1.42953">
        <ele>1875.67</ele>
        <time>2013-12-16T12:46:43Z</time>
      </trkpt>
      <trkpt lat="42.8223" lon="1.42947">
        <ele>1877.59</ele>
        <time>2013-12-16T12:47:01Z</time>
      </trkpt>
      <trkpt lat="42.82225" lon="1.42941">
        <ele>1880</ele>
        <time>2013-12-16T12:47:13Z</time>
      </trkpt>
      <trkpt lat="42.82222" lon="1.42933">
        <ele>1882.88</ele>
        <time>2013-12-16T12:47:24Z</time>
      </trkpt>
      <trkpt lat="42.82218" lon="1.42921">
        <ele>1885.28</ele>
        <time>2013-12-16T12:47:36Z</time>
      </trkpt>
      <trkpt lat="42.82215" lon="1.42912">
        <ele>1887.69</ele>
        <time>2013-12-16T12:47:48Z</time>
      </trkpt>
      <trkpt lat="42.8221" lon="1.42906">
        <ele>1889.13</ele>
        <time>2013-12-16T12:48:00Z</time>
      </trkpt>
      <trkpt lat="42.82202" lon="1.42899">
        <ele>1889.13</ele>
        <time>2013-12-16T12:48:14Z</time>
      </trkpt>
      <trkpt lat="42.82197" lon="1.42893">
        <ele>1890.09</ele>
        <time>2013-12-16T12:48:26Z</time>
      </trkpt>
      <trkpt lat="42.8219" lon="1.42888">
        <ele>1892.01</ele>
        <time>2013-12-16T12:48:39Z</time>
      </trkpt>
      <trkpt lat="42.82189" lon="1.42889">
        <ele>1892.49</ele>
        <time>2013-12-16T12:49:06Z</time>
      </trkpt>
      <trkpt lat="42.82181" lon="1.42883">
        <ele>1895.38</ele>
        <time>2013-12-16T12:49:23Z</time>
      </trkpt>
      <trkpt lat="42.82169" lon="1.42875">
        <ele>1900.18</ele>
        <time>2013-12-16T12:49:35Z</time>
      </trkpt>
      <trkpt lat="42.8216" lon="1.42867">
        <ele>1901.63</ele>
        <time>2013-12-16T12:49:47Z</time>
      </trkpt>
      <trkpt lat="42.82151" lon="1.42862">
        <ele>1904.03</ele>
        <time>2013-12-16T12:49:59Z</time>
      </trkpt>
      <trkpt lat="42.82143" lon="1.42854">
        <ele>1904.99</ele>
        <time>2013-12-16T12:50:10Z</time>
      </trkpt>
      <trkpt lat="42.82132" lon="1.42844">
        <ele>1904.51</ele>
        <time>2013-12-16T12:50:24Z</time>
      </trkpt>
      <trkpt lat="42.82127" lon="1.42836">
        <ele>1904.03</ele>
        <time>2013-12-16T12:50:37Z</time>
      </trkpt>
      <trkpt lat="42.82127" lon="1.42836">
        <ele>1903.07</ele>
        <time>2013-12-16T12:50:52Z</time>
      </trkpt>
      <trkpt lat="42.82126" lon="1.42838">
        <ele>1905.95</ele>
        <time>2013-12-16T12:51:15Z</time>
      </trkpt>
      <trkpt lat="42.82127" lon="1.42837">
        <ele>1904.99</ele>
        <time>2013-12-16T12:51:40Z</time>
      </trkpt>
      <trkpt lat="42.82127" lon="1.42838">
        <ele>1906.43</ele>
        <time>2013-12-16T12:51:59Z</time>
      </trkpt>
      <trkpt lat="42.82127" lon="1.42837">
        <ele>1906.43</ele>
        <time>2013-12-16T12:52:25Z</time>
      </trkpt>
      <trkpt lat="42.82128" lon="1.42836">
        <ele>1906.91</ele>
        <time>2013-12-16T12:52:50Z</time>
      </trkpt>
      <trkpt lat="42.82126" lon="1.42838">
        <ele>1904.99</ele>
        <time>2013-12-16T12:53:16Z</time>
      </trkpt>
      <trkpt lat="42.82125" lon="1.4284">
        <ele>1905.47</ele>
        <time>2013-12-16T12:53:39Z</time>
      </trkpt>
      <trkpt lat="42.82125" lon="1.42839">
        <ele>1906.91</ele>
        <time>2013-12-16T12:54:02Z</time>
      </trkpt>
      <trkpt lat="42.82125" lon="1.42839">
        <ele>1906.91</ele>
        <time>2013-12-16T12:54:25Z</time>
      </trkpt>
      <trkpt lat="42.82125" lon="1.4284">
        <ele>1907.39</ele>
        <time>2013-12-16T12:54:51Z</time>
      </trkpt>
      <trkpt lat="42.82126" lon="1.42839">
        <ele>1907.87</ele>
        <time>2013-12-16T12:55:10Z</time>
      </trkpt>
      <trkpt lat="42.82125" lon="1.4284">
        <ele>1906.43</ele>
        <time>2013-12-16T12:55:37Z</time>
      </trkpt>
      <trkpt lat="42.82127" lon="1.42837">
        <ele>1905.95</ele>
        <time>2013-12-16T12:55:57Z</time>
      </trkpt>
      <trkpt lat="42.82126" lon="1.4284">
        <ele>1907.87</ele>
        <time>2013-12-16T12:56:26Z</time>
      </trkpt>
      <trkpt lat="42.82124" lon="1.42837">
        <ele>1907.39</ele>
        <time>2013-12-16T12:56:58Z</time>
      </trkpt>
      <trkpt lat="42.82125" lon="1.4283">
        <ele>1906.43</ele>
        <time>2013-12-16T12:57:16Z</time>
      </trkpt>
      <trkpt lat="42.82123" lon="1.42819">
        <ele>1904.99</ele>
        <time>2013-12-16T12:57:22Z</time>
      </trkpt>
      <trkpt lat="42.8212" lon="1.42811">
        <ele>1902.11</ele>
        <time>2013-12-16T12:57:35Z</time>
      </trkpt>
      <trkpt lat="42.8212" lon="1.42801">
        <ele>1899.22</ele>
        <time>2013-12-16T12:57:46Z</time>
      </trkpt>
      <trkpt lat="42.82127" lon="1.42793">
        <ele>1897.3</ele>
        <time>2013-12-16T12:57:53Z</time>
      </trkpt>
      <trkpt lat="42.82141" lon="1.42772">
        <ele>1893.93</ele>
        <time>2013-12-16T12:58:05Z</time>
      </trkpt>
      <trkpt lat="42.82166" lon="1.42744">
        <ele>1890.09</ele>
        <time>2013-12-16T12:58:14Z</time>
      </trkpt>
      <trkpt lat="42.82166" lon="1.42743">
        <ele>1889.13</ele>
        <time>2013-12-16T12:58:16Z</time>
      </trkpt>
      <trkpt lat="42.82162" lon="1.42739">
        <ele>1886.72</ele>
        <time>2013-12-16T12:58:26Z</time>
      </trkpt>
      <trkpt lat="42.82161" lon="1.4274">
        <ele>1886.72</ele>
        <time>2013-12-16T12:58:28Z</time>
      </trkpt>
      <trkpt lat="42.82143" lon="1.4273">
        <ele>1885.28</ele>
        <time>2013-12-16T12:58:35Z</time>
      </trkpt>
      <trkpt lat="42.82133" lon="1.42719">
        <ele>1881.44</ele>
        <time>2013-12-16T12:58:40Z</time>
      </trkpt>
      <trkpt lat="42.82129" lon="1.42714">
        <ele>1877.11</ele>
        <time>2013-12-16T12:58:47Z</time>
      </trkpt>
      <trkpt lat="42.82133" lon="1.42718">
        <ele>1867.5</ele>
        <time>2013-12-16T12:59:14Z</time>
      </trkpt>
      <trkpt lat="42.82136" lon="1.42707">
        <ele>1866.06</ele>
        <time>2013-12-16T12:59:24Z</time>
      </trkpt>
      <trkpt lat="42.82153" lon="1.42682">
        <ele>1864.13</ele>
        <time>2013-12-16T12:59:30Z</time>
      </trkpt>
      <trkpt lat="42.82138" lon="1.4267">
        <ele>1861.25</ele>
        <time>2013-12-16T12:59:36Z</time>
      </trkpt>
      <trkpt lat="42.82123" lon="1.42669">
        <ele>1857.89</ele>
        <time>2013-12-16T12:59:43Z</time>
      </trkpt>
      <trkpt lat="42.82114" lon="1.42643">
        <ele>1852.12</ele>
        <time>2013-12-16T12:59:50Z</time>
      </trkpt>
      <trkpt lat="42.82116" lon="1.4262">
        <ele>1848.27</ele>
        <time>2013-12-16T12:59:56Z</time>
      </trkpt>
      <trkpt lat="42.82114" lon="1.42605">
        <ele>1845.39</ele>
        <time>2013-12-16T13:00:01Z</time>
      </trkpt>
      <trkpt lat="42.8212" lon="1.42585">
        <ele>1840.1</ele>
        <time>2013-12-16T13:00:08Z</time>
      </trkpt>
      <trkpt lat="42.82132" lon="1.42572">
        <ele>1837.22</ele>
        <time>2013-12-16T13:00:12Z</time>
      </trkpt>
      <trkpt lat="42.82126" lon="1.42534">
        <ele>1831.93</ele>
        <time>2013-12-16T13:00:20Z</time>
      </trkpt>
      <trkpt lat="42.82143" lon="1.42499">
        <ele>1827.12</ele>
        <time>2013-12-16T13:00:26Z</time>
      </trkpt>
      <trkpt lat="42.82134" lon="1.42478">
        <ele>1822.32</ele>
        <time>2013-12-16T13:00:31Z</time>
      </trkpt>
      <trkpt lat="42.82114" lon="1.42468">
        <ele>1817.99</ele>
        <time>2013-12-16T13:00:36Z</time>
      </trkpt>
      <trkpt lat="42.82111" lon="1.42466">
        <ele>1817.51</ele>
        <time>2013-12-16T13:00:38Z</time>
      </trkpt>
      <trkpt lat="42.82107" lon="1.42459">
        <ele>1816.07</ele>
        <time>2013-12-16T13:00:42Z</time>
      </trkpt>
      <trkpt lat="42.82093" lon="1.42438">
        <ele>1811.74</ele>
        <time>2013-12-16T13:00:48Z</time>
      </trkpt>
      <trkpt lat="42.82085" lon="1.42418">
        <ele>1805.97</ele>
        <time>2013-12-16T13:00:54Z</time>
      </trkpt>
      <trkpt lat="42.82082" lon="1.42418">
        <ele>1804.05</ele>
        <time>2013-12-16T13:00:57Z</time>
      </trkpt>
      <trkpt lat="42.82071" lon="1.42438">
        <ele>1801.65</ele>
        <time>2013-12-16T13:01:08Z</time>
      </trkpt>
      <trkpt lat="42.8207" lon="1.42442">
        <ele>1801.65</ele>
        <time>2013-12-16T13:01:09Z</time>
      </trkpt>
      <trkpt lat="42.82049" lon="1.4245">
        <ele>1800.21</ele>
        <time>2013-12-16T13:01:15Z</time>
      </trkpt>
      <trkpt lat="42.82024" lon="1.42451">
        <ele>1794.92</ele>
        <time>2013-12-16T13:01:21Z</time>
      </trkpt>
      <trkpt lat="42.82009" lon="1.42467">
        <ele>1789.15</ele>
        <time>2013-12-16T13:01:30Z</time>
      </trkpt>
      <trkpt lat="42.82014" lon="1.42463">
        <ele>1788.19</ele>
        <time>2013-12-16T13:01:54Z</time>
      </trkpt>
      <trkpt lat="42.8201" lon="1.42464">
        <ele>1788.19</ele>
        <time>2013-12-16T13:02:04Z</time>
      </trkpt>
      <trkpt lat="42.82009" lon="1.42464">
        <ele>1791.07</ele>
        <time>2013-12-16T13:02:34Z</time>
      </trkpt>
      <trkpt lat="42.81997" lon="1.42469">
        <ele>1790.11</ele>
        <time>2013-12-16T13:02:37Z</time>
      </trkpt>
      <trkpt lat="42.81969" lon="1.42474">
        <ele>1782.42</ele>
        <time>2013-12-16T13:02:43Z</time>
      </trkpt>
      <trkpt lat="42.81946" lon="1.42478">
        <ele>1777.13</ele>
        <time>2013-12-16T13:02:46Z</time>
      </trkpt>
      <trkpt lat="42.8184" lon="1.42517">
        <ele>1758.87</ele>
        <time>2013-12-16T13:02:54Z</time>
      </trkpt>
      <trkpt lat="42.8182" lon="1.42525">
        <ele>1755.02</ele>
        <time>2013-12-16T13:02:56Z</time>
      </trkpt>
      <trkpt lat="42.81805" lon="1.42531">
        <ele>1752.14</ele>
        <time>2013-12-16T13:02:58Z</time>
      </trkpt>
      <trkpt lat="42.81783" lon="1.42534">
        <ele>1748.78</ele>
        <time>2013-12-16T13:03:02Z</time>
      </trkpt>
      <trkpt lat="42.8176" lon="1.42543">
        <ele>1747.33</ele>
        <time>2013-12-16T13:03:08Z</time>
      </trkpt>
      <trkpt lat="42.8175" lon="1.42542">
        <ele>1744.45</ele>
        <time>2013-12-16T13:03:18Z</time>
      </trkpt>
      <trkpt lat="42.81749" lon="1.42545">
        <ele>1743.01</ele>
        <time>2013-12-16T13:03:33Z</time>
      </trkpt>
      <trkpt lat="42.81746" lon="1.4255">
        <ele>1740.6</ele>
        <time>2013-12-16T13:03:49Z</time>
      </trkpt>
      <trkpt lat="42.81735" lon="1.42579">
        <ele>1738.68</ele>
        <time>2013-12-16T13:03:59Z</time>
      </trkpt>
      <trkpt lat="42.81732" lon="1.4258">
        <ele>1737.72</ele>
        <time>2013-12-16T13:04:06Z</time>
      </trkpt>
      <trkpt lat="42.81729" lon="1.42572">
        <ele>1737.24</ele>
        <time>2013-12-16T13:04:09Z</time>
      </trkpt>
      <trkpt lat="42.81707" lon="1.42545">
        <ele>1732.43</ele>
        <time>2013-12-16T13:04:15Z</time>
      </trkpt>
      <trkpt lat="42.81696" lon="1.42515">
        <ele>1728.11</ele>
        <time>2013-12-16T13:04:21Z</time>
      </trkpt>
      <trkpt lat="42.81685" lon="1.42488">
        <ele>1726.67</ele>
        <time>2013-12-16T13:04:27Z</time>
      </trkpt>
      <trkpt lat="42.81669" lon="1.4248">
        <ele>1724.74</ele>
        <time>2013-12-16T13:04:30Z</time>
      </trkpt>
      <trkpt lat="42.8165" lon="1.4249">
        <ele>1722.34</ele>
        <time>2013-12-16T13:04:34Z</time>
      </trkpt>
      <trkpt lat="42.81636" lon="1.42492">
        <ele>1718.01</ele>
        <time>2013-12-16T13:04:41Z</time>
      </trkpt>
      <trkpt lat="42.81638" lon="1.42499">
        <ele>1717.05</ele>
        <time>2013-12-16T13:04:55Z</time>
      </trkpt>
      <trkpt lat="42.81637" lon="1.42502">
        <ele>1716.09</ele>
        <time>2013-12-16T13:05:06Z</time>
      </trkpt>
      <trkpt lat="42.81635" lon="1.42503">
        <ele>1715.61</ele>
        <time>2013-12-16T13:05:08Z</time>
      </trkpt>
      <trkpt lat="42.81626" lon="1.42514">
        <ele>1714.65</ele>
        <time>2013-12-16T13:05:12Z</time>
      </trkpt>
      <trkpt lat="42.81606" lon="1.42525">
        <ele>1710.32</ele>
        <time>2013-12-16T13:05:19Z</time>
      </trkpt>
      <trkpt lat="42.81596" lon="1.42541">
        <ele>1706</ele>
        <time>2013-12-16T13:05:25Z</time>
      </trkpt>
      <trkpt lat="42.81582" lon="1.42549">
        <ele>1703.11</ele>
        <time>2013-12-16T13:05:30Z</time>
      </trkpt>
      <trkpt lat="42.81574" lon="1.42567">
        <ele>1700.71</ele>
        <time>2013-12-16T13:05:35Z</time>
      </trkpt>
      <trkpt lat="42.81561" lon="1.42582">
        <ele>1697.83</ele>
        <time>2013-12-16T13:05:40Z</time>
      </trkpt>
      <trkpt lat="42.81543" lon="1.42607">
        <ele>1693.5</ele>
        <time>2013-12-16T13:05:46Z</time>
      </trkpt>
      <trkpt lat="42.8154" lon="1.42616">
        <ele>1693.98</ele>
        <time>2013-12-16T13:05:56Z</time>
      </trkpt>
      <trkpt lat="42.81535" lon="1.42619">
        <ele>1686.29</ele>
        <time>2013-12-16T13:06:10Z</time>
      </trkpt>
      <trkpt lat="42.81527" lon="1.42623">
        <ele>1684.85</ele>
        <time>2013-12-16T13:06:16Z</time>
      </trkpt>
      <trkpt lat="42.81508" lon="1.42622">
        <ele>1679.08</ele>
        <time>2013-12-16T13:06:22Z</time>
      </trkpt>
      <trkpt lat="42.81507" lon="1.4262">
        <ele>1672.83</ele>
        <time>2013-12-16T13:06:33Z</time>
      </trkpt>
      <trkpt lat="42.81503" lon="1.42621">
        <ele>1672.83</ele>
        <time>2013-12-16T13:06:37Z</time>
      </trkpt>
      <trkpt lat="42.81497" lon="1.42597">
        <ele>1668.99</ele>
        <time>2013-12-16T13:06:42Z</time>
      </trkpt>
      <trkpt lat="42.81498" lon="1.42567">
        <ele>1664.66</ele>
        <time>2013-12-16T13:06:52Z</time>
      </trkpt>
      <trkpt lat="42.81501" lon="1.42564">
        <ele>1663.7</ele>
        <time>2013-12-16T13:06:56Z</time>
      </trkpt>
      <trkpt lat="42.81502" lon="1.42543">
        <ele>1662.26</ele>
        <time>2013-12-16T13:07:04Z</time>
      </trkpt>
      <trkpt lat="42.81496" lon="1.42536">
        <ele>1659.37</ele>
        <time>2013-12-16T13:07:15Z</time>
      </trkpt>
      <trkpt lat="42.81479" lon="1.4251">
        <ele>1655.05</ele>
        <time>2013-12-16T13:07:25Z</time>
      </trkpt>
      <trkpt lat="42.81477" lon="1.42503">
        <ele>1653.6</ele>
        <time>2013-12-16T13:07:29Z</time>
      </trkpt>
      <trkpt lat="42.81473" lon="1.42499">
        <ele>1652.64</ele>
        <time>2013-12-16T13:07:31Z</time>
      </trkpt>
      <trkpt lat="42.81464" lon="1.42494">
        <ele>1651.68</ele>
        <time>2013-12-16T13:07:33Z</time>
      </trkpt>
      <trkpt lat="42.81428" lon="1.42477">
        <ele>1647.36</ele>
        <time>2013-12-16T13:07:40Z</time>
      </trkpt>
      <trkpt lat="42.81385" lon="1.42448">
        <ele>1642.55</ele>
        <time>2013-12-16T13:07:47Z</time>
      </trkpt>
      <trkpt lat="42.81372" lon="1.42449">
        <ele>1641.59</ele>
        <time>2013-12-16T13:07:49Z</time>
      </trkpt>
      <trkpt lat="42.81357" lon="1.42444">
        <ele>1638.7</ele>
        <time>2013-12-16T13:07:52Z</time>
      </trkpt>
      <trkpt lat="42.81339" lon="1.42442">
        <ele>1633.9</ele>
        <time>2013-12-16T13:07:56Z</time>
      </trkpt>
      <trkpt lat="42.81315" lon="1.42444">
        <ele>1630.05</ele>
        <time>2013-12-16T13:07:59Z</time>
      </trkpt>
      <trkpt lat="42.81287" lon="1.42445">
        <ele>1621.88</ele>
        <time>2013-12-16T13:08:05Z</time>
      </trkpt>
      <trkpt lat="42.81283" lon="1.42445">
        <ele>1620.92</ele>
        <time>2013-12-16T13:08:06Z</time>
      </trkpt>
      <trkpt lat="42.81272" lon="1.42447">
        <ele>1613.23</ele>
        <time>2013-12-16T13:08:16Z</time>
      </trkpt>
      <trkpt lat="42.81275" lon="1.42452">
        <ele>1604.58</ele>
        <time>2013-12-16T13:08:42Z</time>
      </trkpt>
      <trkpt lat="42.81273" lon="1.42448">
        <ele>1599.77</ele>
        <time>2013-12-16T13:08:53Z</time>
      </trkpt>
      <trkpt lat="42.8127" lon="1.42456">
        <ele>1597.37</ele>
        <time>2013-12-16T13:09:03Z</time>
      </trkpt>
      <trkpt lat="42.81276" lon="1.42465">
        <ele>1596.41</ele>
        <time>2013-12-16T13:09:20Z</time>
      </trkpt>
      <trkpt lat="42.81279" lon="1.42468">
        <ele>1597.85</ele>
        <time>2013-12-16T13:09:36Z</time>
      </trkpt>
      <trkpt lat="42.8128" lon="1.42463">
        <ele>1598.81</ele>
        <time>2013-12-16T13:09:57Z</time>
      </trkpt>
      <trkpt lat="42.81289" lon="1.42436">
        <ele>1596.89</ele>
        <time>2013-12-16T13:10:06Z</time>
      </trkpt>
      <trkpt lat="42.8129" lon="1.42413">
        <ele>1596.89</ele>
        <time>2013-12-16T13:10:21Z</time>
      </trkpt>
      <trkpt lat="42.81289" lon="1.42403">
        <ele>1596.89</ele>
        <time>2013-12-16T13:10:32Z</time>
      </trkpt>
      <trkpt lat="42.81288" lon="1.42389">
        <ele>1598.33</ele>
        <time>2013-12-16T13:10:44Z</time>
      </trkpt>
      <trkpt lat="42.81287" lon="1.42387">
        <ele>1598.33</ele>
        <time>2013-12-16T13:10:46Z</time>
      </trkpt>
      <trkpt lat="42.81281" lon="1.42378">
        <ele>1598.33</ele>
        <time>2013-12-16T13:10:57Z</time>
      </trkpt>
      <trkpt lat="42.81277" lon="1.42368">
        <ele>1598.81</ele>
        <time>2013-12-16T13:11:05Z</time>
      </trkpt>
      <trkpt lat="42.81278" lon="1.42353">
        <ele>1600.25</ele>
        <time>2013-12-16T13:11:20Z</time>
      </trkpt>
      <trkpt lat="42.81284" lon="1.42359">
        <ele>1601.21</ele>
        <time>2013-12-16T13:11:44Z</time>
      </trkpt>
      <trkpt lat="42.81282" lon="1.4236">
        <ele>1602.66</ele>
        <time>2013-12-16T13:12:01Z</time>
      </trkpt>
      <trkpt lat="42.81279" lon="1.42365">
        <ele>1606.5</ele>
        <time>2013-12-16T13:12:26Z</time>
      </trkpt>
      <trkpt lat="42.81279" lon="1.42379">
        <ele>1612.27</ele>
        <time>2013-12-16T13:13:00Z</time>
      </trkpt>
      <trkpt lat="42.81279" lon="1.42379">
        <ele>1613.23</ele>
        <time>2013-12-16T13:13:07Z</time>
      </trkpt>
      <trkpt lat="42.81271" lon="1.42358">
        <ele>1611.31</ele>
        <time>2013-12-16T13:13:15Z</time>
      </trkpt>
      <trkpt lat="42.81263" lon="1.42352">
        <ele>1606.02</ele>
        <time>2013-12-16T13:13:21Z</time>
      </trkpt>
      <trkpt lat="42.81259" lon="1.42345">
        <ele>1598.33</ele>
        <time>2013-12-16T13:13:46Z</time>
      </trkpt>
      <trkpt lat="42.81255" lon="1.42348">
        <ele>1596.41</ele>
        <time>2013-12-16T13:13:50Z</time>
      </trkpt>
      <trkpt lat="42.81252" lon="1.42343">
        <ele>1590.64</ele>
        <time>2013-12-16T13:14:01Z</time>
      </trkpt>
      <trkpt lat="42.81252" lon="1.42331">
        <ele>1586.31</ele>
        <time>2013-12-16T13:14:24Z</time>
      </trkpt>
      <trkpt lat="42.8125" lon="1.42322">
        <ele>1584.39</ele>
        <time>2013-12-16T13:14:28Z</time>
      </trkpt>
      <trkpt lat="42.81237" lon="1.42315">
        <ele>1576.7</ele>
        <time>2013-12-16T13:14:38Z</time>
      </trkpt>
      <trkpt lat="42.81235" lon="1.42315">
        <ele>1574.78</ele>
        <time>2013-12-16T13:14:41Z</time>
      </trkpt>
      <trkpt lat="42.81231" lon="1.42317">
        <ele>1569.01</ele>
        <time>2013-12-16T13:14:50Z</time>
      </trkpt>
      <trkpt lat="42.81227" lon="1.42316">
        <ele>1564.2</ele>
        <time>2013-12-16T13:15:05Z</time>
      </trkpt>
      <trkpt lat="42.81225" lon="1.4232">
        <ele>1562.28</ele>
        <time>2013-12-16T13:15:09Z</time>
      </trkpt>
      <trkpt lat="42.81219" lon="1.42321">
        <ele>1556.51</ele>
        <time>2013-12-16T13:15:21Z</time>
      </trkpt>
      <trkpt lat="42.81219" lon="1.42323">
        <ele>1553.15</ele>
        <time>2013-12-16T13:15:38Z</time>
      </trkpt>
      <trkpt lat="42.81218" lon="1.42325">
        <ele>1553.15</ele>
        <time>2013-12-16T13:15:41Z</time>
      </trkpt>
      <trkpt lat="42.81205" lon="1.42324">
        <ele>1549.78</ele>
        <time>2013-12-16T13:15:48Z</time>
      </trkpt>
      <trkpt lat="42.81205" lon="1.42329">
        <ele>1544.98</ele>
        <time>2013-12-16T13:15:56Z</time>
      </trkpt>
      <trkpt lat="42.81188" lon="1.42321">
        <ele>1538.73</ele>
        <time>2013-12-16T13:16:05Z</time>
      </trkpt>
      <trkpt lat="42.81187" lon="1.4232">
        <ele>1538.25</ele>
        <time>2013-12-16T13:16:06Z</time>
      </trkpt>
      <trkpt lat="42.81184" lon="1.4232">
        <ele>1533.92</ele>
        <time>2013-12-16T13:16:11Z</time>
      </trkpt>
      <trkpt lat="42.81172" lon="1.42311">
        <ele>1528.15</ele>
        <time>2013-12-16T13:16:21Z</time>
      </trkpt>
      <trkpt lat="42.81173" lon="1.42311">
        <ele>1527.19</ele>
        <time>2013-12-16T13:16:29Z</time>
      </trkpt>
      <trkpt lat="42.81164" lon="1.4232">
        <ele>1523.35</ele>
        <time>2013-12-16T13:16:36Z</time>
      </trkpt>
      <trkpt lat="42.81163" lon="1.42326">
        <ele>1520.46</ele>
        <time>2013-12-16T13:16:40Z</time>
      </trkpt>
      <trkpt lat="42.81156" lon="1.42351">
        <ele>1512.29</ele>
        <time>2013-12-16T13:16:48Z</time>
      </trkpt>
      <trkpt lat="42.81146" lon="1.42371">
        <ele>1506.04</ele>
        <time>2013-12-16T13:16:53Z</time>
      </trkpt>
      <trkpt lat="42.81135" lon="1.42382">
        <ele>1500.27</ele>
        <time>2013-12-16T13:16:59Z</time>
      </trkpt>
      <trkpt lat="42.81113" lon="1.42404">
        <ele>1491.14</ele>
        <time>2013-12-16T13:17:05Z</time>
      </trkpt>
      <trkpt lat="42.8109" lon="1.42414">
        <ele>1483.45</ele>
        <time>2013-12-16T13:17:10Z</time>
      </trkpt>
      <trkpt lat="42.81079" lon="1.42408">
        <ele>1480.57</ele>
        <time>2013-12-16T13:17:12Z</time>
      </trkpt>
      <trkpt lat="42.8106" lon="1.4239">
        <ele>1478.16</ele>
        <time>2013-12-16T13:17:16Z</time>
      </trkpt>
      <trkpt lat="42.81033" lon="1.42387">
        <ele>1474.32</ele>
        <time>2013-12-16T13:17:22Z</time>
      </trkpt>
      <trkpt lat="42.81023" lon="1.42393">
        <ele>1472.4</ele>
        <time>2013-12-16T13:17:24Z</time>
      </trkpt>
      <trkpt lat="42.81004" lon="1.42395">
        <ele>1469.51</ele>
        <time>2013-12-16T13:17:27Z</time>
      </trkpt>
      <trkpt lat="42.80974" lon="1.424">
        <ele>1465.67</ele>
        <time>2013-12-16T13:17:33Z</time>
      </trkpt>
      <trkpt lat="42.80965" lon="1.42398">
        <ele>1464.71</ele>
        <time>2013-12-16T13:17:36Z</time>
      </trkpt>
      <trkpt lat="42.80951" lon="1.42414">
        <ele>1461.82</ele>
        <time>2013-12-16T13:17:43Z</time>
      </trkpt>
      <trkpt lat="42.80953" lon="1.42417">
        <ele>1458.94</ele>
        <time>2013-12-16T13:17:54Z</time>
      </trkpt>
      <trkpt lat="42.80955" lon="1.42417">
        <ele>1459.9</ele>
        <time>2013-12-16T13:17:59Z</time>
      </trkpt>
      <trkpt lat="42.80939" lon="1.4242">
        <ele>1456.53</ele>
        <time>2013-12-16T13:18:06Z</time>
      </trkpt>
      <trkpt lat="42.80919" lon="1.42427">
        <ele>1453.17</ele>
        <time>2013-12-16T13:18:10Z</time>
      </trkpt>
      <trkpt lat="42.80907" lon="1.4243">
        <ele>1450.77</ele>
        <time>2013-12-16T13:18:13Z</time>
      </trkpt>
      <trkpt lat="42.80904" lon="1.42427">
        <ele>1450.29</ele>
        <time>2013-12-16T13:18:14Z</time>
      </trkpt>
      <trkpt lat="42.80902" lon="1.42423">
        <ele>1449.32</ele>
        <time>2013-12-16T13:18:15Z</time>
      </trkpt>
      <trkpt lat="42.80901" lon="1.42419">
        <ele>1448.84</ele>
        <time>2013-12-16T13:18:16Z</time>
      </trkpt>
      <trkpt lat="42.80901" lon="1.42416">
        <ele>1448.36</ele>
        <time>2013-12-16T13:18:17Z</time>
      </trkpt>
      <trkpt lat="42.80898" lon="1.42411">
        <ele>1446.44</ele>
        <time>2013-12-16T13:18:22Z</time>
      </trkpt>
      <trkpt lat="42.80881" lon="1.42383">
        <ele>1442.11</ele>
        <time>2013-12-16T13:18:29Z</time>
      </trkpt>
      <trkpt lat="42.80866" lon="1.42364">
        <ele>1438.27</ele>
        <time>2013-12-16T13:18:37Z</time>
      </trkpt>
      <trkpt lat="42.8086" lon="1.42363">
        <ele>1436.83</ele>
        <time>2013-12-16T13:18:40Z</time>
      </trkpt>
      <trkpt lat="42.80843" lon="1.4239">
        <ele>1432.5</ele>
        <time>2013-12-16T13:18:47Z</time>
      </trkpt>
      <trkpt lat="42.80839" lon="1.42392">
        <ele>1431.06</ele>
        <time>2013-12-16T13:18:49Z</time>
      </trkpt>
      <trkpt lat="42.80834" lon="1.42391">
        <ele>1430.1</ele>
        <time>2013-12-16T13:18:51Z</time>
      </trkpt>
      <trkpt lat="42.8083" lon="1.42393">
        <ele>1424.33</ele>
        <time>2013-12-16T13:18:59Z</time>
      </trkpt>
      <trkpt lat="42.80834" lon="1.42418">
        <ele>1418.56</ele>
        <time>2013-12-16T13:19:07Z</time>
      </trkpt>
      <trkpt lat="42.80837" lon="1.42435">
        <ele>1415.2</ele>
        <time>2013-12-16T13:19:19Z</time>
      </trkpt>
      <trkpt lat="42.80823" lon="1.42435">
        <ele>1409.43</ele>
        <time>2013-12-16T13:19:27Z</time>
      </trkpt>
      <trkpt lat="42.80809" lon="1.42436">
        <ele>1404.62</ele>
        <time>2013-12-16T13:19:33Z</time>
      </trkpt>
      <trkpt lat="42.80801" lon="1.42446">
        <ele>1398.86</ele>
        <time>2013-12-16T13:19:40Z</time>
      </trkpt>
      <trkpt lat="42.80803" lon="1.42443">
        <ele>1393.57</ele>
        <time>2013-12-16T13:19:47Z</time>
      </trkpt>
      <trkpt lat="42.80797" lon="1.42433">
        <ele>1391.17</ele>
        <time>2013-12-16T13:19:51Z</time>
      </trkpt>
      <trkpt lat="42.80792" lon="1.42437">
        <ele>1389.24</ele>
        <time>2013-12-16T13:19:54Z</time>
      </trkpt>
      <trkpt lat="42.80792" lon="1.42441">
        <ele>1388.28</ele>
        <time>2013-12-16T13:19:55Z</time>
      </trkpt>
      <trkpt lat="42.80791" lon="1.42444">
        <ele>1387.8</ele>
        <time>2013-12-16T13:19:56Z</time>
      </trkpt>
      <trkpt lat="42.80788" lon="1.42444">
        <ele>1381.07</ele>
        <time>2013-12-16T13:20:08Z</time>
      </trkpt>
      <trkpt lat="42.80787" lon="1.42445">
        <ele>1380.59</ele>
        <time>2013-12-16T13:20:09Z</time>
      </trkpt>
      <trkpt lat="42.80785" lon="1.42446">
        <ele>1380.11</ele>
        <time>2013-12-16T13:20:10Z</time>
      </trkpt>
      <trkpt lat="42.80782" lon="1.42445">
        <ele>1379.15</ele>
        <time>2013-12-16T13:20:14Z</time>
      </trkpt>
      <trkpt lat="42.80781" lon="1.42444">
        <ele>1378.67</ele>
        <time>2013-12-16T13:20:15Z</time>
      </trkpt>
      <trkpt lat="42.80779" lon="1.42444">
        <ele>1378.19</ele>
        <time>2013-12-16T13:20:16Z</time>
      </trkpt>
      <trkpt lat="42.80778" lon="1.42449">
        <ele>1374.34</ele>
        <time>2013-12-16T13:20:28Z</time>
      </trkpt>
      <trkpt lat="42.80778" lon="1.4246">
        <ele>1372.42</ele>
        <time>2013-12-16T13:20:41Z</time>
      </trkpt>
      <trkpt lat="42.80777" lon="1.42459">
        <ele>1371.46</ele>
        <time>2013-12-16T13:20:55Z</time>
      </trkpt>
      <trkpt lat="42.80773" lon="1.42455">
        <ele>1369.54</ele>
        <time>2013-12-16T13:21:00Z</time>
      </trkpt>
      <trkpt lat="42.80761" lon="1.42461">
        <ele>1367.13</ele>
        <time>2013-12-16T13:21:06Z</time>
      </trkpt>
      <trkpt lat="42.80748" lon="1.4247">
        <ele>1362.81</ele>
        <time>2013-12-16T13:21:12Z</time>
      </trkpt>
      <trkpt lat="42.80746" lon="1.4247">
        <ele>1361.84</ele>
        <time>2013-12-16T13:21:13Z</time>
      </trkpt>
      <trkpt lat="42.80739" lon="1.42467">
        <ele>1353.19</ele>
        <time>2013-12-16T13:21:22Z</time>
      </trkpt>
      <trkpt lat="42.80728" lon="1.42475">
        <ele>1344.06</ele>
        <time>2013-12-16T13:21:29Z</time>
      </trkpt>
      <trkpt lat="42.80735" lon="1.42479">
        <ele>1325.8</ele>
        <time>2013-12-16T13:21:47Z</time>
      </trkpt>
      <trkpt lat="42.80732" lon="1.42481">
        <ele>1319.55</ele>
        <time>2013-12-16T13:22:11Z</time>
      </trkpt>
      <trkpt lat="42.80732" lon="1.42475">
        <ele>1327.24</ele>
        <time>2013-12-16T13:22:37Z</time>
      </trkpt>
      <trkpt lat="42.80732" lon="1.42473">
        <ele>1333.97</ele>
        <time>2013-12-16T13:22:53Z</time>
      </trkpt>
      <trkpt lat="42.80731" lon="1.42473">
        <ele>1335.41</ele>
        <time>2013-12-16T13:23:11Z</time>
      </trkpt>
      <trkpt lat="42.8073" lon="1.4247">
        <ele>1337.33</ele>
        <time>2013-12-16T13:23:28Z</time>
      </trkpt>
      <trkpt lat="42.8073" lon="1.42468">
        <ele>1337.33</ele>
        <time>2013-12-16T13:23:41Z</time>
      </trkpt>
      <trkpt lat="42.80731" lon="1.42462">
        <ele>1338.29</ele>
        <time>2013-12-16T13:24:06Z</time>
      </trkpt>
      <trkpt lat="42.80731" lon="1.42461">
        <ele>1338.29</ele>
        <time>2013-12-16T13:24:27Z</time>
      </trkpt>
      <trkpt lat="42.80728" lon="1.4246">
        <ele>1336.85</ele>
        <time>2013-12-16T13:24:48Z</time>
      </trkpt>
      <trkpt lat="42.80724" lon="1.42459">
        <ele>1337.33</ele>
        <time>2013-12-16T13:24:53Z</time>
      </trkpt>
      <trkpt lat="42.80715" lon="1.42462">
        <ele>1331.08</ele>
        <time>2013-12-16T13:25:00Z</time>
      </trkpt>
      <trkpt lat="42.80706" lon="1.42452">
        <ele>1327.24</ele>
        <time>2013-12-16T13:25:07Z</time>
      </trkpt>
      <trkpt lat="42.80706" lon="1.42449">
        <ele>1326.28</ele>
        <time>2013-12-16T13:25:08Z</time>
      </trkpt>
      <trkpt lat="42.80705" lon="1.42445">
        <ele>1326.28</ele>
        <time>2013-12-16T13:25:09Z</time>
      </trkpt>
      <trkpt lat="42.80703" lon="1.42441">
        <ele>1325.8</ele>
        <time>2013-12-16T13:25:10Z</time>
      </trkpt>
      <trkpt lat="42.80702" lon="1.42439">
        <ele>1325.8</ele>
        <time>2013-12-16T13:25:11Z</time>
      </trkpt>
      <trkpt lat="42.807" lon="1.42437">
        <ele>1325.8</ele>
        <time>2013-12-16T13:25:12Z</time>
      </trkpt>
      <trkpt lat="42.80699" lon="1.42436">
        <ele>1325.31</ele>
        <time>2013-12-16T13:25:13Z</time>
      </trkpt>
      <trkpt lat="42.80696" lon="1.42438">
        <ele>1323.87</ele>
        <time>2013-12-16T13:25:25Z</time>
      </trkpt>
      <trkpt lat="42.80694" lon="1.42438">
        <ele>1322.43</ele>
        <time>2013-12-16T13:25:49Z</time>
      </trkpt>
      <trkpt lat="42.80697" lon="1.42435">
        <ele>1320.03</ele>
        <time>2013-12-16T13:26:05Z</time>
      </trkpt>
      <trkpt lat="42.80694" lon="1.42433">
        <ele>1318.1</ele>
        <time>2013-12-16T13:26:20Z</time>
      </trkpt>
      <trkpt lat="42.80691" lon="1.42433">
        <ele>1318.1</ele>
        <time>2013-12-16T13:26:33Z</time>
      </trkpt>
      <trkpt lat="42.8069" lon="1.42434">
        <ele>1318.1</ele>
        <time>2013-12-16T13:26:34Z</time>
      </trkpt>
      <trkpt lat="42.80686" lon="1.42423">
        <ele>1318.1</ele>
        <time>2013-12-16T13:26:44Z</time>
      </trkpt>
      <trkpt lat="42.80685" lon="1.42422">
        <ele>1318.1</ele>
        <time>2013-12-16T13:26:46Z</time>
      </trkpt>
      <trkpt lat="42.80684" lon="1.42421">
        <ele>1318.1</ele>
        <time>2013-12-16T13:26:47Z</time>
      </trkpt>
      <trkpt lat="42.80676" lon="1.4241">
        <ele>1320.51</ele>
        <time>2013-12-16T13:27:00Z</time>
      </trkpt>
      <trkpt lat="42.80674" lon="1.4241">
        <ele>1323.39</ele>
        <time>2013-12-16T13:27:15Z</time>
      </trkpt>
      <trkpt lat="42.80672" lon="1.42409">
        <ele>1323.39</ele>
        <time>2013-12-16T13:27:46Z</time>
      </trkpt>
      <trkpt lat="42.80674" lon="1.42407">
        <ele>1323.39</ele>
        <time>2013-12-16T13:28:05Z</time>
      </trkpt>
      <trkpt lat="42.80672" lon="1.42408">
        <ele>1326.28</ele>
        <time>2013-12-16T13:28:29Z</time>
      </trkpt>
      <trkpt lat="42.80675" lon="1.42408">
        <ele>1324.35</ele>
        <time>2013-12-16T13:28:48Z</time>
      </trkpt>
      <trkpt lat="42.80673" lon="1.42408">
        <ele>1322.91</ele>
        <time>2013-12-16T13:29:05Z</time>
      </trkpt>
      <trkpt lat="42.80673" lon="1.42407">
        <ele>1322.43</ele>
        <time>2013-12-16T13:29:21Z</time>
      </trkpt>
    </trkseg>
  </trk>
</gpx>